<?xml version="1.0" encoding="UTF-8" standalone="no" ?>
<gpx xmlns="http://www.topografix.com/GPX/1/1" xmlns:xsi="http://www.w3.org/2001/XMLSchema-instance" xsi:schemaLocation="http://www.topografix.com/GPX/1/1 http://www.topografix.com/GPX/1/1/gpx.xsd" version="1.1" creator="VisuGPX - https://www.visugpx.com">
  <metadata>
    <name>Le Cougoir par le Pas du Loup</name>
    <desc><![CDATA[Boucle au départ de Teyssières (Vieux Village) par le col de Fonturière, le Pas du Loup, le Cougoir, le col de la Pause et le col du Bouton.

Avant la montée au Pas du Loup, juste après le point 696, la trace emprunté est très envahie par la végétation. On peut l'éviter en continuant une cinquantaine de mètres sur la piste pour prendre à droite une vieille piste.

Un topo détaillé de la montée au Pas du Loup se trouve sur le site [url=https://www.camptocamp.org/routes/274603/fr/le-cougoir-en-circuit-depuis-mielandre-par-le-pas-du-loup]camptocamp.org[/url].]]></desc>
  </metadata>
  <trk>
    <name><![CDATA[2023-02-19 15:14:38]]></name>
    <trkseg>
      <trkpt lat="44.45001" lon="5.13182">
        <ele>662.97</ele>
        <time>2023-02-19T08:01:33Z</time>
      </trkpt>
      <trkpt lat="44.45008" lon="5.13183">
        <ele>662.97</ele>
        <time>2023-02-19T08:01:47Z</time>
      </trkpt>
      <trkpt lat="44.45025" lon="5.13184">
        <ele>661.04</ele>
        <time>2023-02-19T08:02:05Z</time>
      </trkpt>
      <trkpt lat="44.45026" lon="5.13184">
        <ele>661.52</ele>
        <time>2023-02-19T08:02:06Z</time>
      </trkpt>
      <trkpt lat="44.45043" lon="5.13176">
        <ele>659.6</ele>
        <time>2023-02-19T08:02:24Z</time>
      </trkpt>
      <trkpt lat="44.45051" lon="5.13173">
        <ele>659.6</ele>
        <time>2023-02-19T08:02:32Z</time>
      </trkpt>
      <trkpt lat="44.45067" lon="5.13182">
        <ele>657.68</ele>
        <time>2023-02-19T08:02:49Z</time>
      </trkpt>
      <trkpt lat="44.45074" lon="5.13199">
        <ele>655.76</ele>
        <time>2023-02-19T08:03:02Z</time>
      </trkpt>
      <trkpt lat="44.45075" lon="5.13205">
        <ele>655.76</ele>
        <time>2023-02-19T08:03:06Z</time>
      </trkpt>
      <trkpt lat="44.45074" lon="5.13211">
        <ele>655.28</ele>
        <time>2023-02-19T08:03:10Z</time>
      </trkpt>
      <trkpt lat="44.45084" lon="5.13236">
        <ele>655.28</ele>
        <time>2023-02-19T08:03:26Z</time>
      </trkpt>
      <trkpt lat="44.45086" lon="5.13242">
        <ele>655.28</ele>
        <time>2023-02-19T08:03:30Z</time>
      </trkpt>
      <trkpt lat="44.4509" lon="5.13248">
        <ele>654.8</ele>
        <time>2023-02-19T08:03:34Z</time>
      </trkpt>
      <trkpt lat="44.45102" lon="5.13271">
        <ele>654.8</ele>
        <time>2023-02-19T08:03:51Z</time>
      </trkpt>
      <trkpt lat="44.45108" lon="5.13295">
        <ele>654.31</ele>
        <time>2023-02-19T08:04:06Z</time>
      </trkpt>
      <trkpt lat="44.4511" lon="5.13312">
        <ele>654.31</ele>
        <time>2023-02-19T08:04:17Z</time>
      </trkpt>
      <trkpt lat="44.45105" lon="5.13338">
        <ele>656.24</ele>
        <time>2023-02-19T08:04:32Z</time>
      </trkpt>
      <trkpt lat="44.45104" lon="5.13343">
        <ele>656.24</ele>
        <time>2023-02-19T08:04:35Z</time>
      </trkpt>
      <trkpt lat="44.45103" lon="5.13353">
        <ele>656.72</ele>
        <time>2023-02-19T08:04:43Z</time>
      </trkpt>
      <trkpt lat="44.45103" lon="5.13379">
        <ele>657.2</ele>
        <time>2023-02-19T08:05:00Z</time>
      </trkpt>
      <trkpt lat="44.45104" lon="5.13399">
        <ele>657.68</ele>
        <time>2023-02-19T08:05:11Z</time>
      </trkpt>
      <trkpt lat="44.45109" lon="5.13432">
        <ele>658.16</ele>
        <time>2023-02-19T08:05:28Z</time>
      </trkpt>
      <trkpt lat="44.4511" lon="5.13462">
        <ele>656.24</ele>
        <time>2023-02-19T08:05:45Z</time>
      </trkpt>
      <trkpt lat="44.45111" lon="5.13493">
        <ele>654.31</ele>
        <time>2023-02-19T08:06:03Z</time>
      </trkpt>
      <trkpt lat="44.45112" lon="5.13532">
        <ele>653.83</ele>
        <time>2023-02-19T08:06:22Z</time>
      </trkpt>
      <trkpt lat="44.45109" lon="5.13563">
        <ele>653.35</ele>
        <time>2023-02-19T08:06:38Z</time>
      </trkpt>
      <trkpt lat="44.45109" lon="5.13567">
        <ele>652.87</ele>
        <time>2023-02-19T08:06:40Z</time>
      </trkpt>
      <trkpt lat="44.45107" lon="5.13576">
        <ele>652.39</ele>
        <time>2023-02-19T08:06:45Z</time>
      </trkpt>
      <trkpt lat="44.45106" lon="5.13585">
        <ele>651.91</ele>
        <time>2023-02-19T08:06:50Z</time>
      </trkpt>
      <trkpt lat="44.45118" lon="5.13601">
        <ele>651.43</ele>
        <time>2023-02-19T08:07:06Z</time>
      </trkpt>
      <trkpt lat="44.45119" lon="5.136">
        <ele>651.43</ele>
        <time>2023-02-19T08:07:08Z</time>
      </trkpt>
      <trkpt lat="44.45122" lon="5.13603">
        <ele>651.43</ele>
        <time>2023-02-19T08:07:13Z</time>
      </trkpt>
      <trkpt lat="44.45127" lon="5.13615">
        <ele>650.95</ele>
        <time>2023-02-19T08:07:21Z</time>
      </trkpt>
      <trkpt lat="44.4513" lon="5.13625">
        <ele>650.95</ele>
        <time>2023-02-19T08:07:26Z</time>
      </trkpt>
      <trkpt lat="44.45134" lon="5.13651">
        <ele>650.47</ele>
        <time>2023-02-19T08:07:42Z</time>
      </trkpt>
      <trkpt lat="44.45139" lon="5.1368">
        <ele>649.51</ele>
        <time>2023-02-19T08:07:59Z</time>
      </trkpt>
      <trkpt lat="44.45144" lon="5.1371">
        <ele>648.55</ele>
        <time>2023-02-19T08:08:15Z</time>
      </trkpt>
      <trkpt lat="44.45151" lon="5.13741">
        <ele>646.62</ele>
        <time>2023-02-19T08:08:32Z</time>
      </trkpt>
      <trkpt lat="44.45153" lon="5.13748">
        <ele>646.62</ele>
        <time>2023-02-19T08:08:37Z</time>
      </trkpt>
      <trkpt lat="44.45154" lon="5.13751">
        <ele>646.62</ele>
        <time>2023-02-19T08:08:39Z</time>
      </trkpt>
      <trkpt lat="44.45161" lon="5.13767">
        <ele>648.55</ele>
        <time>2023-02-19T08:08:53Z</time>
      </trkpt>
      <trkpt lat="44.45172" lon="5.13778">
        <ele>650.47</ele>
        <time>2023-02-19T08:09:06Z</time>
      </trkpt>
      <trkpt lat="44.45183" lon="5.13794">
        <ele>652.39</ele>
        <time>2023-02-19T08:09:21Z</time>
      </trkpt>
      <trkpt lat="44.45194" lon="5.1381">
        <ele>653.83</ele>
        <time>2023-02-19T08:09:35Z</time>
      </trkpt>
      <trkpt lat="44.45206" lon="5.13826">
        <ele>654.8</ele>
        <time>2023-02-19T08:09:49Z</time>
      </trkpt>
      <trkpt lat="44.45219" lon="5.13836">
        <ele>654.8</ele>
        <time>2023-02-19T08:10:04Z</time>
      </trkpt>
      <trkpt lat="44.45231" lon="5.13847">
        <ele>654.31</ele>
        <time>2023-02-19T08:10:15Z</time>
      </trkpt>
      <trkpt lat="44.45239" lon="5.13864">
        <ele>654.31</ele>
        <time>2023-02-19T08:10:28Z</time>
      </trkpt>
      <trkpt lat="44.45241" lon="5.13869">
        <ele>654.31</ele>
        <time>2023-02-19T08:10:32Z</time>
      </trkpt>
      <trkpt lat="44.45254" lon="5.13891">
        <ele>654.31</ele>
        <time>2023-02-19T08:10:48Z</time>
      </trkpt>
      <trkpt lat="44.45264" lon="5.13905">
        <ele>652.87</ele>
        <time>2023-02-19T08:11:02Z</time>
      </trkpt>
      <trkpt lat="44.45269" lon="5.13911">
        <ele>652.39</ele>
        <time>2023-02-19T08:11:07Z</time>
      </trkpt>
      <trkpt lat="44.45284" lon="5.13928">
        <ele>652.39</ele>
        <time>2023-02-19T08:11:21Z</time>
      </trkpt>
      <trkpt lat="44.45293" lon="5.13944">
        <ele>651.91</ele>
        <time>2023-02-19T08:11:33Z</time>
      </trkpt>
      <trkpt lat="44.45295" lon="5.13967">
        <ele>651.43</ele>
        <time>2023-02-19T08:11:47Z</time>
      </trkpt>
      <trkpt lat="44.45294" lon="5.13983">
        <ele>649.99</ele>
        <time>2023-02-19T08:11:58Z</time>
      </trkpt>
      <trkpt lat="44.45289" lon="5.14012">
        <ele>646.62</ele>
        <time>2023-02-19T08:12:14Z</time>
      </trkpt>
      <trkpt lat="44.45286" lon="5.1403">
        <ele>644.7</ele>
        <time>2023-02-19T08:12:25Z</time>
      </trkpt>
      <trkpt lat="44.45285" lon="5.14052">
        <ele>641.34</ele>
        <time>2023-02-19T08:12:40Z</time>
      </trkpt>
      <trkpt lat="44.45285" lon="5.14076">
        <ele>638.45</ele>
        <time>2023-02-19T08:12:54Z</time>
      </trkpt>
      <trkpt lat="44.4529" lon="5.14091">
        <ele>636.53</ele>
        <time>2023-02-19T08:13:03Z</time>
      </trkpt>
      <trkpt lat="44.45293" lon="5.14113">
        <ele>633.65</ele>
        <time>2023-02-19T08:13:17Z</time>
      </trkpt>
      <trkpt lat="44.4529" lon="5.14136">
        <ele>632.68</ele>
        <time>2023-02-19T08:13:30Z</time>
      </trkpt>
      <trkpt lat="44.45284" lon="5.14154">
        <ele>631.72</ele>
        <time>2023-02-19T08:13:43Z</time>
      </trkpt>
      <trkpt lat="44.45285" lon="5.14156">
        <ele>631.72</ele>
        <time>2023-02-19T08:13:44Z</time>
      </trkpt>
      <trkpt lat="44.45289" lon="5.14163">
        <ele>631.72</ele>
        <time>2023-02-19T08:13:50Z</time>
      </trkpt>
      <trkpt lat="44.45292" lon="5.14169">
        <ele>632.68</ele>
        <time>2023-02-19T08:13:55Z</time>
      </trkpt>
      <trkpt lat="44.45298" lon="5.14195">
        <ele>633.65</ele>
        <time>2023-02-19T08:14:10Z</time>
      </trkpt>
      <trkpt lat="44.453" lon="5.14216">
        <ele>632.2</ele>
        <time>2023-02-19T08:14:24Z</time>
      </trkpt>
      <trkpt lat="44.453" lon="5.14221">
        <ele>632.2</ele>
        <time>2023-02-19T08:14:27Z</time>
      </trkpt>
      <trkpt lat="44.45304" lon="5.14247">
        <ele>631.24</ele>
        <time>2023-02-19T08:14:43Z</time>
      </trkpt>
      <trkpt lat="44.45311" lon="5.14269">
        <ele>629.32</ele>
        <time>2023-02-19T08:14:57Z</time>
      </trkpt>
      <trkpt lat="44.45315" lon="5.14293">
        <ele>627.4</ele>
        <time>2023-02-19T08:15:11Z</time>
      </trkpt>
      <trkpt lat="44.45322" lon="5.14309">
        <ele>624.99</ele>
        <time>2023-02-19T08:15:25Z</time>
      </trkpt>
      <trkpt lat="44.45326" lon="5.14319">
        <ele>621.63</ele>
        <time>2023-02-19T08:15:35Z</time>
      </trkpt>
      <trkpt lat="44.45329" lon="5.1433">
        <ele>618.26</ele>
        <time>2023-02-19T08:15:47Z</time>
      </trkpt>
      <trkpt lat="44.45328" lon="5.14344">
        <ele>616.34</ele>
        <time>2023-02-19T08:16:01Z</time>
      </trkpt>
      <trkpt lat="44.45323" lon="5.14347">
        <ele>616.34</ele>
        <time>2023-02-19T08:16:07Z</time>
      </trkpt>
      <trkpt lat="44.45318" lon="5.14361">
        <ele>616.34</ele>
        <time>2023-02-19T08:16:17Z</time>
      </trkpt>
      <trkpt lat="44.45316" lon="5.14375">
        <ele>618.75</ele>
        <time>2023-02-19T08:16:28Z</time>
      </trkpt>
      <trkpt lat="44.45316" lon="5.14399">
        <ele>620.67</ele>
        <time>2023-02-19T08:16:42Z</time>
      </trkpt>
      <trkpt lat="44.45314" lon="5.14422">
        <ele>621.15</ele>
        <time>2023-02-19T08:16:56Z</time>
      </trkpt>
      <trkpt lat="44.45311" lon="5.14433">
        <ele>622.11</ele>
        <time>2023-02-19T08:17:03Z</time>
      </trkpt>
      <trkpt lat="44.45297" lon="5.1445">
        <ele>622.59</ele>
        <time>2023-02-19T08:17:19Z</time>
      </trkpt>
      <trkpt lat="44.45296" lon="5.14451">
        <ele>622.59</ele>
        <time>2023-02-19T08:17:20Z</time>
      </trkpt>
      <trkpt lat="44.45285" lon="5.1446">
        <ele>625.47</ele>
        <time>2023-02-19T08:17:37Z</time>
      </trkpt>
      <trkpt lat="44.45283" lon="5.14459">
        <ele>625.47</ele>
        <time>2023-02-19T08:17:40Z</time>
      </trkpt>
      <trkpt lat="44.45272" lon="5.1446">
        <ele>623.55</ele>
        <time>2023-02-19T08:17:50Z</time>
      </trkpt>
      <trkpt lat="44.45262" lon="5.14465">
        <ele>623.07</ele>
        <time>2023-02-19T08:17:59Z</time>
      </trkpt>
      <trkpt lat="44.4525" lon="5.14485">
        <ele>623.07</ele>
        <time>2023-02-19T08:18:15Z</time>
      </trkpt>
      <trkpt lat="44.45244" lon="5.14498">
        <ele>623.07</ele>
        <time>2023-02-19T08:18:24Z</time>
      </trkpt>
      <trkpt lat="44.45233" lon="5.14508">
        <ele>625.96</ele>
        <time>2023-02-19T08:18:40Z</time>
      </trkpt>
      <trkpt lat="44.45223" lon="5.1452">
        <ele>626.44</ele>
        <time>2023-02-19T08:18:53Z</time>
      </trkpt>
      <trkpt lat="44.45214" lon="5.14532">
        <ele>627.4</ele>
        <time>2023-02-19T08:19:08Z</time>
      </trkpt>
      <trkpt lat="44.45208" lon="5.14544">
        <ele>629.32</ele>
        <time>2023-02-19T08:19:21Z</time>
      </trkpt>
      <trkpt lat="44.45199" lon="5.14558">
        <ele>629.8</ele>
        <time>2023-02-19T08:19:35Z</time>
      </trkpt>
      <trkpt lat="44.45191" lon="5.14563">
        <ele>629.32</ele>
        <time>2023-02-19T08:19:44Z</time>
      </trkpt>
      <trkpt lat="44.45179" lon="5.1457">
        <ele>630.76</ele>
        <time>2023-02-19T08:19:57Z</time>
      </trkpt>
      <trkpt lat="44.45174" lon="5.14573">
        <ele>631.72</ele>
        <time>2023-02-19T08:20:03Z</time>
      </trkpt>
      <trkpt lat="44.45172" lon="5.14576">
        <ele>631.72</ele>
        <time>2023-02-19T08:20:06Z</time>
      </trkpt>
      <trkpt lat="44.45165" lon="5.14589">
        <ele>634.13</ele>
        <time>2023-02-19T08:20:19Z</time>
      </trkpt>
      <trkpt lat="44.45166" lon="5.14607">
        <ele>635.09</ele>
        <time>2023-02-19T08:20:32Z</time>
      </trkpt>
      <trkpt lat="44.45166" lon="5.14609">
        <ele>635.57</ele>
        <time>2023-02-19T08:20:34Z</time>
      </trkpt>
      <trkpt lat="44.45169" lon="5.14628">
        <ele>637.01</ele>
        <time>2023-02-19T08:20:49Z</time>
      </trkpt>
      <trkpt lat="44.45172" lon="5.14645">
        <ele>639.41</ele>
        <time>2023-02-19T08:21:02Z</time>
      </trkpt>
      <trkpt lat="44.45173" lon="5.14655">
        <ele>641.34</ele>
        <time>2023-02-19T08:21:10Z</time>
      </trkpt>
      <trkpt lat="44.45174" lon="5.1466">
        <ele>641.82</ele>
        <time>2023-02-19T08:21:15Z</time>
      </trkpt>
      <trkpt lat="44.45177" lon="5.14671">
        <ele>642.3</ele>
        <time>2023-02-19T08:21:23Z</time>
      </trkpt>
      <trkpt lat="44.45176" lon="5.14684">
        <ele>644.7</ele>
        <time>2023-02-19T08:21:40Z</time>
      </trkpt>
      <trkpt lat="44.4518" lon="5.14703">
        <ele>647.1</ele>
        <time>2023-02-19T08:21:56Z</time>
      </trkpt>
      <trkpt lat="44.45183" lon="5.1472">
        <ele>649.03</ele>
        <time>2023-02-19T08:22:10Z</time>
      </trkpt>
      <trkpt lat="44.45192" lon="5.14742">
        <ele>649.51</ele>
        <time>2023-02-19T08:22:25Z</time>
      </trkpt>
      <trkpt lat="44.45192" lon="5.14744">
        <ele>649.51</ele>
        <time>2023-02-19T08:22:26Z</time>
      </trkpt>
      <trkpt lat="44.45192" lon="5.1476">
        <ele>651.43</ele>
        <time>2023-02-19T08:22:38Z</time>
      </trkpt>
      <trkpt lat="44.45192" lon="5.14767">
        <ele>652.39</ele>
        <time>2023-02-19T08:22:43Z</time>
      </trkpt>
      <trkpt lat="44.45198" lon="5.14784">
        <ele>654.8</ele>
        <time>2023-02-19T08:22:57Z</time>
      </trkpt>
      <trkpt lat="44.45199" lon="5.14804">
        <ele>657.2</ele>
        <time>2023-02-19T08:23:11Z</time>
      </trkpt>
      <trkpt lat="44.45199" lon="5.14815">
        <ele>657.2</ele>
        <time>2023-02-19T08:23:18Z</time>
      </trkpt>
      <trkpt lat="44.45197" lon="5.14834">
        <ele>658.64</ele>
        <time>2023-02-19T08:23:31Z</time>
      </trkpt>
      <trkpt lat="44.45196" lon="5.1485">
        <ele>659.12</ele>
        <time>2023-02-19T08:23:44Z</time>
      </trkpt>
      <trkpt lat="44.45194" lon="5.14877">
        <ele>657.68</ele>
        <time>2023-02-19T08:24:00Z</time>
      </trkpt>
      <trkpt lat="44.45195" lon="5.14881">
        <ele>657.68</ele>
        <time>2023-02-19T08:24:02Z</time>
      </trkpt>
      <trkpt lat="44.45194" lon="5.1489">
        <ele>657.68</ele>
        <time>2023-02-19T08:24:07Z</time>
      </trkpt>
      <trkpt lat="44.45191" lon="5.14903">
        <ele>657.2</ele>
        <time>2023-02-19T08:24:15Z</time>
      </trkpt>
      <trkpt lat="44.45186" lon="5.14928">
        <ele>657.2</ele>
        <time>2023-02-19T08:24:31Z</time>
      </trkpt>
      <trkpt lat="44.45186" lon="5.14957">
        <ele>656.72</ele>
        <time>2023-02-19T08:24:48Z</time>
      </trkpt>
      <trkpt lat="44.45184" lon="5.14965">
        <ele>656.72</ele>
        <time>2023-02-19T08:24:59Z</time>
      </trkpt>
      <trkpt lat="44.45185" lon="5.14973">
        <ele>654.8</ele>
        <time>2023-02-19T08:31:06Z</time>
      </trkpt>
      <trkpt lat="44.45188" lon="5.14982">
        <ele>653.83</ele>
        <time>2023-02-19T08:31:13Z</time>
      </trkpt>
      <trkpt lat="44.45186" lon="5.1499">
        <ele>652.87</ele>
        <time>2023-02-19T08:31:19Z</time>
      </trkpt>
      <trkpt lat="44.4518" lon="5.15024">
        <ele>650.47</ele>
        <time>2023-02-19T08:31:39Z</time>
      </trkpt>
      <trkpt lat="44.45171" lon="5.15052">
        <ele>648.07</ele>
        <time>2023-02-19T08:31:57Z</time>
      </trkpt>
      <trkpt lat="44.45164" lon="5.15064">
        <ele>647.1</ele>
        <time>2023-02-19T08:32:06Z</time>
      </trkpt>
      <trkpt lat="44.45156" lon="5.1509">
        <ele>644.22</ele>
        <time>2023-02-19T08:32:23Z</time>
      </trkpt>
      <trkpt lat="44.45156" lon="5.15095">
        <ele>643.74</ele>
        <time>2023-02-19T08:32:26Z</time>
      </trkpt>
      <trkpt lat="44.45158" lon="5.15104">
        <ele>642.3</ele>
        <time>2023-02-19T08:32:32Z</time>
      </trkpt>
      <trkpt lat="44.45172" lon="5.15134">
        <ele>639.41</ele>
        <time>2023-02-19T08:32:52Z</time>
      </trkpt>
      <trkpt lat="44.45188" lon="5.15149">
        <ele>636.05</ele>
        <time>2023-02-19T08:33:09Z</time>
      </trkpt>
      <trkpt lat="44.45195" lon="5.15153">
        <ele>634.61</ele>
        <time>2023-02-19T08:33:16Z</time>
      </trkpt>
      <trkpt lat="44.45202" lon="5.15155">
        <ele>633.17</ele>
        <time>2023-02-19T08:33:21Z</time>
      </trkpt>
      <trkpt lat="44.45216" lon="5.15166">
        <ele>629.8</ele>
        <time>2023-02-19T08:33:33Z</time>
      </trkpt>
      <trkpt lat="44.4523" lon="5.15195">
        <ele>626.44</ele>
        <time>2023-02-19T08:33:51Z</time>
      </trkpt>
      <trkpt lat="44.45234" lon="5.15215">
        <ele>623.07</ele>
        <time>2023-02-19T08:34:02Z</time>
      </trkpt>
      <trkpt lat="44.45238" lon="5.1524">
        <ele>620.67</ele>
        <time>2023-02-19T08:34:19Z</time>
      </trkpt>
      <trkpt lat="44.45248" lon="5.15266">
        <ele>618.26</ele>
        <time>2023-02-19T08:34:37Z</time>
      </trkpt>
      <trkpt lat="44.4525" lon="5.15273">
        <ele>618.26</ele>
        <time>2023-02-19T08:34:50Z</time>
      </trkpt>
      <trkpt lat="44.45253" lon="5.15286">
        <ele>618.26</ele>
        <time>2023-02-19T08:35:05Z</time>
      </trkpt>
      <trkpt lat="44.45253" lon="5.1529">
        <ele>618.26</ele>
        <time>2023-02-19T08:35:10Z</time>
      </trkpt>
      <trkpt lat="44.45251" lon="5.15319">
        <ele>618.26</ele>
        <time>2023-02-19T08:35:29Z</time>
      </trkpt>
      <trkpt lat="44.45252" lon="5.15348">
        <ele>618.26</ele>
        <time>2023-02-19T08:35:47Z</time>
      </trkpt>
      <trkpt lat="44.45262" lon="5.15375">
        <ele>620.67</ele>
        <time>2023-02-19T08:36:04Z</time>
      </trkpt>
      <trkpt lat="44.45264" lon="5.15379">
        <ele>620.67</ele>
        <time>2023-02-19T08:36:07Z</time>
      </trkpt>
      <trkpt lat="44.45283" lon="5.15396">
        <ele>620.67</ele>
        <time>2023-02-19T08:36:25Z</time>
      </trkpt>
      <trkpt lat="44.45301" lon="5.15413">
        <ele>621.63</ele>
        <time>2023-02-19T08:36:43Z</time>
      </trkpt>
      <trkpt lat="44.45316" lon="5.15441">
        <ele>622.59</ele>
        <time>2023-02-19T08:37:02Z</time>
      </trkpt>
      <trkpt lat="44.45322" lon="5.15464">
        <ele>624.99</ele>
        <time>2023-02-19T08:37:18Z</time>
      </trkpt>
      <trkpt lat="44.45326" lon="5.15483">
        <ele>626.44</ele>
        <time>2023-02-19T08:37:32Z</time>
      </trkpt>
      <trkpt lat="44.45331" lon="5.15496">
        <ele>628.36</ele>
        <time>2023-02-19T08:37:43Z</time>
      </trkpt>
      <trkpt lat="44.45338" lon="5.15513">
        <ele>630.76</ele>
        <time>2023-02-19T08:38:00Z</time>
      </trkpt>
      <trkpt lat="44.45335" lon="5.1553">
        <ele>633.17</ele>
        <time>2023-02-19T08:38:14Z</time>
      </trkpt>
      <trkpt lat="44.45334" lon="5.15531">
        <ele>633.17</ele>
        <time>2023-02-19T08:38:15Z</time>
      </trkpt>
      <trkpt lat="44.45329" lon="5.15542">
        <ele>634.61</ele>
        <time>2023-02-19T08:38:28Z</time>
      </trkpt>
      <trkpt lat="44.45333" lon="5.15553">
        <ele>637.01</ele>
        <time>2023-02-19T08:38:43Z</time>
      </trkpt>
      <trkpt lat="44.45337" lon="5.15559">
        <ele>637.97</ele>
        <time>2023-02-19T08:38:49Z</time>
      </trkpt>
      <trkpt lat="44.45348" lon="5.15565">
        <ele>639.89</ele>
        <time>2023-02-19T08:39:04Z</time>
      </trkpt>
      <trkpt lat="44.4536" lon="5.15567">
        <ele>642.78</ele>
        <time>2023-02-19T08:39:17Z</time>
      </trkpt>
      <trkpt lat="44.45362" lon="5.15568">
        <ele>643.26</ele>
        <time>2023-02-19T08:39:20Z</time>
      </trkpt>
      <trkpt lat="44.45369" lon="5.15573">
        <ele>644.7</ele>
        <time>2023-02-19T08:39:28Z</time>
      </trkpt>
      <trkpt lat="44.45367" lon="5.15589">
        <ele>647.59</ele>
        <time>2023-02-19T08:39:43Z</time>
      </trkpt>
      <trkpt lat="44.45356" lon="5.15601">
        <ele>649.99</ele>
        <time>2023-02-19T08:40:00Z</time>
      </trkpt>
      <trkpt lat="44.45349" lon="5.1561">
        <ele>652.39</ele>
        <time>2023-02-19T08:40:14Z</time>
      </trkpt>
      <trkpt lat="44.45344" lon="5.15624">
        <ele>654.8</ele>
        <time>2023-02-19T08:40:29Z</time>
      </trkpt>
      <trkpt lat="44.45346" lon="5.1563">
        <ele>656.24</ele>
        <time>2023-02-19T08:40:35Z</time>
      </trkpt>
      <trkpt lat="44.45349" lon="5.15639">
        <ele>658.64</ele>
        <time>2023-02-19T08:40:46Z</time>
      </trkpt>
      <trkpt lat="44.45349" lon="5.15657">
        <ele>660.56</ele>
        <time>2023-02-19T08:41:00Z</time>
      </trkpt>
      <trkpt lat="44.45343" lon="5.15672">
        <ele>662.97</ele>
        <time>2023-02-19T08:41:15Z</time>
      </trkpt>
      <trkpt lat="44.45335" lon="5.15686">
        <ele>665.85</ele>
        <time>2023-02-19T08:41:30Z</time>
      </trkpt>
      <trkpt lat="44.45327" lon="5.157">
        <ele>668.73</ele>
        <time>2023-02-19T08:41:46Z</time>
      </trkpt>
      <trkpt lat="44.45318" lon="5.15709">
        <ele>671.62</ele>
        <time>2023-02-19T08:42:02Z</time>
      </trkpt>
      <trkpt lat="44.45308" lon="5.15717">
        <ele>674.5</ele>
        <time>2023-02-19T08:42:19Z</time>
      </trkpt>
      <trkpt lat="44.45299" lon="5.15723">
        <ele>675.94</ele>
        <time>2023-02-19T08:42:32Z</time>
      </trkpt>
      <trkpt lat="44.4529" lon="5.1573">
        <ele>677.87</ele>
        <time>2023-02-19T08:42:45Z</time>
      </trkpt>
      <trkpt lat="44.45276" lon="5.1574">
        <ele>679.79</ele>
        <time>2023-02-19T08:43:00Z</time>
      </trkpt>
      <trkpt lat="44.45265" lon="5.15748">
        <ele>682.19</ele>
        <time>2023-02-19T08:43:14Z</time>
      </trkpt>
      <trkpt lat="44.45264" lon="5.15749">
        <ele>682.19</ele>
        <time>2023-02-19T08:43:15Z</time>
      </trkpt>
      <trkpt lat="44.45255" lon="5.15757">
        <ele>684.12</ele>
        <time>2023-02-19T08:43:28Z</time>
      </trkpt>
      <trkpt lat="44.45246" lon="5.15763">
        <ele>686.52</ele>
        <time>2023-02-19T08:43:42Z</time>
      </trkpt>
      <trkpt lat="44.45244" lon="5.15764">
        <ele>686.52</ele>
        <time>2023-02-19T08:43:44Z</time>
      </trkpt>
      <trkpt lat="44.45234" lon="5.1577">
        <ele>688.44</ele>
        <time>2023-02-19T08:43:55Z</time>
      </trkpt>
      <trkpt lat="44.45221" lon="5.15775">
        <ele>691.33</ele>
        <time>2023-02-19T08:44:09Z</time>
      </trkpt>
      <trkpt lat="44.45208" lon="5.15778">
        <ele>693.73</ele>
        <time>2023-02-19T08:44:24Z</time>
      </trkpt>
      <trkpt lat="44.45197" lon="5.15781">
        <ele>695.65</ele>
        <time>2023-02-19T08:44:37Z</time>
      </trkpt>
      <trkpt lat="44.45193" lon="5.15782">
        <ele>696.61</ele>
        <time>2023-02-19T08:44:43Z</time>
      </trkpt>
      <trkpt lat="44.45185" lon="5.15782">
        <ele>699.02</ele>
        <time>2023-02-19T08:44:56Z</time>
      </trkpt>
      <trkpt lat="44.45173" lon="5.15784">
        <ele>699.98</ele>
        <time>2023-02-19T08:45:10Z</time>
      </trkpt>
      <trkpt lat="44.45162" lon="5.15788">
        <ele>700.94</ele>
        <time>2023-02-19T08:45:24Z</time>
      </trkpt>
      <trkpt lat="44.4515" lon="5.1579">
        <ele>701.42</ele>
        <time>2023-02-19T08:45:36Z</time>
      </trkpt>
      <trkpt lat="44.45138" lon="5.15792">
        <ele>702.86</ele>
        <time>2023-02-19T08:45:50Z</time>
      </trkpt>
      <trkpt lat="44.45126" lon="5.15796">
        <ele>704.3</ele>
        <time>2023-02-19T08:46:02Z</time>
      </trkpt>
      <trkpt lat="44.45114" lon="5.15802">
        <ele>706.23</ele>
        <time>2023-02-19T08:46:14Z</time>
      </trkpt>
      <trkpt lat="44.45103" lon="5.1581">
        <ele>707.67</ele>
        <time>2023-02-19T08:46:27Z</time>
      </trkpt>
      <trkpt lat="44.45093" lon="5.15824">
        <ele>709.11</ele>
        <time>2023-02-19T08:46:41Z</time>
      </trkpt>
      <trkpt lat="44.45086" lon="5.1584">
        <ele>710.55</ele>
        <time>2023-02-19T08:46:56Z</time>
      </trkpt>
      <trkpt lat="44.45079" lon="5.1585">
        <ele>711.03</ele>
        <time>2023-02-19T08:47:06Z</time>
      </trkpt>
      <trkpt lat="44.4507" lon="5.1586">
        <ele>712.47</ele>
        <time>2023-02-19T08:47:19Z</time>
      </trkpt>
      <trkpt lat="44.45067" lon="5.15865">
        <ele>712.95</ele>
        <time>2023-02-19T08:47:24Z</time>
      </trkpt>
      <trkpt lat="44.45064" lon="5.15867">
        <ele>713.44</ele>
        <time>2023-02-19T08:47:27Z</time>
      </trkpt>
      <trkpt lat="44.45059" lon="5.15871">
        <ele>713.92</ele>
        <time>2023-02-19T08:47:32Z</time>
      </trkpt>
      <trkpt lat="44.45051" lon="5.15881">
        <ele>715.84</ele>
        <time>2023-02-19T08:47:42Z</time>
      </trkpt>
      <trkpt lat="44.45048" lon="5.15884">
        <ele>716.32</ele>
        <time>2023-02-19T08:47:45Z</time>
      </trkpt>
      <trkpt lat="44.45039" lon="5.15892">
        <ele>717.76</ele>
        <time>2023-02-19T08:47:56Z</time>
      </trkpt>
      <trkpt lat="44.45028" lon="5.15899">
        <ele>720.16</ele>
        <time>2023-02-19T08:48:10Z</time>
      </trkpt>
      <trkpt lat="44.4502" lon="5.15899">
        <ele>720.65</ele>
        <time>2023-02-19T08:48:18Z</time>
      </trkpt>
      <trkpt lat="44.45004" lon="5.15893">
        <ele>722.09</ele>
        <time>2023-02-19T08:48:32Z</time>
      </trkpt>
      <trkpt lat="44.44994" lon="5.15893">
        <ele>723.53</ele>
        <time>2023-02-19T08:48:44Z</time>
      </trkpt>
      <trkpt lat="44.44989" lon="5.15895">
        <ele>724.97</ele>
        <time>2023-02-19T08:48:50Z</time>
      </trkpt>
      <trkpt lat="44.44979" lon="5.15901">
        <ele>725.93</ele>
        <time>2023-02-19T08:49:01Z</time>
      </trkpt>
      <trkpt lat="44.44969" lon="5.15916">
        <ele>727.86</ele>
        <time>2023-02-19T08:49:15Z</time>
      </trkpt>
      <trkpt lat="44.4496" lon="5.15931">
        <ele>729.78</ele>
        <time>2023-02-19T08:49:29Z</time>
      </trkpt>
      <trkpt lat="44.4495" lon="5.1594">
        <ele>731.22</ele>
        <time>2023-02-19T08:49:42Z</time>
      </trkpt>
      <trkpt lat="44.44946" lon="5.15943">
        <ele>731.7</ele>
        <time>2023-02-19T08:49:47Z</time>
      </trkpt>
      <trkpt lat="44.44935" lon="5.15955">
        <ele>733.62</ele>
        <time>2023-02-19T08:50:01Z</time>
      </trkpt>
      <trkpt lat="44.44928" lon="5.1597">
        <ele>735.55</ele>
        <time>2023-02-19T08:50:16Z</time>
      </trkpt>
      <trkpt lat="44.44923" lon="5.15983">
        <ele>737.95</ele>
        <time>2023-02-19T08:50:30Z</time>
      </trkpt>
      <trkpt lat="44.44916" lon="5.16001">
        <ele>740.35</ele>
        <time>2023-02-19T08:50:46Z</time>
      </trkpt>
      <trkpt lat="44.4491" lon="5.16007">
        <ele>741.31</ele>
        <time>2023-02-19T08:50:57Z</time>
      </trkpt>
      <trkpt lat="44.44903" lon="5.16007">
        <ele>741.31</ele>
        <time>2023-02-19T08:51:10Z</time>
      </trkpt>
      <trkpt lat="44.449" lon="5.16005">
        <ele>741.79</ele>
        <time>2023-02-19T08:51:29Z</time>
      </trkpt>
      <trkpt lat="44.44897" lon="5.16004">
        <ele>741.79</ele>
        <time>2023-02-19T08:52:11Z</time>
      </trkpt>
      <trkpt lat="44.44887" lon="5.16009">
        <ele>742.28</ele>
        <time>2023-02-19T08:52:23Z</time>
      </trkpt>
      <trkpt lat="44.44879" lon="5.16028">
        <ele>744.68</ele>
        <time>2023-02-19T08:52:38Z</time>
      </trkpt>
      <trkpt lat="44.44873" lon="5.16047">
        <ele>745.64</ele>
        <time>2023-02-19T08:52:53Z</time>
      </trkpt>
      <trkpt lat="44.44871" lon="5.16052">
        <ele>747.56</ele>
        <time>2023-02-19T08:52:58Z</time>
      </trkpt>
      <trkpt lat="44.44867" lon="5.16057">
        <ele>748.04</ele>
        <time>2023-02-19T08:53:05Z</time>
      </trkpt>
      <trkpt lat="44.44855" lon="5.16049">
        <ele>750.93</ele>
        <time>2023-02-19T08:53:20Z</time>
      </trkpt>
      <trkpt lat="44.44847" lon="5.16038">
        <ele>752.85</ele>
        <time>2023-02-19T08:53:34Z</time>
      </trkpt>
      <trkpt lat="44.44846" lon="5.16037">
        <ele>752.85</ele>
        <time>2023-02-19T08:53:35Z</time>
      </trkpt>
      <trkpt lat="44.44845" lon="5.16033">
        <ele>752.85</ele>
        <time>2023-02-19T08:53:38Z</time>
      </trkpt>
      <trkpt lat="44.44838" lon="5.16025">
        <ele>754.29</ele>
        <time>2023-02-19T08:53:47Z</time>
      </trkpt>
      <trkpt lat="44.44829" lon="5.16014">
        <ele>758.14</ele>
        <time>2023-02-19T08:54:01Z</time>
      </trkpt>
      <trkpt lat="44.44817" lon="5.16008">
        <ele>760.54</ele>
        <time>2023-02-19T08:54:16Z</time>
      </trkpt>
      <trkpt lat="44.44806" lon="5.15998">
        <ele>761.98</ele>
        <time>2023-02-19T08:54:30Z</time>
      </trkpt>
      <trkpt lat="44.44795" lon="5.15993">
        <ele>763.9</ele>
        <time>2023-02-19T08:54:43Z</time>
      </trkpt>
      <trkpt lat="44.44784" lon="5.16003">
        <ele>765.83</ele>
        <time>2023-02-19T08:54:58Z</time>
      </trkpt>
      <trkpt lat="44.44773" lon="5.16009">
        <ele>767.75</ele>
        <time>2023-02-19T08:55:13Z</time>
      </trkpt>
      <trkpt lat="44.44763" lon="5.16014">
        <ele>770.15</ele>
        <time>2023-02-19T08:55:26Z</time>
      </trkpt>
      <trkpt lat="44.4475" lon="5.16026">
        <ele>771.6</ele>
        <time>2023-02-19T08:55:41Z</time>
      </trkpt>
      <trkpt lat="44.44741" lon="5.16035">
        <ele>773.04</ele>
        <time>2023-02-19T08:55:54Z</time>
      </trkpt>
      <trkpt lat="44.4473" lon="5.16049">
        <ele>775.44</ele>
        <time>2023-02-19T08:56:10Z</time>
      </trkpt>
      <trkpt lat="44.44721" lon="5.1606">
        <ele>777.36</ele>
        <time>2023-02-19T08:56:25Z</time>
      </trkpt>
      <trkpt lat="44.44709" lon="5.16063">
        <ele>780.25</ele>
        <time>2023-02-19T08:56:39Z</time>
      </trkpt>
      <trkpt lat="44.44702" lon="5.16063">
        <ele>781.69</ele>
        <time>2023-02-19T08:56:53Z</time>
      </trkpt>
      <trkpt lat="44.44695" lon="5.16061">
        <ele>779.77</ele>
        <time>2023-02-19T08:59:45Z</time>
      </trkpt>
      <trkpt lat="44.44691" lon="5.1606">
        <ele>779.77</ele>
        <time>2023-02-19T08:59:53Z</time>
      </trkpt>
      <trkpt lat="44.44673" lon="5.16053">
        <ele>778.32</ele>
        <time>2023-02-19T09:00:11Z</time>
      </trkpt>
      <trkpt lat="44.4467" lon="5.16052">
        <ele>778.32</ele>
        <time>2023-02-19T09:00:13Z</time>
      </trkpt>
      <trkpt lat="44.44654" lon="5.1605">
        <ele>776.88</ele>
        <time>2023-02-19T09:00:27Z</time>
      </trkpt>
      <trkpt lat="44.4465" lon="5.16049">
        <ele>776.4</ele>
        <time>2023-02-19T09:00:31Z</time>
      </trkpt>
      <trkpt lat="44.44629" lon="5.16049">
        <ele>774.96</ele>
        <time>2023-02-19T09:00:49Z</time>
      </trkpt>
      <trkpt lat="44.44608" lon="5.16049">
        <ele>773.52</ele>
        <time>2023-02-19T09:01:07Z</time>
      </trkpt>
      <trkpt lat="44.44585" lon="5.16047">
        <ele>771.6</ele>
        <time>2023-02-19T09:01:26Z</time>
      </trkpt>
      <trkpt lat="44.44565" lon="5.16047">
        <ele>768.71</ele>
        <time>2023-02-19T09:01:43Z</time>
      </trkpt>
      <trkpt lat="44.44549" lon="5.16034">
        <ele>767.27</ele>
        <time>2023-02-19T09:02:00Z</time>
      </trkpt>
      <trkpt lat="44.44535" lon="5.16012">
        <ele>764.87</ele>
        <time>2023-02-19T09:02:17Z</time>
      </trkpt>
      <trkpt lat="44.44526" lon="5.15987">
        <ele>764.39</ele>
        <time>2023-02-19T09:02:33Z</time>
      </trkpt>
      <trkpt lat="44.44515" lon="5.15961">
        <ele>763.42</ele>
        <time>2023-02-19T09:02:50Z</time>
      </trkpt>
      <trkpt lat="44.44505" lon="5.1594">
        <ele>762.46</ele>
        <time>2023-02-19T09:03:04Z</time>
      </trkpt>
      <trkpt lat="44.44494" lon="5.15917">
        <ele>761.5</ele>
        <time>2023-02-19T09:03:20Z</time>
      </trkpt>
      <trkpt lat="44.44486" lon="5.15908">
        <ele>762.94</ele>
        <time>2023-02-19T09:03:28Z</time>
      </trkpt>
      <trkpt lat="44.44482" lon="5.15904">
        <ele>762.94</ele>
        <time>2023-02-19T09:03:32Z</time>
      </trkpt>
      <trkpt lat="44.44456" lon="5.15897">
        <ele>762.94</ele>
        <time>2023-02-19T09:03:53Z</time>
      </trkpt>
      <trkpt lat="44.44434" lon="5.15907">
        <ele>760.54</ele>
        <time>2023-02-19T09:04:11Z</time>
      </trkpt>
      <trkpt lat="44.44414" lon="5.15916">
        <ele>760.06</ele>
        <time>2023-02-19T09:04:27Z</time>
      </trkpt>
      <trkpt lat="44.44401" lon="5.15921">
        <ele>760.06</ele>
        <time>2023-02-19T09:04:38Z</time>
      </trkpt>
      <trkpt lat="44.44383" lon="5.15924">
        <ele>757.66</ele>
        <time>2023-02-19T09:04:53Z</time>
      </trkpt>
      <trkpt lat="44.44371" lon="5.15924">
        <ele>757.66</ele>
        <time>2023-02-19T09:05:02Z</time>
      </trkpt>
      <trkpt lat="44.44358" lon="5.15928">
        <ele>756.69</ele>
        <time>2023-02-19T09:05:13Z</time>
      </trkpt>
      <trkpt lat="44.44346" lon="5.15935">
        <ele>756.21</ele>
        <time>2023-02-19T09:05:22Z</time>
      </trkpt>
      <trkpt lat="44.44333" lon="5.15946">
        <ele>756.21</ele>
        <time>2023-02-19T09:05:33Z</time>
      </trkpt>
      <trkpt lat="44.44327" lon="5.15954">
        <ele>756.21</ele>
        <time>2023-02-19T09:05:39Z</time>
      </trkpt>
      <trkpt lat="44.44318" lon="5.15978">
        <ele>757.66</ele>
        <time>2023-02-19T09:05:54Z</time>
      </trkpt>
      <trkpt lat="44.4431" lon="5.15993">
        <ele>757.18</ele>
        <time>2023-02-19T09:06:23Z</time>
      </trkpt>
      <trkpt lat="44.44308" lon="5.15992">
        <ele>757.18</ele>
        <time>2023-02-19T09:06:37Z</time>
      </trkpt>
      <trkpt lat="44.44305" lon="5.15994">
        <ele>757.66</ele>
        <time>2023-02-19T09:06:44Z</time>
      </trkpt>
      <trkpt lat="44.44302" lon="5.15994">
        <ele>759.1</ele>
        <time>2023-02-19T09:06:47Z</time>
      </trkpt>
      <trkpt lat="44.44294" lon="5.15993">
        <ele>759.58</ele>
        <time>2023-02-19T09:06:55Z</time>
      </trkpt>
      <trkpt lat="44.44275" lon="5.15989">
        <ele>761.02</ele>
        <time>2023-02-19T09:07:13Z</time>
      </trkpt>
      <trkpt lat="44.44255" lon="5.15985">
        <ele>762.46</ele>
        <time>2023-02-19T09:07:31Z</time>
      </trkpt>
      <trkpt lat="44.44239" lon="5.1598">
        <ele>764.39</ele>
        <time>2023-02-19T09:07:47Z</time>
      </trkpt>
      <trkpt lat="44.44218" lon="5.15977">
        <ele>764.87</ele>
        <time>2023-02-19T09:08:06Z</time>
      </trkpt>
      <trkpt lat="44.44203" lon="5.15973">
        <ele>765.35</ele>
        <time>2023-02-19T09:08:21Z</time>
      </trkpt>
      <trkpt lat="44.44188" lon="5.15969">
        <ele>767.75</ele>
        <time>2023-02-19T09:08:36Z</time>
      </trkpt>
      <trkpt lat="44.44175" lon="5.15963">
        <ele>769.67</ele>
        <time>2023-02-19T09:08:50Z</time>
      </trkpt>
      <trkpt lat="44.44172" lon="5.15961">
        <ele>770.15</ele>
        <time>2023-02-19T09:08:53Z</time>
      </trkpt>
      <trkpt lat="44.44168" lon="5.15957">
        <ele>770.63</ele>
        <time>2023-02-19T09:08:58Z</time>
      </trkpt>
      <trkpt lat="44.44155" lon="5.15949">
        <ele>772.56</ele>
        <time>2023-02-19T09:09:11Z</time>
      </trkpt>
      <trkpt lat="44.44147" lon="5.15928">
        <ele>773.04</ele>
        <time>2023-02-19T09:09:29Z</time>
      </trkpt>
      <trkpt lat="44.44143" lon="5.15913">
        <ele>771.6</ele>
        <time>2023-02-19T09:09:43Z</time>
      </trkpt>
      <trkpt lat="44.44142" lon="5.15904">
        <ele>770.63</ele>
        <time>2023-02-19T09:09:50Z</time>
      </trkpt>
      <trkpt lat="44.44141" lon="5.15891">
        <ele>770.15</ele>
        <time>2023-02-19T09:09:59Z</time>
      </trkpt>
      <trkpt lat="44.4414" lon="5.15869">
        <ele>767.75</ele>
        <time>2023-02-19T09:10:15Z</time>
      </trkpt>
      <trkpt lat="44.44138" lon="5.15845">
        <ele>765.83</ele>
        <time>2023-02-19T09:10:30Z</time>
      </trkpt>
      <trkpt lat="44.44139" lon="5.15832">
        <ele>764.87</ele>
        <time>2023-02-19T09:10:39Z</time>
      </trkpt>
      <trkpt lat="44.44139" lon="5.15825">
        <ele>764.39</ele>
        <time>2023-02-19T09:10:43Z</time>
      </trkpt>
      <trkpt lat="44.44132" lon="5.15799">
        <ele>762.46</ele>
        <time>2023-02-19T09:11:00Z</time>
      </trkpt>
      <trkpt lat="44.44131" lon="5.15795">
        <ele>761.98</ele>
        <time>2023-02-19T09:11:03Z</time>
      </trkpt>
      <trkpt lat="44.44129" lon="5.15787">
        <ele>761.5</ele>
        <time>2023-02-19T09:11:09Z</time>
      </trkpt>
      <trkpt lat="44.44125" lon="5.1578">
        <ele>761.02</ele>
        <time>2023-02-19T09:11:14Z</time>
      </trkpt>
      <trkpt lat="44.44119" lon="5.15774">
        <ele>760.54</ele>
        <time>2023-02-19T09:11:20Z</time>
      </trkpt>
      <trkpt lat="44.4411" lon="5.15756">
        <ele>759.1</ele>
        <time>2023-02-19T09:11:34Z</time>
      </trkpt>
      <trkpt lat="44.441" lon="5.15738">
        <ele>756.69</ele>
        <time>2023-02-19T09:11:49Z</time>
      </trkpt>
      <trkpt lat="44.44086" lon="5.15721">
        <ele>754.77</ele>
        <time>2023-02-19T09:12:05Z</time>
      </trkpt>
      <trkpt lat="44.44076" lon="5.15702">
        <ele>753.81</ele>
        <time>2023-02-19T09:12:20Z</time>
      </trkpt>
      <trkpt lat="44.44067" lon="5.15696">
        <ele>752.85</ele>
        <time>2023-02-19T09:12:27Z</time>
      </trkpt>
      <trkpt lat="44.44054" lon="5.15684">
        <ele>751.89</ele>
        <time>2023-02-19T09:12:39Z</time>
      </trkpt>
      <trkpt lat="44.44038" lon="5.15668">
        <ele>749.97</ele>
        <time>2023-02-19T09:12:54Z</time>
      </trkpt>
      <trkpt lat="44.44025" lon="5.15652">
        <ele>749</ele>
        <time>2023-02-19T09:13:09Z</time>
      </trkpt>
      <trkpt lat="44.44021" lon="5.15645">
        <ele>749</ele>
        <time>2023-02-19T09:13:15Z</time>
      </trkpt>
      <trkpt lat="44.44013" lon="5.15635">
        <ele>748.52</ele>
        <time>2023-02-19T09:13:25Z</time>
      </trkpt>
      <trkpt lat="44.44001" lon="5.15613">
        <ele>748.52</ele>
        <time>2023-02-19T09:13:40Z</time>
      </trkpt>
      <trkpt lat="44.43997" lon="5.15598">
        <ele>748.04</ele>
        <time>2023-02-19T09:13:53Z</time>
      </trkpt>
      <trkpt lat="44.4399" lon="5.15578">
        <ele>746.6</ele>
        <time>2023-02-19T09:14:07Z</time>
      </trkpt>
      <trkpt lat="44.43982" lon="5.15552">
        <ele>745.16</ele>
        <time>2023-02-19T09:14:23Z</time>
      </trkpt>
      <trkpt lat="44.43977" lon="5.15539">
        <ele>745.16</ele>
        <time>2023-02-19T09:14:39Z</time>
      </trkpt>
      <trkpt lat="44.43976" lon="5.15537">
        <ele>745.16</ele>
        <time>2023-02-19T09:14:42Z</time>
      </trkpt>
      <trkpt lat="44.43957" lon="5.15533">
        <ele>743.72</ele>
        <time>2023-02-19T09:14:58Z</time>
      </trkpt>
      <trkpt lat="44.43955" lon="5.15531">
        <ele>743.72</ele>
        <time>2023-02-19T09:15:00Z</time>
      </trkpt>
      <trkpt lat="44.43953" lon="5.15522">
        <ele>742.76</ele>
        <time>2023-02-19T09:15:06Z</time>
      </trkpt>
      <trkpt lat="44.43954" lon="5.15514">
        <ele>741.79</ele>
        <time>2023-02-19T09:15:11Z</time>
      </trkpt>
      <trkpt lat="44.43953" lon="5.15486">
        <ele>738.91</ele>
        <time>2023-02-19T09:15:28Z</time>
      </trkpt>
      <trkpt lat="44.43952" lon="5.15483">
        <ele>738.43</ele>
        <time>2023-02-19T09:15:30Z</time>
      </trkpt>
      <trkpt lat="44.43935" lon="5.15475">
        <ele>736.03</ele>
        <time>2023-02-19T09:15:45Z</time>
      </trkpt>
      <trkpt lat="44.43922" lon="5.15466">
        <ele>733.62</ele>
        <time>2023-02-19T09:15:59Z</time>
      </trkpt>
      <trkpt lat="44.43906" lon="5.15454">
        <ele>731.22</ele>
        <time>2023-02-19T09:16:14Z</time>
      </trkpt>
      <trkpt lat="44.43893" lon="5.15446">
        <ele>728.82</ele>
        <time>2023-02-19T09:16:27Z</time>
      </trkpt>
      <trkpt lat="44.43886" lon="5.15441">
        <ele>728.82</ele>
        <time>2023-02-19T09:16:34Z</time>
      </trkpt>
      <trkpt lat="44.43865" lon="5.1545">
        <ele>726.89</ele>
        <time>2023-02-19T09:16:53Z</time>
      </trkpt>
      <trkpt lat="44.43862" lon="5.1545">
        <ele>726.41</ele>
        <time>2023-02-19T09:16:56Z</time>
      </trkpt>
      <trkpt lat="44.4385" lon="5.15449">
        <ele>723.05</ele>
        <time>2023-02-19T09:17:10Z</time>
      </trkpt>
      <trkpt lat="44.43849" lon="5.15449">
        <ele>724.01</ele>
        <time>2023-02-19T09:17:23Z</time>
      </trkpt>
      <trkpt lat="44.43849" lon="5.15449">
        <ele>722.57</ele>
        <time>2023-02-19T09:17:25Z</time>
      </trkpt>
      <trkpt lat="44.43839" lon="5.15443">
        <ele>720.16</ele>
        <time>2023-02-19T09:17:39Z</time>
      </trkpt>
      <trkpt lat="44.43833" lon="5.15438">
        <ele>718.72</ele>
        <time>2023-02-19T09:17:46Z</time>
      </trkpt>
      <trkpt lat="44.43824" lon="5.15423">
        <ele>719.2</ele>
        <time>2023-02-19T09:18:01Z</time>
      </trkpt>
      <trkpt lat="44.43821" lon="5.15408">
        <ele>716.8</ele>
        <time>2023-02-19T09:18:11Z</time>
      </trkpt>
      <trkpt lat="44.43799" lon="5.154">
        <ele>713.44</ele>
        <time>2023-02-19T09:18:28Z</time>
      </trkpt>
      <trkpt lat="44.43793" lon="5.15395">
        <ele>712.47</ele>
        <time>2023-02-19T09:18:34Z</time>
      </trkpt>
      <trkpt lat="44.4379" lon="5.15389">
        <ele>712.47</ele>
        <time>2023-02-19T09:18:39Z</time>
      </trkpt>
      <trkpt lat="44.43784" lon="5.15392">
        <ele>711.03</ele>
        <time>2023-02-19T09:18:45Z</time>
      </trkpt>
      <trkpt lat="44.43773" lon="5.15396">
        <ele>707.67</ele>
        <time>2023-02-19T09:18:57Z</time>
      </trkpt>
      <trkpt lat="44.43763" lon="5.15398">
        <ele>706.23</ele>
        <time>2023-02-19T09:19:05Z</time>
      </trkpt>
      <trkpt lat="44.43759" lon="5.15396">
        <ele>705.26</ele>
        <time>2023-02-19T09:19:09Z</time>
      </trkpt>
      <trkpt lat="44.43757" lon="5.15394">
        <ele>704.78</ele>
        <time>2023-02-19T09:19:12Z</time>
      </trkpt>
      <trkpt lat="44.43742" lon="5.15386">
        <ele>704.78</ele>
        <time>2023-02-19T09:19:29Z</time>
      </trkpt>
      <trkpt lat="44.43738" lon="5.15396">
        <ele>705.26</ele>
        <time>2023-02-19T09:19:44Z</time>
      </trkpt>
      <trkpt lat="44.43738" lon="5.15412">
        <ele>706.23</ele>
        <time>2023-02-19T09:19:58Z</time>
      </trkpt>
      <trkpt lat="44.43738" lon="5.15425">
        <ele>706.71</ele>
        <time>2023-02-19T09:20:13Z</time>
      </trkpt>
      <trkpt lat="44.43738" lon="5.15449">
        <ele>707.19</ele>
        <time>2023-02-19T09:20:27Z</time>
      </trkpt>
      <trkpt lat="44.43739" lon="5.15481">
        <ele>707.19</ele>
        <time>2023-02-19T09:20:46Z</time>
      </trkpt>
      <trkpt lat="44.43741" lon="5.15491">
        <ele>706.71</ele>
        <time>2023-02-19T09:20:52Z</time>
      </trkpt>
      <trkpt lat="44.43742" lon="5.15514">
        <ele>705.75</ele>
        <time>2023-02-19T09:21:04Z</time>
      </trkpt>
      <trkpt lat="44.43744" lon="5.15539">
        <ele>702.86</ele>
        <time>2023-02-19T09:21:18Z</time>
      </trkpt>
      <trkpt lat="44.43744" lon="5.15547">
        <ele>700.94</ele>
        <time>2023-02-19T09:21:23Z</time>
      </trkpt>
      <trkpt lat="44.43745" lon="5.15555">
        <ele>698.05</ele>
        <time>2023-02-19T09:21:29Z</time>
      </trkpt>
      <trkpt lat="44.43748" lon="5.15567">
        <ele>695.17</ele>
        <time>2023-02-19T09:21:43Z</time>
      </trkpt>
      <trkpt lat="44.43755" lon="5.15575">
        <ele>691.81</ele>
        <time>2023-02-19T09:21:57Z</time>
      </trkpt>
      <trkpt lat="44.43764" lon="5.1559">
        <ele>688.92</ele>
        <time>2023-02-19T09:22:12Z</time>
      </trkpt>
      <trkpt lat="44.4377" lon="5.15604">
        <ele>686.04</ele>
        <time>2023-02-19T09:22:22Z</time>
      </trkpt>
      <trkpt lat="44.43776" lon="5.15619">
        <ele>684.6</ele>
        <time>2023-02-19T09:22:31Z</time>
      </trkpt>
      <trkpt lat="44.43781" lon="5.15641">
        <ele>683.63</ele>
        <time>2023-02-19T09:22:45Z</time>
      </trkpt>
      <trkpt lat="44.43782" lon="5.15668">
        <ele>683.15</ele>
        <time>2023-02-19T09:23:01Z</time>
      </trkpt>
      <trkpt lat="44.43781" lon="5.1568">
        <ele>682.67</ele>
        <time>2023-02-19T09:23:08Z</time>
      </trkpt>
      <trkpt lat="44.43776" lon="5.15704">
        <ele>682.19</ele>
        <time>2023-02-19T09:23:21Z</time>
      </trkpt>
      <trkpt lat="44.43774" lon="5.15708">
        <ele>681.71</ele>
        <time>2023-02-19T09:23:24Z</time>
      </trkpt>
      <trkpt lat="44.43764" lon="5.15717">
        <ele>680.75</ele>
        <time>2023-02-19T09:23:40Z</time>
      </trkpt>
      <trkpt lat="44.43759" lon="5.15716">
        <ele>680.75</ele>
        <time>2023-02-19T09:23:52Z</time>
      </trkpt>
      <trkpt lat="44.43755" lon="5.15716">
        <ele>680.75</ele>
        <time>2023-02-19T09:23:57Z</time>
      </trkpt>
      <trkpt lat="44.43751" lon="5.15715">
        <ele>681.71</ele>
        <time>2023-02-19T09:24:02Z</time>
      </trkpt>
      <trkpt lat="44.4373" lon="5.15712">
        <ele>683.15</ele>
        <time>2023-02-19T09:24:19Z</time>
      </trkpt>
      <trkpt lat="44.4371" lon="5.15709">
        <ele>685.08</ele>
        <time>2023-02-19T09:24:36Z</time>
      </trkpt>
      <trkpt lat="44.43692" lon="5.15705">
        <ele>685.56</ele>
        <time>2023-02-19T09:24:53Z</time>
      </trkpt>
      <trkpt lat="44.4368" lon="5.15701">
        <ele>685.56</ele>
        <time>2023-02-19T09:25:03Z</time>
      </trkpt>
      <trkpt lat="44.43667" lon="5.15694">
        <ele>686.04</ele>
        <time>2023-02-19T09:25:16Z</time>
      </trkpt>
      <trkpt lat="44.43654" lon="5.15697">
        <ele>686.04</ele>
        <time>2023-02-19T09:25:27Z</time>
      </trkpt>
      <trkpt lat="44.43637" lon="5.15702">
        <ele>687</ele>
        <time>2023-02-19T09:25:42Z</time>
      </trkpt>
      <trkpt lat="44.43617" lon="5.15702">
        <ele>687</ele>
        <time>2023-02-19T09:25:58Z</time>
      </trkpt>
      <trkpt lat="44.43598" lon="5.15701">
        <ele>688.92</ele>
        <time>2023-02-19T09:26:14Z</time>
      </trkpt>
      <trkpt lat="44.43579" lon="5.15704">
        <ele>689.88</ele>
        <time>2023-02-19T09:26:29Z</time>
      </trkpt>
      <trkpt lat="44.43562" lon="5.15702">
        <ele>691.33</ele>
        <time>2023-02-19T09:26:44Z</time>
      </trkpt>
      <trkpt lat="44.43542" lon="5.15701">
        <ele>692.29</ele>
        <time>2023-02-19T09:27:00Z</time>
      </trkpt>
      <trkpt lat="44.43535" lon="5.15699">
        <ele>690.84</ele>
        <time>2023-02-19T09:27:06Z</time>
      </trkpt>
      <trkpt lat="44.43515" lon="5.157">
        <ele>689.88</ele>
        <time>2023-02-19T09:27:22Z</time>
      </trkpt>
      <trkpt lat="44.43514" lon="5.157">
        <ele>689.88</ele>
        <time>2023-02-19T09:27:23Z</time>
      </trkpt>
      <trkpt lat="44.43499" lon="5.157">
        <ele>691.81</ele>
        <time>2023-02-19T09:27:37Z</time>
      </trkpt>
      <trkpt lat="44.43486" lon="5.15697">
        <ele>692.29</ele>
        <time>2023-02-19T09:27:47Z</time>
      </trkpt>
      <trkpt lat="44.43481" lon="5.15691">
        <ele>692.29</ele>
        <time>2023-02-19T09:27:53Z</time>
      </trkpt>
      <trkpt lat="44.43472" lon="5.15696">
        <ele>691.81</ele>
        <time>2023-02-19T09:28:04Z</time>
      </trkpt>
      <trkpt lat="44.43468" lon="5.15701">
        <ele>692.77</ele>
        <time>2023-02-19T09:28:10Z</time>
      </trkpt>
      <trkpt lat="44.43462" lon="5.15706">
        <ele>690.84</ele>
        <time>2023-02-19T09:28:17Z</time>
      </trkpt>
      <trkpt lat="44.43458" lon="5.15707">
        <ele>690.84</ele>
        <time>2023-02-19T09:28:21Z</time>
      </trkpt>
      <trkpt lat="44.43439" lon="5.15705">
        <ele>691.81</ele>
        <time>2023-02-19T09:28:37Z</time>
      </trkpt>
      <trkpt lat="44.43432" lon="5.15702">
        <ele>690.84</ele>
        <time>2023-02-19T09:28:42Z</time>
      </trkpt>
      <trkpt lat="44.43414" lon="5.15709">
        <ele>690.36</ele>
        <time>2023-02-19T09:28:58Z</time>
      </trkpt>
      <trkpt lat="44.43411" lon="5.15709">
        <ele>691.81</ele>
        <time>2023-02-19T09:29:01Z</time>
      </trkpt>
      <trkpt lat="44.43391" lon="5.15708">
        <ele>692.29</ele>
        <time>2023-02-19T09:29:18Z</time>
      </trkpt>
      <trkpt lat="44.43381" lon="5.15717">
        <ele>692.29</ele>
        <time>2023-02-19T09:29:32Z</time>
      </trkpt>
      <trkpt lat="44.4338" lon="5.15733">
        <ele>692.29</ele>
        <time>2023-02-19T09:29:44Z</time>
      </trkpt>
      <trkpt lat="44.43376" lon="5.15746">
        <ele>689.4</ele>
        <time>2023-02-19T09:29:54Z</time>
      </trkpt>
      <trkpt lat="44.43363" lon="5.15754">
        <ele>686.04</ele>
        <time>2023-02-19T09:30:09Z</time>
      </trkpt>
      <trkpt lat="44.43355" lon="5.15758">
        <ele>683.15</ele>
        <time>2023-02-19T09:30:19Z</time>
      </trkpt>
      <trkpt lat="44.43351" lon="5.15759">
        <ele>682.67</ele>
        <time>2023-02-19T09:30:22Z</time>
      </trkpt>
      <trkpt lat="44.43345" lon="5.15759">
        <ele>681.71</ele>
        <time>2023-02-19T09:37:01Z</time>
      </trkpt>
      <trkpt lat="44.43343" lon="5.15757">
        <ele>682.67</ele>
        <time>2023-02-19T09:37:23Z</time>
      </trkpt>
      <trkpt lat="44.43341" lon="5.15757">
        <ele>682.67</ele>
        <time>2023-02-19T09:37:42Z</time>
      </trkpt>
      <trkpt lat="44.4334" lon="5.15757">
        <ele>682.67</ele>
        <time>2023-02-19T09:37:44Z</time>
      </trkpt>
      <trkpt lat="44.43336" lon="5.15757">
        <ele>681.23</ele>
        <time>2023-02-19T09:37:48Z</time>
      </trkpt>
      <trkpt lat="44.43317" lon="5.15755">
        <ele>677.87</ele>
        <time>2023-02-19T09:38:05Z</time>
      </trkpt>
      <trkpt lat="44.43304" lon="5.15738">
        <ele>677.39</ele>
        <time>2023-02-19T09:38:20Z</time>
      </trkpt>
      <trkpt lat="44.43298" lon="5.15742">
        <ele>678.83</ele>
        <time>2023-02-19T09:38:26Z</time>
      </trkpt>
      <trkpt lat="44.43286" lon="5.15754">
        <ele>678.83</ele>
        <time>2023-02-19T09:38:38Z</time>
      </trkpt>
      <trkpt lat="44.43281" lon="5.15757">
        <ele>679.31</ele>
        <time>2023-02-19T09:38:41Z</time>
      </trkpt>
      <trkpt lat="44.4327" lon="5.15756">
        <ele>679.31</ele>
        <time>2023-02-19T09:38:50Z</time>
      </trkpt>
      <trkpt lat="44.43266" lon="5.15761">
        <ele>679.31</ele>
        <time>2023-02-19T09:38:54Z</time>
      </trkpt>
      <trkpt lat="44.43266" lon="5.15764">
        <ele>679.31</ele>
        <time>2023-02-19T09:38:56Z</time>
      </trkpt>
      <trkpt lat="44.43259" lon="5.15779">
        <ele>679.79</ele>
        <time>2023-02-19T09:39:07Z</time>
      </trkpt>
      <trkpt lat="44.43243" lon="5.15782">
        <ele>681.71</ele>
        <time>2023-02-19T09:39:22Z</time>
      </trkpt>
      <trkpt lat="44.4323" lon="5.15787">
        <ele>681.71</ele>
        <time>2023-02-19T09:39:32Z</time>
      </trkpt>
      <trkpt lat="44.43211" lon="5.1579">
        <ele>681.71</ele>
        <time>2023-02-19T09:39:47Z</time>
      </trkpt>
      <trkpt lat="44.43198" lon="5.1579">
        <ele>682.19</ele>
        <time>2023-02-19T09:39:58Z</time>
      </trkpt>
      <trkpt lat="44.4318" lon="5.15806">
        <ele>682.67</ele>
        <time>2023-02-19T09:40:16Z</time>
      </trkpt>
      <trkpt lat="44.43166" lon="5.15818">
        <ele>679.31</ele>
        <time>2023-02-19T09:40:31Z</time>
      </trkpt>
      <trkpt lat="44.43153" lon="5.15819">
        <ele>678.35</ele>
        <time>2023-02-19T09:40:42Z</time>
      </trkpt>
      <trkpt lat="44.43141" lon="5.15823">
        <ele>677.87</ele>
        <time>2023-02-19T09:40:52Z</time>
      </trkpt>
      <trkpt lat="44.43132" lon="5.15824">
        <ele>679.79</ele>
        <time>2023-02-19T09:41:00Z</time>
      </trkpt>
      <trkpt lat="44.43116" lon="5.15822">
        <ele>678.83</ele>
        <time>2023-02-19T09:41:13Z</time>
      </trkpt>
      <trkpt lat="44.43098" lon="5.15823">
        <ele>678.83</ele>
        <time>2023-02-19T09:41:28Z</time>
      </trkpt>
      <trkpt lat="44.43095" lon="5.15826">
        <ele>678.83</ele>
        <time>2023-02-19T09:41:31Z</time>
      </trkpt>
      <trkpt lat="44.4308" lon="5.15833">
        <ele>678.83</ele>
        <time>2023-02-19T09:41:47Z</time>
      </trkpt>
      <trkpt lat="44.43066" lon="5.15834">
        <ele>677.87</ele>
        <time>2023-02-19T09:42:00Z</time>
      </trkpt>
      <trkpt lat="44.43051" lon="5.15831">
        <ele>676.91</ele>
        <time>2023-02-19T09:42:14Z</time>
      </trkpt>
      <trkpt lat="44.43036" lon="5.15831">
        <ele>677.87</ele>
        <time>2023-02-19T09:42:26Z</time>
      </trkpt>
      <trkpt lat="44.43017" lon="5.1583">
        <ele>679.79</ele>
        <time>2023-02-19T09:42:42Z</time>
      </trkpt>
      <trkpt lat="44.42997" lon="5.15821">
        <ele>680.27</ele>
        <time>2023-02-19T09:42:58Z</time>
      </trkpt>
      <trkpt lat="44.4299" lon="5.15834">
        <ele>682.19</ele>
        <time>2023-02-19T09:43:12Z</time>
      </trkpt>
      <trkpt lat="44.42988" lon="5.15849">
        <ele>683.15</ele>
        <time>2023-02-19T09:43:22Z</time>
      </trkpt>
      <trkpt lat="44.42982" lon="5.15866">
        <ele>684.12</ele>
        <time>2023-02-19T09:43:32Z</time>
      </trkpt>
      <trkpt lat="44.42974" lon="5.15872">
        <ele>686.04</ele>
        <time>2023-02-19T09:43:40Z</time>
      </trkpt>
      <trkpt lat="44.42964" lon="5.15877">
        <ele>687</ele>
        <time>2023-02-19T09:43:50Z</time>
      </trkpt>
      <trkpt lat="44.42961" lon="5.15879">
        <ele>687</ele>
        <time>2023-02-19T09:43:53Z</time>
      </trkpt>
      <trkpt lat="44.42944" lon="5.15875">
        <ele>688.44</ele>
        <time>2023-02-19T09:44:08Z</time>
      </trkpt>
      <trkpt lat="44.42931" lon="5.15873">
        <ele>689.88</ele>
        <time>2023-02-19T09:44:20Z</time>
      </trkpt>
      <trkpt lat="44.42913" lon="5.15876">
        <ele>692.29</ele>
        <time>2023-02-19T09:44:36Z</time>
      </trkpt>
      <trkpt lat="44.42896" lon="5.15888">
        <ele>694.69</ele>
        <time>2023-02-19T09:44:53Z</time>
      </trkpt>
      <trkpt lat="44.42879" lon="5.15898">
        <ele>695.65</ele>
        <time>2023-02-19T09:45:08Z</time>
      </trkpt>
      <trkpt lat="44.4286" lon="5.15902">
        <ele>698.05</ele>
        <time>2023-02-19T09:45:25Z</time>
      </trkpt>
      <trkpt lat="44.42842" lon="5.15904">
        <ele>699.02</ele>
        <time>2023-02-19T09:45:41Z</time>
      </trkpt>
      <trkpt lat="44.42833" lon="5.15898">
        <ele>699.98</ele>
        <time>2023-02-19T09:45:50Z</time>
      </trkpt>
      <trkpt lat="44.42821" lon="5.15887">
        <ele>700.46</ele>
        <time>2023-02-19T09:46:07Z</time>
      </trkpt>
      <trkpt lat="44.4282" lon="5.15886">
        <ele>699.98</ele>
        <time>2023-02-19T09:46:21Z</time>
      </trkpt>
      <trkpt lat="44.42819" lon="5.15884">
        <ele>699.02</ele>
        <time>2023-02-19T09:47:03Z</time>
      </trkpt>
      <trkpt lat="44.42814" lon="5.15875">
        <ele>698.53</ele>
        <time>2023-02-19T09:47:14Z</time>
      </trkpt>
      <trkpt lat="44.42805" lon="5.15853">
        <ele>698.53</ele>
        <time>2023-02-19T09:47:30Z</time>
      </trkpt>
      <trkpt lat="44.42798" lon="5.15837">
        <ele>698.53</ele>
        <time>2023-02-19T09:47:44Z</time>
      </trkpt>
      <trkpt lat="44.42802" lon="5.15834">
        <ele>699.98</ele>
        <time>2023-02-19T09:47:55Z</time>
      </trkpt>
      <trkpt lat="44.4281" lon="5.1583">
        <ele>704.3</ele>
        <time>2023-02-19T09:48:21Z</time>
      </trkpt>
      <trkpt lat="44.42816" lon="5.15827">
        <ele>705.75</ele>
        <time>2023-02-19T09:48:34Z</time>
      </trkpt>
      <trkpt lat="44.42824" lon="5.15825">
        <ele>706.23</ele>
        <time>2023-02-19T09:48:48Z</time>
      </trkpt>
      <trkpt lat="44.4283" lon="5.15826">
        <ele>706.71</ele>
        <time>2023-02-19T09:49:00Z</time>
      </trkpt>
      <trkpt lat="44.42832" lon="5.15827">
        <ele>706.71</ele>
        <time>2023-02-19T09:49:23Z</time>
      </trkpt>
      <trkpt lat="44.42837" lon="5.15827">
        <ele>706.71</ele>
        <time>2023-02-19T09:49:36Z</time>
      </trkpt>
      <trkpt lat="44.42842" lon="5.15826">
        <ele>707.19</ele>
        <time>2023-02-19T09:49:54Z</time>
      </trkpt>
      <trkpt lat="44.42846" lon="5.15826">
        <ele>707.67</ele>
        <time>2023-02-19T09:50:16Z</time>
      </trkpt>
      <trkpt lat="44.4285" lon="5.15827">
        <ele>706.71</ele>
        <time>2023-02-19T09:50:28Z</time>
      </trkpt>
      <trkpt lat="44.42853" lon="5.15821">
        <ele>707.67</ele>
        <time>2023-02-19T09:50:46Z</time>
      </trkpt>
      <trkpt lat="44.42857" lon="5.15817">
        <ele>708.15</ele>
        <time>2023-02-19T09:51:07Z</time>
      </trkpt>
      <trkpt lat="44.42858" lon="5.15813">
        <ele>708.15</ele>
        <time>2023-02-19T09:51:23Z</time>
      </trkpt>
      <trkpt lat="44.42862" lon="5.15809">
        <ele>708.63</ele>
        <time>2023-02-19T09:51:44Z</time>
      </trkpt>
      <trkpt lat="44.42869" lon="5.15801">
        <ele>710.55</ele>
        <time>2023-02-19T09:51:58Z</time>
      </trkpt>
      <trkpt lat="44.42873" lon="5.15793">
        <ele>711.51</ele>
        <time>2023-02-19T09:52:08Z</time>
      </trkpt>
      <trkpt lat="44.42875" lon="5.15787">
        <ele>710.07</ele>
        <time>2023-02-19T09:52:23Z</time>
      </trkpt>
      <trkpt lat="44.42878" lon="5.15783">
        <ele>711.51</ele>
        <time>2023-02-19T09:52:42Z</time>
      </trkpt>
      <trkpt lat="44.42884" lon="5.15779">
        <ele>713.44</ele>
        <time>2023-02-19T09:52:51Z</time>
      </trkpt>
      <trkpt lat="44.42888" lon="5.15774">
        <ele>713.44</ele>
        <time>2023-02-19T09:53:03Z</time>
      </trkpt>
      <trkpt lat="44.42898" lon="5.15768">
        <ele>715.84</ele>
        <time>2023-02-19T09:53:18Z</time>
      </trkpt>
      <trkpt lat="44.42902" lon="5.15764">
        <ele>715.84</ele>
        <time>2023-02-19T09:53:23Z</time>
      </trkpt>
      <trkpt lat="44.42904" lon="5.15761">
        <ele>716.32</ele>
        <time>2023-02-19T09:53:26Z</time>
      </trkpt>
      <trkpt lat="44.4291" lon="5.15755">
        <ele>713.44</ele>
        <time>2023-02-19T09:53:32Z</time>
      </trkpt>
      <trkpt lat="44.42923" lon="5.15746">
        <ele>711.99</ele>
        <time>2023-02-19T09:53:44Z</time>
      </trkpt>
      <trkpt lat="44.42943" lon="5.15734">
        <ele>711.03</ele>
        <time>2023-02-19T09:54:00Z</time>
      </trkpt>
      <trkpt lat="44.42944" lon="5.15733">
        <ele>711.03</ele>
        <time>2023-02-19T09:54:01Z</time>
      </trkpt>
      <trkpt lat="44.4295" lon="5.15731">
        <ele>710.07</ele>
        <time>2023-02-19T09:54:05Z</time>
      </trkpt>
      <trkpt lat="44.42957" lon="5.15734">
        <ele>709.11</ele>
        <time>2023-02-19T09:54:11Z</time>
      </trkpt>
      <trkpt lat="44.42964" lon="5.15735">
        <ele>708.63</ele>
        <time>2023-02-19T09:54:16Z</time>
      </trkpt>
      <trkpt lat="44.42984" lon="5.1574">
        <ele>708.15</ele>
        <time>2023-02-19T09:54:32Z</time>
      </trkpt>
      <trkpt lat="44.42996" lon="5.15744">
        <ele>708.15</ele>
        <time>2023-02-19T09:54:43Z</time>
      </trkpt>
      <trkpt lat="44.43008" lon="5.15743">
        <ele>711.51</ele>
        <time>2023-02-19T09:54:55Z</time>
      </trkpt>
      <trkpt lat="44.43025" lon="5.15734">
        <ele>711.99</ele>
        <time>2023-02-19T09:55:09Z</time>
      </trkpt>
      <trkpt lat="44.43035" lon="5.15721">
        <ele>711.51</ele>
        <time>2023-02-19T09:55:24Z</time>
      </trkpt>
      <trkpt lat="44.43038" lon="5.15719">
        <ele>710.55</ele>
        <time>2023-02-19T09:55:27Z</time>
      </trkpt>
      <trkpt lat="44.43055" lon="5.1572">
        <ele>709.11</ele>
        <time>2023-02-19T09:55:42Z</time>
      </trkpt>
      <trkpt lat="44.43069" lon="5.1571">
        <ele>709.59</ele>
        <time>2023-02-19T09:55:54Z</time>
      </trkpt>
      <trkpt lat="44.43073" lon="5.15706">
        <ele>711.99</ele>
        <time>2023-02-19T09:55:59Z</time>
      </trkpt>
      <trkpt lat="44.43082" lon="5.15695">
        <ele>713.92</ele>
        <time>2023-02-19T09:56:12Z</time>
      </trkpt>
      <trkpt lat="44.43091" lon="5.15686">
        <ele>716.8</ele>
        <time>2023-02-19T09:56:25Z</time>
      </trkpt>
      <trkpt lat="44.43098" lon="5.15676">
        <ele>716.32</ele>
        <time>2023-02-19T09:56:38Z</time>
      </trkpt>
      <trkpt lat="44.43101" lon="5.1567">
        <ele>719.68</ele>
        <time>2023-02-19T09:56:45Z</time>
      </trkpt>
      <trkpt lat="44.43111" lon="5.15662">
        <ele>721.61</ele>
        <time>2023-02-19T09:57:00Z</time>
      </trkpt>
      <trkpt lat="44.43114" lon="5.15661">
        <ele>722.09</ele>
        <time>2023-02-19T09:57:03Z</time>
      </trkpt>
      <trkpt lat="44.43127" lon="5.15656">
        <ele>723.05</ele>
        <time>2023-02-19T09:57:16Z</time>
      </trkpt>
      <trkpt lat="44.4314" lon="5.1565">
        <ele>723.53</ele>
        <time>2023-02-19T09:57:27Z</time>
      </trkpt>
      <trkpt lat="44.43151" lon="5.15643">
        <ele>724.97</ele>
        <time>2023-02-19T09:57:39Z</time>
      </trkpt>
      <trkpt lat="44.43161" lon="5.1564">
        <ele>726.89</ele>
        <time>2023-02-19T09:57:50Z</time>
      </trkpt>
      <trkpt lat="44.43165" lon="5.1564">
        <ele>728.82</ele>
        <time>2023-02-19T09:57:55Z</time>
      </trkpt>
      <trkpt lat="44.43177" lon="5.1564">
        <ele>730.74</ele>
        <time>2023-02-19T09:58:10Z</time>
      </trkpt>
      <trkpt lat="44.43188" lon="5.15633">
        <ele>732.66</ele>
        <time>2023-02-19T09:58:24Z</time>
      </trkpt>
      <trkpt lat="44.43196" lon="5.15626">
        <ele>736.03</ele>
        <time>2023-02-19T09:58:39Z</time>
      </trkpt>
      <trkpt lat="44.43207" lon="5.15617">
        <ele>737.95</ele>
        <time>2023-02-19T09:58:53Z</time>
      </trkpt>
      <trkpt lat="44.43217" lon="5.15611">
        <ele>738.91</ele>
        <time>2023-02-19T09:59:06Z</time>
      </trkpt>
      <trkpt lat="44.4323" lon="5.15595">
        <ele>740.83</ele>
        <time>2023-02-19T09:59:19Z</time>
      </trkpt>
      <trkpt lat="44.43239" lon="5.15582">
        <ele>742.76</ele>
        <time>2023-02-19T09:59:32Z</time>
      </trkpt>
      <trkpt lat="44.43249" lon="5.15562">
        <ele>744.68</ele>
        <time>2023-02-19T09:59:46Z</time>
      </trkpt>
      <trkpt lat="44.4325" lon="5.15549">
        <ele>745.64</ele>
        <time>2023-02-19T10:00:13Z</time>
      </trkpt>
      <trkpt lat="44.43251" lon="5.15538">
        <ele>747.08</ele>
        <time>2023-02-19T10:00:26Z</time>
      </trkpt>
      <trkpt lat="44.43262" lon="5.15523">
        <ele>748.52</ele>
        <time>2023-02-19T10:00:39Z</time>
      </trkpt>
      <trkpt lat="44.43266" lon="5.15515">
        <ele>749.49</ele>
        <time>2023-02-19T10:00:51Z</time>
      </trkpt>
      <trkpt lat="44.43265" lon="5.15514">
        <ele>749.49</ele>
        <time>2023-02-19T10:01:04Z</time>
      </trkpt>
      <trkpt lat="44.43262" lon="5.15512">
        <ele>751.41</ele>
        <time>2023-02-19T10:01:23Z</time>
      </trkpt>
      <trkpt lat="44.43259" lon="5.15507">
        <ele>754.77</ele>
        <time>2023-02-19T10:01:32Z</time>
      </trkpt>
      <trkpt lat="44.43257" lon="5.15502">
        <ele>755.73</ele>
        <time>2023-02-19T10:01:48Z</time>
      </trkpt>
      <trkpt lat="44.43255" lon="5.15502">
        <ele>757.18</ele>
        <time>2023-02-19T10:03:33Z</time>
      </trkpt>
      <trkpt lat="44.4325" lon="5.15497">
        <ele>758.62</ele>
        <time>2023-02-19T10:03:48Z</time>
      </trkpt>
      <trkpt lat="44.43248" lon="5.15495">
        <ele>760.06</ele>
        <time>2023-02-19T10:03:52Z</time>
      </trkpt>
      <trkpt lat="44.43243" lon="5.15487">
        <ele>763.42</ele>
        <time>2023-02-19T10:04:03Z</time>
      </trkpt>
      <trkpt lat="44.43237" lon="5.15476">
        <ele>766.31</ele>
        <time>2023-02-19T10:04:20Z</time>
      </trkpt>
      <trkpt lat="44.43238" lon="5.15463">
        <ele>769.67</ele>
        <time>2023-02-19T10:04:34Z</time>
      </trkpt>
      <trkpt lat="44.43242" lon="5.15458">
        <ele>772.56</ele>
        <time>2023-02-19T10:04:46Z</time>
      </trkpt>
      <trkpt lat="44.43245" lon="5.15455">
        <ele>774.96</ele>
        <time>2023-02-19T10:04:53Z</time>
      </trkpt>
      <trkpt lat="44.4325" lon="5.15447">
        <ele>776.4</ele>
        <time>2023-02-19T10:05:08Z</time>
      </trkpt>
      <trkpt lat="44.43257" lon="5.15442">
        <ele>779.77</ele>
        <time>2023-02-19T10:05:22Z</time>
      </trkpt>
      <trkpt lat="44.4326" lon="5.15441">
        <ele>781.21</ele>
        <time>2023-02-19T10:05:27Z</time>
      </trkpt>
      <trkpt lat="44.43263" lon="5.15436">
        <ele>782.65</ele>
        <time>2023-02-19T10:05:35Z</time>
      </trkpt>
      <trkpt lat="44.43266" lon="5.15432">
        <ele>782.65</ele>
        <time>2023-02-19T10:05:41Z</time>
      </trkpt>
      <trkpt lat="44.43266" lon="5.15427">
        <ele>785.05</ele>
        <time>2023-02-19T10:05:47Z</time>
      </trkpt>
      <trkpt lat="44.43261" lon="5.15412">
        <ele>786.98</ele>
        <time>2023-02-19T10:06:03Z</time>
      </trkpt>
      <trkpt lat="44.43253" lon="5.15404">
        <ele>788.42</ele>
        <time>2023-02-19T10:06:17Z</time>
      </trkpt>
      <trkpt lat="44.43247" lon="5.15397">
        <ele>790.34</ele>
        <time>2023-02-19T10:06:33Z</time>
      </trkpt>
      <trkpt lat="44.43243" lon="5.15394">
        <ele>793.22</ele>
        <time>2023-02-19T10:06:41Z</time>
      </trkpt>
      <trkpt lat="44.43237" lon="5.15391">
        <ele>796.11</ele>
        <time>2023-02-19T10:06:53Z</time>
      </trkpt>
      <trkpt lat="44.43232" lon="5.15382">
        <ele>798.99</ele>
        <time>2023-02-19T10:07:08Z</time>
      </trkpt>
      <trkpt lat="44.43226" lon="5.15377">
        <ele>802.36</ele>
        <time>2023-02-19T10:07:24Z</time>
      </trkpt>
      <trkpt lat="44.43218" lon="5.15377">
        <ele>803.8</ele>
        <time>2023-02-19T10:07:42Z</time>
      </trkpt>
      <trkpt lat="44.4321" lon="5.1538">
        <ele>807.16</ele>
        <time>2023-02-19T10:07:56Z</time>
      </trkpt>
      <trkpt lat="44.43202" lon="5.1538">
        <ele>809.09</ele>
        <time>2023-02-19T10:08:12Z</time>
      </trkpt>
      <trkpt lat="44.43199" lon="5.15379">
        <ele>810.05</ele>
        <time>2023-02-19T10:08:35Z</time>
      </trkpt>
      <trkpt lat="44.43186" lon="5.15383">
        <ele>811.49</ele>
        <time>2023-02-19T10:08:49Z</time>
      </trkpt>
      <trkpt lat="44.43176" lon="5.15389">
        <ele>812.93</ele>
        <time>2023-02-19T10:09:04Z</time>
      </trkpt>
      <trkpt lat="44.43169" lon="5.15391">
        <ele>814.85</ele>
        <time>2023-02-19T10:09:16Z</time>
      </trkpt>
      <trkpt lat="44.43163" lon="5.15393">
        <ele>817.74</ele>
        <time>2023-02-19T10:09:25Z</time>
      </trkpt>
      <trkpt lat="44.43156" lon="5.154">
        <ele>821.1</ele>
        <time>2023-02-19T10:09:38Z</time>
      </trkpt>
      <trkpt lat="44.43153" lon="5.15397">
        <ele>822.55</ele>
        <time>2023-02-19T10:09:46Z</time>
      </trkpt>
      <trkpt lat="44.43151" lon="5.1538">
        <ele>823.51</ele>
        <time>2023-02-19T10:10:06Z</time>
      </trkpt>
      <trkpt lat="44.43152" lon="5.15372">
        <ele>826.87</ele>
        <time>2023-02-19T10:10:19Z</time>
      </trkpt>
      <trkpt lat="44.43154" lon="5.15363">
        <ele>830.24</ele>
        <time>2023-02-19T10:10:33Z</time>
      </trkpt>
      <trkpt lat="44.43155" lon="5.15351">
        <ele>832.16</ele>
        <time>2023-02-19T10:10:48Z</time>
      </trkpt>
      <trkpt lat="44.43157" lon="5.15343">
        <ele>834.56</ele>
        <time>2023-02-19T10:11:03Z</time>
      </trkpt>
      <trkpt lat="44.43161" lon="5.15328">
        <ele>837.93</ele>
        <time>2023-02-19T10:11:21Z</time>
      </trkpt>
      <trkpt lat="44.43167" lon="5.15317">
        <ele>839.85</ele>
        <time>2023-02-19T10:11:38Z</time>
      </trkpt>
      <trkpt lat="44.43171" lon="5.15305">
        <ele>841.29</ele>
        <time>2023-02-19T10:11:54Z</time>
      </trkpt>
      <trkpt lat="44.43175" lon="5.15296">
        <ele>844.18</ele>
        <time>2023-02-19T10:12:09Z</time>
      </trkpt>
      <trkpt lat="44.43179" lon="5.15286">
        <ele>847.06</ele>
        <time>2023-02-19T10:12:23Z</time>
      </trkpt>
      <trkpt lat="44.43182" lon="5.15277">
        <ele>849.94</ele>
        <time>2023-02-19T10:12:37Z</time>
      </trkpt>
      <trkpt lat="44.43184" lon="5.15264">
        <ele>852.83</ele>
        <time>2023-02-19T10:12:55Z</time>
      </trkpt>
      <trkpt lat="44.43189" lon="5.15252">
        <ele>855.23</ele>
        <time>2023-02-19T10:13:12Z</time>
      </trkpt>
      <trkpt lat="44.4319" lon="5.15239">
        <ele>858.59</ele>
        <time>2023-02-19T10:13:30Z</time>
      </trkpt>
      <trkpt lat="44.43192" lon="5.15228">
        <ele>861.96</ele>
        <time>2023-02-19T10:13:48Z</time>
      </trkpt>
      <trkpt lat="44.43193" lon="5.15215">
        <ele>864.36</ele>
        <time>2023-02-19T10:14:05Z</time>
      </trkpt>
      <trkpt lat="44.43199" lon="5.15202">
        <ele>866.77</ele>
        <time>2023-02-19T10:14:21Z</time>
      </trkpt>
      <trkpt lat="44.43202" lon="5.15196">
        <ele>869.17</ele>
        <time>2023-02-19T10:14:37Z</time>
      </trkpt>
      <trkpt lat="44.43208" lon="5.15188">
        <ele>872.05</ele>
        <time>2023-02-19T10:14:56Z</time>
      </trkpt>
      <trkpt lat="44.43216" lon="5.15177">
        <ele>874.94</ele>
        <time>2023-02-19T10:15:12Z</time>
      </trkpt>
      <trkpt lat="44.43218" lon="5.15176">
        <ele>876.38</ele>
        <time>2023-02-19T10:15:15Z</time>
      </trkpt>
      <trkpt lat="44.4322" lon="5.15169">
        <ele>878.78</ele>
        <time>2023-02-19T10:15:30Z</time>
      </trkpt>
      <trkpt lat="44.43221" lon="5.15166">
        <ele>879.74</ele>
        <time>2023-02-19T10:15:56Z</time>
      </trkpt>
      <trkpt lat="44.43222" lon="5.15165">
        <ele>878.78</ele>
        <time>2023-02-19T10:16:13Z</time>
      </trkpt>
      <trkpt lat="44.43223" lon="5.15162">
        <ele>880.71</ele>
        <time>2023-02-19T10:17:41Z</time>
      </trkpt>
      <trkpt lat="44.43222" lon="5.15156">
        <ele>883.59</ele>
        <time>2023-02-19T10:17:51Z</time>
      </trkpt>
      <trkpt lat="44.43217" lon="5.1515">
        <ele>886.47</ele>
        <time>2023-02-19T10:18:08Z</time>
      </trkpt>
      <trkpt lat="44.43213" lon="5.15148">
        <ele>889.36</ele>
        <time>2023-02-19T10:18:16Z</time>
      </trkpt>
      <trkpt lat="44.43206" lon="5.15144">
        <ele>891.76</ele>
        <time>2023-02-19T10:18:31Z</time>
      </trkpt>
      <trkpt lat="44.432" lon="5.15139">
        <ele>894.16</ele>
        <time>2023-02-19T10:18:47Z</time>
      </trkpt>
      <trkpt lat="44.43194" lon="5.15134">
        <ele>897.53</ele>
        <time>2023-02-19T10:19:03Z</time>
      </trkpt>
      <trkpt lat="44.43188" lon="5.15135">
        <ele>899.93</ele>
        <time>2023-02-19T10:19:20Z</time>
      </trkpt>
      <trkpt lat="44.4318" lon="5.15137">
        <ele>902.82</ele>
        <time>2023-02-19T10:19:38Z</time>
      </trkpt>
      <trkpt lat="44.43174" lon="5.15139">
        <ele>906.18</ele>
        <time>2023-02-19T10:19:56Z</time>
      </trkpt>
      <trkpt lat="44.43173" lon="5.15135">
        <ele>907.62</ele>
        <time>2023-02-19T10:20:10Z</time>
      </trkpt>
      <trkpt lat="44.43173" lon="5.15132">
        <ele>908.58</ele>
        <time>2023-02-19T10:20:17Z</time>
      </trkpt>
      <trkpt lat="44.43172" lon="5.1513">
        <ele>907.14</ele>
        <time>2023-02-19T10:20:21Z</time>
      </trkpt>
      <trkpt lat="44.43176" lon="5.15125">
        <ele>908.1</ele>
        <time>2023-02-19T10:21:24Z</time>
      </trkpt>
      <trkpt lat="44.43178" lon="5.15123">
        <ele>908.1</ele>
        <time>2023-02-19T10:22:47Z</time>
      </trkpt>
      <trkpt lat="44.43181" lon="5.15117">
        <ele>908.58</ele>
        <time>2023-02-19T10:23:06Z</time>
      </trkpt>
      <trkpt lat="44.43183" lon="5.15113">
        <ele>912.91</ele>
        <time>2023-02-19T10:23:13Z</time>
      </trkpt>
      <trkpt lat="44.43183" lon="5.15113">
        <ele>912.91</ele>
        <time>2023-02-19T10:23:15Z</time>
      </trkpt>
      <trkpt lat="44.43184" lon="5.15111">
        <ele>910.03</ele>
        <time>2023-02-19T10:23:18Z</time>
      </trkpt>
      <trkpt lat="44.43184" lon="5.15109">
        <ele>911.47</ele>
        <time>2023-02-19T10:23:20Z</time>
      </trkpt>
      <trkpt lat="44.43189" lon="5.15101">
        <ele>912.43</ele>
        <time>2023-02-19T10:23:34Z</time>
      </trkpt>
      <trkpt lat="44.43193" lon="5.15095">
        <ele>913.87</ele>
        <time>2023-02-19T10:23:51Z</time>
      </trkpt>
      <trkpt lat="44.43197" lon="5.15092">
        <ele>915.79</ele>
        <time>2023-02-19T10:24:09Z</time>
      </trkpt>
      <trkpt lat="44.43205" lon="5.15086">
        <ele>919.16</ele>
        <time>2023-02-19T10:29:34Z</time>
      </trkpt>
      <trkpt lat="44.43208" lon="5.15081">
        <ele>921.08</ele>
        <time>2023-02-19T10:29:53Z</time>
      </trkpt>
      <trkpt lat="44.43214" lon="5.15078">
        <ele>923.48</ele>
        <time>2023-02-19T10:30:10Z</time>
      </trkpt>
      <trkpt lat="44.43221" lon="5.15076">
        <ele>925.89</ele>
        <time>2023-02-19T10:30:24Z</time>
      </trkpt>
      <trkpt lat="44.43229" lon="5.1507">
        <ele>928.29</ele>
        <time>2023-02-19T10:30:41Z</time>
      </trkpt>
      <trkpt lat="44.43235" lon="5.15065">
        <ele>930.69</ele>
        <time>2023-02-19T10:30:56Z</time>
      </trkpt>
      <trkpt lat="44.43242" lon="5.15058">
        <ele>932.14</ele>
        <time>2023-02-19T10:31:07Z</time>
      </trkpt>
      <trkpt lat="44.43247" lon="5.15047">
        <ele>934.54</ele>
        <time>2023-02-19T10:31:23Z</time>
      </trkpt>
      <trkpt lat="44.43255" lon="5.15041">
        <ele>936.94</ele>
        <time>2023-02-19T10:31:37Z</time>
      </trkpt>
      <trkpt lat="44.43256" lon="5.15041">
        <ele>937.9</ele>
        <time>2023-02-19T10:31:39Z</time>
      </trkpt>
      <trkpt lat="44.43263" lon="5.15038">
        <ele>939.35</ele>
        <time>2023-02-19T10:31:49Z</time>
      </trkpt>
      <trkpt lat="44.43275" lon="5.15032">
        <ele>941.75</ele>
        <time>2023-02-19T10:32:04Z</time>
      </trkpt>
      <trkpt lat="44.43284" lon="5.1503">
        <ele>942.23</ele>
        <time>2023-02-19T10:32:16Z</time>
      </trkpt>
      <trkpt lat="44.43294" lon="5.15028">
        <ele>945.59</ele>
        <time>2023-02-19T10:32:31Z</time>
      </trkpt>
      <trkpt lat="44.43306" lon="5.15024">
        <ele>947.52</ele>
        <time>2023-02-19T10:32:44Z</time>
      </trkpt>
      <trkpt lat="44.43309" lon="5.15021">
        <ele>949.44</ele>
        <time>2023-02-19T10:32:49Z</time>
      </trkpt>
      <trkpt lat="44.43317" lon="5.15016">
        <ele>950.88</ele>
        <time>2023-02-19T10:33:03Z</time>
      </trkpt>
      <trkpt lat="44.43324" lon="5.15006">
        <ele>952.8</ele>
        <time>2023-02-19T10:33:17Z</time>
      </trkpt>
      <trkpt lat="44.43325" lon="5.15002">
        <ele>951.36</ele>
        <time>2023-02-19T10:33:20Z</time>
      </trkpt>
      <trkpt lat="44.4333" lon="5.14986">
        <ele>950.4</ele>
        <time>2023-02-19T10:33:34Z</time>
      </trkpt>
      <trkpt lat="44.43334" lon="5.14967">
        <ele>948</ele>
        <time>2023-02-19T10:33:49Z</time>
      </trkpt>
      <trkpt lat="44.43336" lon="5.14957">
        <ele>949.44</ele>
        <time>2023-02-19T10:33:55Z</time>
      </trkpt>
      <trkpt lat="44.4334" lon="5.14942">
        <ele>949.92</ele>
        <time>2023-02-19T10:34:08Z</time>
      </trkpt>
      <trkpt lat="44.4334" lon="5.14934">
        <ele>950.4</ele>
        <time>2023-02-19T10:34:22Z</time>
      </trkpt>
      <trkpt lat="44.43344" lon="5.14917">
        <ele>951.36</ele>
        <time>2023-02-19T10:34:37Z</time>
      </trkpt>
      <trkpt lat="44.43344" lon="5.149">
        <ele>953.28</ele>
        <time>2023-02-19T10:34:51Z</time>
      </trkpt>
      <trkpt lat="44.43345" lon="5.14886">
        <ele>954.73</ele>
        <time>2023-02-19T10:35:05Z</time>
      </trkpt>
      <trkpt lat="44.43345" lon="5.1488">
        <ele>952.8</ele>
        <time>2023-02-19T10:35:10Z</time>
      </trkpt>
      <trkpt lat="44.43348" lon="5.14864">
        <ele>956.17</ele>
        <time>2023-02-19T10:35:22Z</time>
      </trkpt>
      <trkpt lat="44.43348" lon="5.1485">
        <ele>957.61</ele>
        <time>2023-02-19T10:35:37Z</time>
      </trkpt>
      <trkpt lat="44.43352" lon="5.1483">
        <ele>960.49</ele>
        <time>2023-02-19T10:35:51Z</time>
      </trkpt>
      <trkpt lat="44.43355" lon="5.14815">
        <ele>960.01</ele>
        <time>2023-02-19T10:36:04Z</time>
      </trkpt>
      <trkpt lat="44.43355" lon="5.14804">
        <ele>961.94</ele>
        <time>2023-02-19T10:36:17Z</time>
      </trkpt>
      <trkpt lat="44.43355" lon="5.14799">
        <ele>962.9</ele>
        <time>2023-02-19T10:36:27Z</time>
      </trkpt>
      <trkpt lat="44.43361" lon="5.14792">
        <ele>963.38</ele>
        <time>2023-02-19T10:36:41Z</time>
      </trkpt>
      <trkpt lat="44.43366" lon="5.14786">
        <ele>963.86</ele>
        <time>2023-02-19T10:36:52Z</time>
      </trkpt>
      <trkpt lat="44.43378" lon="5.14779">
        <ele>966.74</ele>
        <time>2023-02-19T10:37:07Z</time>
      </trkpt>
      <trkpt lat="44.43385" lon="5.1478">
        <ele>969.63</ele>
        <time>2023-02-19T10:37:19Z</time>
      </trkpt>
      <trkpt lat="44.43391" lon="5.14778">
        <ele>972.03</ele>
        <time>2023-02-19T10:37:33Z</time>
      </trkpt>
      <trkpt lat="44.43394" lon="5.14773">
        <ele>974.43</ele>
        <time>2023-02-19T10:37:46Z</time>
      </trkpt>
      <trkpt lat="44.434" lon="5.14765">
        <ele>975.39</ele>
        <time>2023-02-19T10:38:01Z</time>
      </trkpt>
      <trkpt lat="44.43397" lon="5.14762">
        <ele>977.32</ele>
        <time>2023-02-19T10:38:13Z</time>
      </trkpt>
      <trkpt lat="44.43391" lon="5.14762">
        <ele>982.12</ele>
        <time>2023-02-19T10:38:27Z</time>
      </trkpt>
      <trkpt lat="44.4339" lon="5.14762">
        <ele>982.12</ele>
        <time>2023-02-19T10:38:28Z</time>
      </trkpt>
      <trkpt lat="44.43383" lon="5.14765">
        <ele>983.57</ele>
        <time>2023-02-19T10:38:46Z</time>
      </trkpt>
      <trkpt lat="44.4338" lon="5.14758">
        <ele>985.49</ele>
        <time>2023-02-19T10:38:59Z</time>
      </trkpt>
      <trkpt lat="44.43376" lon="5.14754">
        <ele>986.93</ele>
        <time>2023-02-19T10:39:16Z</time>
      </trkpt>
      <trkpt lat="44.43369" lon="5.14753">
        <ele>989.33</ele>
        <time>2023-02-19T10:39:26Z</time>
      </trkpt>
      <trkpt lat="44.43361" lon="5.14746">
        <ele>991.26</ele>
        <time>2023-02-19T10:39:41Z</time>
      </trkpt>
      <trkpt lat="44.43358" lon="5.14746">
        <ele>991.26</ele>
        <time>2023-02-19T10:39:45Z</time>
      </trkpt>
      <trkpt lat="44.43347" lon="5.14748">
        <ele>992.7</ele>
        <time>2023-02-19T10:39:59Z</time>
      </trkpt>
      <trkpt lat="44.43339" lon="5.14765">
        <ele>995.58</ele>
        <time>2023-02-19T10:40:14Z</time>
      </trkpt>
      <trkpt lat="44.43336" lon="5.14773">
        <ele>996.54</ele>
        <time>2023-02-19T10:40:27Z</time>
      </trkpt>
      <trkpt lat="44.43333" lon="5.14772">
        <ele>998.47</ele>
        <time>2023-02-19T10:40:45Z</time>
      </trkpt>
      <trkpt lat="44.4333" lon="5.14772">
        <ele>998.95</ele>
        <time>2023-02-19T10:45:46Z</time>
      </trkpt>
      <trkpt lat="44.43329" lon="5.14767">
        <ele>1000.39</ele>
        <time>2023-02-19T10:46:01Z</time>
      </trkpt>
      <trkpt lat="44.43326" lon="5.14759">
        <ele>1003.27</ele>
        <time>2023-02-19T10:46:18Z</time>
      </trkpt>
      <trkpt lat="44.43322" lon="5.14751">
        <ele>1005.2</ele>
        <time>2023-02-19T10:46:33Z</time>
      </trkpt>
      <trkpt lat="44.43318" lon="5.14752">
        <ele>1008.56</ele>
        <time>2023-02-19T10:46:49Z</time>
      </trkpt>
      <trkpt lat="44.43314" lon="5.14754">
        <ele>1011.93</ele>
        <time>2023-02-19T10:47:02Z</time>
      </trkpt>
      <trkpt lat="44.43312" lon="5.14758">
        <ele>1014.81</ele>
        <time>2023-02-19T10:47:18Z</time>
      </trkpt>
      <trkpt lat="44.43309" lon="5.14763">
        <ele>1017.21</ele>
        <time>2023-02-19T10:47:35Z</time>
      </trkpt>
      <trkpt lat="44.43306" lon="5.14767">
        <ele>1019.13</ele>
        <time>2023-02-19T10:47:49Z</time>
      </trkpt>
      <trkpt lat="44.43302" lon="5.14776">
        <ele>1022.5</ele>
        <time>2023-02-19T10:48:05Z</time>
      </trkpt>
      <trkpt lat="44.43296" lon="5.14783">
        <ele>1023.94</ele>
        <time>2023-02-19T10:48:19Z</time>
      </trkpt>
      <trkpt lat="44.43294" lon="5.14788">
        <ele>1027.31</ele>
        <time>2023-02-19T10:48:31Z</time>
      </trkpt>
      <trkpt lat="44.4329" lon="5.14788">
        <ele>1028.27</ele>
        <time>2023-02-19T10:48:48Z</time>
      </trkpt>
      <trkpt lat="44.43286" lon="5.14793">
        <ele>1030.67</ele>
        <time>2023-02-19T10:49:04Z</time>
      </trkpt>
      <trkpt lat="44.43283" lon="5.14797">
        <ele>1033.07</ele>
        <time>2023-02-19T10:49:21Z</time>
      </trkpt>
      <trkpt lat="44.43283" lon="5.14797">
        <ele>1031.63</ele>
        <time>2023-02-19T10:49:24Z</time>
      </trkpt>
      <trkpt lat="44.43282" lon="5.14797">
        <ele>1032.59</ele>
        <time>2023-02-19T10:49:31Z</time>
      </trkpt>
      <trkpt lat="44.43276" lon="5.14796">
        <ele>1035.48</ele>
        <time>2023-02-19T10:49:51Z</time>
      </trkpt>
      <trkpt lat="44.43271" lon="5.14792">
        <ele>1038.84</ele>
        <time>2023-02-19T10:50:03Z</time>
      </trkpt>
      <trkpt lat="44.43267" lon="5.1479">
        <ele>1041.73</ele>
        <time>2023-02-19T10:50:12Z</time>
      </trkpt>
      <trkpt lat="44.43263" lon="5.1479">
        <ele>1042.69</ele>
        <time>2023-02-19T10:50:26Z</time>
      </trkpt>
      <trkpt lat="44.4326" lon="5.14785">
        <ele>1046.05</ele>
        <time>2023-02-19T10:50:37Z</time>
      </trkpt>
      <trkpt lat="44.43256" lon="5.14777">
        <ele>1047.97</ele>
        <time>2023-02-19T10:50:52Z</time>
      </trkpt>
      <trkpt lat="44.43254" lon="5.14762">
        <ele>1050.86</ele>
        <time>2023-02-19T10:51:09Z</time>
      </trkpt>
      <trkpt lat="44.43252" lon="5.14747">
        <ele>1053.26</ele>
        <time>2023-02-19T10:51:25Z</time>
      </trkpt>
      <trkpt lat="44.4325" lon="5.14737">
        <ele>1056.15</ele>
        <time>2023-02-19T10:51:41Z</time>
      </trkpt>
      <trkpt lat="44.43249" lon="5.1473">
        <ele>1058.55</ele>
        <time>2023-02-19T10:51:56Z</time>
      </trkpt>
      <trkpt lat="44.43252" lon="5.14725">
        <ele>1059.99</ele>
        <time>2023-02-19T10:52:05Z</time>
      </trkpt>
      <trkpt lat="44.43257" lon="5.14719">
        <ele>1058.55</ele>
        <time>2023-02-19T10:52:16Z</time>
      </trkpt>
      <trkpt lat="44.43259" lon="5.14711">
        <ele>1055.18</ele>
        <time>2023-02-19T10:52:27Z</time>
      </trkpt>
      <trkpt lat="44.4326" lon="5.1471">
        <ele>1057.11</ele>
        <time>2023-02-19T10:52:31Z</time>
      </trkpt>
      <trkpt lat="44.43261" lon="5.14698">
        <ele>1058.07</ele>
        <time>2023-02-19T10:52:45Z</time>
      </trkpt>
      <trkpt lat="44.4326" lon="5.14696">
        <ele>1058.07</ele>
        <time>2023-02-19T10:52:47Z</time>
      </trkpt>
      <trkpt lat="44.43256" lon="5.14682">
        <ele>1059.03</ele>
        <time>2023-02-19T10:53:03Z</time>
      </trkpt>
      <trkpt lat="44.43254" lon="5.1467">
        <ele>1059.03</ele>
        <time>2023-02-19T10:53:16Z</time>
      </trkpt>
      <trkpt lat="44.43253" lon="5.14658">
        <ele>1057.59</ele>
        <time>2023-02-19T10:53:26Z</time>
      </trkpt>
      <trkpt lat="44.43251" lon="5.14641">
        <ele>1056.63</ele>
        <time>2023-02-19T10:53:41Z</time>
      </trkpt>
      <trkpt lat="44.43247" lon="5.14627">
        <ele>1056.15</ele>
        <time>2023-02-19T10:53:56Z</time>
      </trkpt>
      <trkpt lat="44.43246" lon="5.14626">
        <ele>1055.67</ele>
        <time>2023-02-19T10:54:17Z</time>
      </trkpt>
      <trkpt lat="44.43242" lon="5.14625">
        <ele>1057.11</ele>
        <time>2023-02-19T10:58:31Z</time>
      </trkpt>
      <trkpt lat="44.4324" lon="5.14618">
        <ele>1055.18</ele>
        <time>2023-02-19T10:58:44Z</time>
      </trkpt>
      <trkpt lat="44.4324" lon="5.14614">
        <ele>1054.22</ele>
        <time>2023-02-19T10:58:47Z</time>
      </trkpt>
      <trkpt lat="44.43239" lon="5.14611">
        <ele>1057.59</ele>
        <time>2023-02-19T10:58:50Z</time>
      </trkpt>
      <trkpt lat="44.43237" lon="5.14607">
        <ele>1055.67</ele>
        <time>2023-02-19T10:58:53Z</time>
      </trkpt>
      <trkpt lat="44.43232" lon="5.14587">
        <ele>1054.7</ele>
        <time>2023-02-19T10:59:07Z</time>
      </trkpt>
      <trkpt lat="44.43229" lon="5.1458">
        <ele>1054.7</ele>
        <time>2023-02-19T10:59:13Z</time>
      </trkpt>
      <trkpt lat="44.43228" lon="5.14576">
        <ele>1054.7</ele>
        <time>2023-02-19T10:59:16Z</time>
      </trkpt>
      <trkpt lat="44.43219" lon="5.14556">
        <ele>1055.67</ele>
        <time>2023-02-19T10:59:31Z</time>
      </trkpt>
      <trkpt lat="44.43218" lon="5.14554">
        <ele>1057.11</ele>
        <time>2023-02-19T10:59:33Z</time>
      </trkpt>
      <trkpt lat="44.43216" lon="5.1455">
        <ele>1055.67</ele>
        <time>2023-02-19T10:59:36Z</time>
      </trkpt>
      <trkpt lat="44.43203" lon="5.14537">
        <ele>1057.59</ele>
        <time>2023-02-19T10:59:51Z</time>
      </trkpt>
      <trkpt lat="44.43194" lon="5.14528">
        <ele>1059.03</ele>
        <time>2023-02-19T11:00:04Z</time>
      </trkpt>
      <trkpt lat="44.43181" lon="5.14518">
        <ele>1061.43</ele>
        <time>2023-02-19T11:00:20Z</time>
      </trkpt>
      <trkpt lat="44.43173" lon="5.1451">
        <ele>1062.39</ele>
        <time>2023-02-19T11:00:34Z</time>
      </trkpt>
      <trkpt lat="44.43164" lon="5.14501">
        <ele>1064.8</ele>
        <time>2023-02-19T11:00:50Z</time>
      </trkpt>
      <trkpt lat="44.43156" lon="5.1449">
        <ele>1066.24</ele>
        <time>2023-02-19T11:01:03Z</time>
      </trkpt>
      <trkpt lat="44.43146" lon="5.14478">
        <ele>1067.68</ele>
        <time>2023-02-19T11:01:19Z</time>
      </trkpt>
      <trkpt lat="44.4314" lon="5.1447">
        <ele>1069.6</ele>
        <time>2023-02-19T11:01:33Z</time>
      </trkpt>
      <trkpt lat="44.4313" lon="5.14458">
        <ele>1072.49</ele>
        <time>2023-02-19T11:01:51Z</time>
      </trkpt>
      <trkpt lat="44.43124" lon="5.1445">
        <ele>1074.41</ele>
        <time>2023-02-19T11:02:05Z</time>
      </trkpt>
      <trkpt lat="44.43116" lon="5.14443">
        <ele>1076.33</ele>
        <time>2023-02-19T11:02:21Z</time>
      </trkpt>
      <trkpt lat="44.43108" lon="5.14435">
        <ele>1079.7</ele>
        <time>2023-02-19T11:02:38Z</time>
      </trkpt>
      <trkpt lat="44.43099" lon="5.14427">
        <ele>1081.62</ele>
        <time>2023-02-19T11:02:52Z</time>
      </trkpt>
      <trkpt lat="44.43088" lon="5.14421">
        <ele>1084.5</ele>
        <time>2023-02-19T11:03:09Z</time>
      </trkpt>
      <trkpt lat="44.43078" lon="5.14415">
        <ele>1086.43</ele>
        <time>2023-02-19T11:03:27Z</time>
      </trkpt>
      <trkpt lat="44.43069" lon="5.14405">
        <ele>1088.83</ele>
        <time>2023-02-19T11:03:43Z</time>
      </trkpt>
      <trkpt lat="44.43058" lon="5.144">
        <ele>1090.75</ele>
        <time>2023-02-19T11:03:59Z</time>
      </trkpt>
      <trkpt lat="44.43049" lon="5.14397">
        <ele>1093.16</ele>
        <time>2023-02-19T11:04:15Z</time>
      </trkpt>
      <trkpt lat="44.43038" lon="5.14394">
        <ele>1096.52</ele>
        <time>2023-02-19T11:04:33Z</time>
      </trkpt>
      <trkpt lat="44.43029" lon="5.14386">
        <ele>1097.96</ele>
        <time>2023-02-19T11:04:47Z</time>
      </trkpt>
      <trkpt lat="44.43021" lon="5.14379">
        <ele>1099.4</ele>
        <time>2023-02-19T11:05:01Z</time>
      </trkpt>
      <trkpt lat="44.43011" lon="5.14371">
        <ele>1101.33</ele>
        <time>2023-02-19T11:05:17Z</time>
      </trkpt>
      <trkpt lat="44.43001" lon="5.14362">
        <ele>1104.21</ele>
        <time>2023-02-19T11:05:34Z</time>
      </trkpt>
      <trkpt lat="44.42991" lon="5.1435">
        <ele>1106.61</ele>
        <time>2023-02-19T11:05:52Z</time>
      </trkpt>
      <trkpt lat="44.42983" lon="5.14335">
        <ele>1107.58</ele>
        <time>2023-02-19T11:06:10Z</time>
      </trkpt>
      <trkpt lat="44.42981" lon="5.14327">
        <ele>1107.1</ele>
        <time>2023-02-19T11:06:19Z</time>
      </trkpt>
      <trkpt lat="44.42978" lon="5.14321">
        <ele>1109.02</ele>
        <time>2023-02-19T11:06:27Z</time>
      </trkpt>
      <trkpt lat="44.42976" lon="5.14318">
        <ele>1110.46</ele>
        <time>2023-02-19T11:06:33Z</time>
      </trkpt>
      <trkpt lat="44.42968" lon="5.14306">
        <ele>1113.34</ele>
        <time>2023-02-19T11:06:50Z</time>
      </trkpt>
      <trkpt lat="44.42959" lon="5.14294">
        <ele>1115.27</ele>
        <time>2023-02-19T11:07:07Z</time>
      </trkpt>
      <trkpt lat="44.42957" lon="5.14286">
        <ele>1118.15</ele>
        <time>2023-02-19T11:07:18Z</time>
      </trkpt>
      <trkpt lat="44.42952" lon="5.14274">
        <ele>1119.59</ele>
        <time>2023-02-19T11:07:34Z</time>
      </trkpt>
      <trkpt lat="44.42944" lon="5.14275">
        <ele>1122.96</ele>
        <time>2023-02-19T11:07:48Z</time>
      </trkpt>
      <trkpt lat="44.42938" lon="5.14275">
        <ele>1125.84</ele>
        <time>2023-02-19T11:08:03Z</time>
      </trkpt>
      <trkpt lat="44.42927" lon="5.14276">
        <ele>1129.21</ele>
        <time>2023-02-19T11:08:19Z</time>
      </trkpt>
      <trkpt lat="44.4292" lon="5.1428">
        <ele>1132.09</ele>
        <time>2023-02-19T11:08:33Z</time>
      </trkpt>
      <trkpt lat="44.42912" lon="5.14281">
        <ele>1135.45</ele>
        <time>2023-02-19T11:08:47Z</time>
      </trkpt>
      <trkpt lat="44.42904" lon="5.14281">
        <ele>1137.86</ele>
        <time>2023-02-19T11:09:05Z</time>
      </trkpt>
      <trkpt lat="44.42899" lon="5.14279">
        <ele>1141.22</ele>
        <time>2023-02-19T11:09:20Z</time>
      </trkpt>
      <trkpt lat="44.42894" lon="5.14266">
        <ele>1144.59</ele>
        <time>2023-02-19T11:09:34Z</time>
      </trkpt>
      <trkpt lat="44.42894" lon="5.14266">
        <ele>1144.59</ele>
        <time>2023-02-19T11:09:35Z</time>
      </trkpt>
      <trkpt lat="44.42888" lon="5.14252">
        <ele>1146.99</ele>
        <time>2023-02-19T11:09:52Z</time>
      </trkpt>
      <trkpt lat="44.42887" lon="5.14237">
        <ele>1147.95</ele>
        <time>2023-02-19T11:10:07Z</time>
      </trkpt>
      <trkpt lat="44.42887" lon="5.1422">
        <ele>1149.87</ele>
        <time>2023-02-19T11:10:24Z</time>
      </trkpt>
      <trkpt lat="44.42886" lon="5.14208">
        <ele>1151.8</ele>
        <time>2023-02-19T11:10:39Z</time>
      </trkpt>
      <trkpt lat="44.42883" lon="5.14195">
        <ele>1154.2</ele>
        <time>2023-02-19T11:10:55Z</time>
      </trkpt>
      <trkpt lat="44.42883" lon="5.14194">
        <ele>1154.2</ele>
        <time>2023-02-19T11:10:56Z</time>
      </trkpt>
      <trkpt lat="44.4288" lon="5.14183">
        <ele>1155.64</ele>
        <time>2023-02-19T11:11:13Z</time>
      </trkpt>
      <trkpt lat="44.42878" lon="5.14171">
        <ele>1157.56</ele>
        <time>2023-02-19T11:11:27Z</time>
      </trkpt>
      <trkpt lat="44.42874" lon="5.14156">
        <ele>1159.97</ele>
        <time>2023-02-19T11:11:44Z</time>
      </trkpt>
      <trkpt lat="44.42868" lon="5.14158">
        <ele>1162.85</ele>
        <time>2023-02-19T11:11:54Z</time>
      </trkpt>
      <trkpt lat="44.42857" lon="5.14162">
        <ele>1165.74</ele>
        <time>2023-02-19T11:12:11Z</time>
      </trkpt>
      <trkpt lat="44.42844" lon="5.14167">
        <ele>1168.62</ele>
        <time>2023-02-19T11:12:28Z</time>
      </trkpt>
      <trkpt lat="44.42837" lon="5.14168">
        <ele>1171.02</ele>
        <time>2023-02-19T11:12:45Z</time>
      </trkpt>
      <trkpt lat="44.42831" lon="5.14156">
        <ele>1173.91</ele>
        <time>2023-02-19T11:13:01Z</time>
      </trkpt>
      <trkpt lat="44.42825" lon="5.14154">
        <ele>1176.31</ele>
        <time>2023-02-19T11:13:17Z</time>
      </trkpt>
      <trkpt lat="44.42817" lon="5.14158">
        <ele>1179.19</ele>
        <time>2023-02-19T11:13:31Z</time>
      </trkpt>
      <trkpt lat="44.42808" lon="5.14164">
        <ele>1182.08</ele>
        <time>2023-02-19T11:13:48Z</time>
      </trkpt>
      <trkpt lat="44.42796" lon="5.14167">
        <ele>1184.48</ele>
        <time>2023-02-19T11:14:05Z</time>
      </trkpt>
      <trkpt lat="44.42786" lon="5.14171">
        <ele>1187.85</ele>
        <time>2023-02-19T11:14:19Z</time>
      </trkpt>
      <trkpt lat="44.42785" lon="5.14172">
        <ele>1189.29</ele>
        <time>2023-02-19T11:14:22Z</time>
      </trkpt>
      <trkpt lat="44.42778" lon="5.14158">
        <ele>1191.21</ele>
        <time>2023-02-19T11:14:40Z</time>
      </trkpt>
      <trkpt lat="44.42772" lon="5.14152">
        <ele>1194.09</ele>
        <time>2023-02-19T11:14:56Z</time>
      </trkpt>
      <trkpt lat="44.42763" lon="5.14146">
        <ele>1196.98</ele>
        <time>2023-02-19T11:15:13Z</time>
      </trkpt>
      <trkpt lat="44.42755" lon="5.14139">
        <ele>1199.86</ele>
        <time>2023-02-19T11:15:30Z</time>
      </trkpt>
      <trkpt lat="44.42747" lon="5.14134">
        <ele>1202.75</ele>
        <time>2023-02-19T11:15:43Z</time>
      </trkpt>
      <trkpt lat="44.42738" lon="5.14129">
        <ele>1204.67</ele>
        <time>2023-02-19T11:16:01Z</time>
      </trkpt>
      <trkpt lat="44.42729" lon="5.14129">
        <ele>1208.03</ele>
        <time>2023-02-19T11:16:16Z</time>
      </trkpt>
      <trkpt lat="44.42719" lon="5.14135">
        <ele>1210.44</ele>
        <time>2023-02-19T11:16:34Z</time>
      </trkpt>
      <trkpt lat="44.42711" lon="5.14135">
        <ele>1213.8</ele>
        <time>2023-02-19T11:16:49Z</time>
      </trkpt>
      <trkpt lat="44.42701" lon="5.14136">
        <ele>1214.76</ele>
        <time>2023-02-19T11:17:04Z</time>
      </trkpt>
      <trkpt lat="44.42692" lon="5.14141">
        <ele>1216.69</ele>
        <time>2023-02-19T11:17:18Z</time>
      </trkpt>
      <trkpt lat="44.42688" lon="5.14144">
        <ele>1217.17</ele>
        <time>2023-02-19T11:17:23Z</time>
      </trkpt>
      <trkpt lat="44.42676" lon="5.1415">
        <ele>1217.65</ele>
        <time>2023-02-19T11:17:39Z</time>
      </trkpt>
      <trkpt lat="44.42667" lon="5.14153">
        <ele>1216.21</ele>
        <time>2023-02-19T11:29:33Z</time>
      </trkpt>
      <trkpt lat="44.42665" lon="5.14154">
        <ele>1215.24</ele>
        <time>2023-02-19T11:29:35Z</time>
      </trkpt>
      <trkpt lat="44.42654" lon="5.1416">
        <ele>1211.4</ele>
        <time>2023-02-19T11:29:51Z</time>
      </trkpt>
      <trkpt lat="44.42647" lon="5.14167">
        <ele>1208.03</ele>
        <time>2023-02-19T11:30:02Z</time>
      </trkpt>
      <trkpt lat="44.42639" lon="5.14175">
        <ele>1205.63</ele>
        <time>2023-02-19T11:30:15Z</time>
      </trkpt>
      <trkpt lat="44.42628" lon="5.14189">
        <ele>1201.79</ele>
        <time>2023-02-19T11:30:28Z</time>
      </trkpt>
      <trkpt lat="44.42611" lon="5.14201">
        <ele>1198.42</ele>
        <time>2023-02-19T11:30:43Z</time>
      </trkpt>
      <trkpt lat="44.42602" lon="5.14206">
        <ele>1195.06</ele>
        <time>2023-02-19T11:30:55Z</time>
      </trkpt>
      <trkpt lat="44.42594" lon="5.14213">
        <ele>1192.17</ele>
        <time>2023-02-19T11:31:09Z</time>
      </trkpt>
      <trkpt lat="44.42586" lon="5.14219">
        <ele>1189.29</ele>
        <time>2023-02-19T11:31:23Z</time>
      </trkpt>
      <trkpt lat="44.42579" lon="5.14223">
        <ele>1187.37</ele>
        <time>2023-02-19T11:31:36Z</time>
      </trkpt>
      <trkpt lat="44.42575" lon="5.14224">
        <ele>1184</ele>
        <time>2023-02-19T11:31:47Z</time>
      </trkpt>
      <trkpt lat="44.42564" lon="5.14227">
        <ele>1181.6</ele>
        <time>2023-02-19T11:32:02Z</time>
      </trkpt>
      <trkpt lat="44.42552" lon="5.14235">
        <ele>1178.23</ele>
        <time>2023-02-19T11:32:16Z</time>
      </trkpt>
      <trkpt lat="44.4254" lon="5.14252">
        <ele>1178.23</ele>
        <time>2023-02-19T11:32:32Z</time>
      </trkpt>
      <trkpt lat="44.42537" lon="5.14261">
        <ele>1178.23</ele>
        <time>2023-02-19T11:32:37Z</time>
      </trkpt>
      <trkpt lat="44.42536" lon="5.14265">
        <ele>1179.67</ele>
        <time>2023-02-19T11:32:39Z</time>
      </trkpt>
      <trkpt lat="44.4253" lon="5.14292">
        <ele>1182.08</ele>
        <time>2023-02-19T11:32:54Z</time>
      </trkpt>
      <trkpt lat="44.42528" lon="5.14306">
        <ele>1184.48</ele>
        <time>2023-02-19T11:33:04Z</time>
      </trkpt>
      <trkpt lat="44.42524" lon="5.14314">
        <ele>1187.37</ele>
        <time>2023-02-19T11:33:12Z</time>
      </trkpt>
      <trkpt lat="44.42522" lon="5.14328">
        <ele>1188.33</ele>
        <time>2023-02-19T11:33:28Z</time>
      </trkpt>
      <trkpt lat="44.4252" lon="5.14347">
        <ele>1190.25</ele>
        <time>2023-02-19T11:33:43Z</time>
      </trkpt>
      <trkpt lat="44.4252" lon="5.14348">
        <ele>1191.21</ele>
        <time>2023-02-19T11:33:44Z</time>
      </trkpt>
      <trkpt lat="44.42518" lon="5.1437">
        <ele>1192.65</ele>
        <time>2023-02-19T11:33:57Z</time>
      </trkpt>
      <trkpt lat="44.42516" lon="5.1438">
        <ele>1195.54</ele>
        <time>2023-02-19T11:34:03Z</time>
      </trkpt>
      <trkpt lat="44.42515" lon="5.14386">
        <ele>1196.02</ele>
        <time>2023-02-19T11:34:07Z</time>
      </trkpt>
      <trkpt lat="44.42514" lon="5.14388">
        <ele>1198.42</ele>
        <time>2023-02-19T11:34:09Z</time>
      </trkpt>
      <trkpt lat="44.42514" lon="5.14391">
        <ele>1196.02</ele>
        <time>2023-02-19T11:34:11Z</time>
      </trkpt>
      <trkpt lat="44.42512" lon="5.14397">
        <ele>1197.46</ele>
        <time>2023-02-19T11:34:16Z</time>
      </trkpt>
      <trkpt lat="44.4251" lon="5.14403">
        <ele>1198.9</ele>
        <time>2023-02-19T11:34:21Z</time>
      </trkpt>
      <trkpt lat="44.42507" lon="5.14411">
        <ele>1202.27</ele>
        <time>2023-02-19T11:34:28Z</time>
      </trkpt>
      <trkpt lat="44.42506" lon="5.14414">
        <ele>1203.23</ele>
        <time>2023-02-19T11:34:30Z</time>
      </trkpt>
      <trkpt lat="44.42505" lon="5.14419">
        <ele>1200.82</ele>
        <time>2023-02-19T11:34:35Z</time>
      </trkpt>
      <trkpt lat="44.42505" lon="5.1442">
        <ele>1200.82</ele>
        <time>2023-02-19T11:34:36Z</time>
      </trkpt>
      <trkpt lat="44.42505" lon="5.14424">
        <ele>1202.27</ele>
        <time>2023-02-19T11:34:39Z</time>
      </trkpt>
      <trkpt lat="44.42505" lon="5.14425">
        <ele>1202.27</ele>
        <time>2023-02-19T11:34:40Z</time>
      </trkpt>
      <trkpt lat="44.42505" lon="5.14431">
        <ele>1205.63</ele>
        <time>2023-02-19T11:34:47Z</time>
      </trkpt>
      <trkpt lat="44.42504" lon="5.14431">
        <ele>1205.63</ele>
        <time>2023-02-19T11:34:48Z</time>
      </trkpt>
      <trkpt lat="44.42504" lon="5.14434">
        <ele>1207.55</ele>
        <time>2023-02-19T11:34:51Z</time>
      </trkpt>
      <trkpt lat="44.42504" lon="5.14441">
        <ele>1209.96</ele>
        <time>2023-02-19T11:34:58Z</time>
      </trkpt>
      <trkpt lat="44.42504" lon="5.14445">
        <ele>1209.96</ele>
        <time>2023-02-19T11:35:01Z</time>
      </trkpt>
      <trkpt lat="44.42504" lon="5.1445">
        <ele>1214.76</ele>
        <time>2023-02-19T11:35:05Z</time>
      </trkpt>
      <trkpt lat="44.42503" lon="5.14451">
        <ele>1214.76</ele>
        <time>2023-02-19T11:35:06Z</time>
      </trkpt>
      <trkpt lat="44.42502" lon="5.14455">
        <ele>1216.69</ele>
        <time>2023-02-19T11:35:11Z</time>
      </trkpt>
      <trkpt lat="44.42503" lon="5.14456">
        <ele>1211.88</ele>
        <time>2023-02-19T11:35:12Z</time>
      </trkpt>
      <trkpt lat="44.42503" lon="5.14456">
        <ele>1211.88</ele>
        <time>2023-02-19T11:35:13Z</time>
      </trkpt>
      <trkpt lat="44.42502" lon="5.14459">
        <ele>1215.72</ele>
        <time>2023-02-19T11:35:15Z</time>
      </trkpt>
      <trkpt lat="44.42502" lon="5.14462">
        <ele>1219.57</ele>
        <time>2023-02-19T11:35:18Z</time>
      </trkpt>
      <trkpt lat="44.42502" lon="5.14463">
        <ele>1221.97</ele>
        <time>2023-02-19T11:35:19Z</time>
      </trkpt>
      <trkpt lat="44.425" lon="5.14468">
        <ele>1221.49</ele>
        <time>2023-02-19T11:35:23Z</time>
      </trkpt>
      <trkpt lat="44.42499" lon="5.14476">
        <ele>1216.21</ele>
        <time>2023-02-19T11:35:29Z</time>
      </trkpt>
      <trkpt lat="44.42499" lon="5.14477">
        <ele>1216.21</ele>
        <time>2023-02-19T11:35:30Z</time>
      </trkpt>
      <trkpt lat="44.42499" lon="5.14481">
        <ele>1219.57</ele>
        <time>2023-02-19T11:35:33Z</time>
      </trkpt>
      <trkpt lat="44.42498" lon="5.14483">
        <ele>1215.72</ele>
        <time>2023-02-19T11:35:34Z</time>
      </trkpt>
      <trkpt lat="44.42499" lon="5.14492">
        <ele>1212.36</ele>
        <time>2023-02-19T11:35:42Z</time>
      </trkpt>
      <trkpt lat="44.425" lon="5.14496">
        <ele>1217.17</ele>
        <time>2023-02-19T11:35:46Z</time>
      </trkpt>
      <trkpt lat="44.425" lon="5.14497">
        <ele>1215.72</ele>
        <time>2023-02-19T11:35:47Z</time>
      </trkpt>
      <trkpt lat="44.42499" lon="5.14499">
        <ele>1219.09</ele>
        <time>2023-02-19T11:35:49Z</time>
      </trkpt>
      <trkpt lat="44.42499" lon="5.145">
        <ele>1219.09</ele>
        <time>2023-02-19T11:35:50Z</time>
      </trkpt>
      <trkpt lat="44.425" lon="5.14503">
        <ele>1217.65</ele>
        <time>2023-02-19T11:35:53Z</time>
      </trkpt>
      <trkpt lat="44.425" lon="5.14506">
        <ele>1219.09</ele>
        <time>2023-02-19T11:35:57Z</time>
      </trkpt>
      <trkpt lat="44.42501" lon="5.1451">
        <ele>1221.97</ele>
        <time>2023-02-19T11:36:03Z</time>
      </trkpt>
      <trkpt lat="44.425" lon="5.14511">
        <ele>1220.53</ele>
        <time>2023-02-19T11:36:04Z</time>
      </trkpt>
      <trkpt lat="44.425" lon="5.14515">
        <ele>1223.42</ele>
        <time>2023-02-19T11:36:07Z</time>
      </trkpt>
      <trkpt lat="44.425" lon="5.14518">
        <ele>1221.97</ele>
        <time>2023-02-19T11:36:14Z</time>
      </trkpt>
      <trkpt lat="44.425" lon="5.14518">
        <ele>1223.42</ele>
        <time>2023-02-19T11:36:16Z</time>
      </trkpt>
      <trkpt lat="44.42501" lon="5.14519">
        <ele>1219.09</ele>
        <time>2023-02-19T11:36:25Z</time>
      </trkpt>
      <trkpt lat="44.42501" lon="5.14519">
        <ele>1219.09</ele>
        <time>2023-02-19T11:36:26Z</time>
      </trkpt>
      <trkpt lat="44.42501" lon="5.1452">
        <ele>1221.97</ele>
        <time>2023-02-19T11:36:33Z</time>
      </trkpt>
      <trkpt lat="44.42502" lon="5.14518">
        <ele>1220.05</ele>
        <time>2023-02-19T11:39:31Z</time>
      </trkpt>
      <trkpt lat="44.42501" lon="5.14513">
        <ele>1218.61</ele>
        <time>2023-02-19T11:39:38Z</time>
      </trkpt>
      <trkpt lat="44.425" lon="5.1451">
        <ele>1220.05</ele>
        <time>2023-02-19T11:39:41Z</time>
      </trkpt>
      <trkpt lat="44.42499" lon="5.14508">
        <ele>1220.05</ele>
        <time>2023-02-19T11:39:42Z</time>
      </trkpt>
      <trkpt lat="44.425" lon="5.14497">
        <ele>1218.61</ele>
        <time>2023-02-19T11:39:53Z</time>
      </trkpt>
      <trkpt lat="44.425" lon="5.14495">
        <ele>1220.05</ele>
        <time>2023-02-19T11:39:58Z</time>
      </trkpt>
      <trkpt lat="44.425" lon="5.14493">
        <ele>1218.61</ele>
        <time>2023-02-19T11:40:01Z</time>
      </trkpt>
      <trkpt lat="44.425" lon="5.14489">
        <ele>1221.49</ele>
        <time>2023-02-19T11:40:08Z</time>
      </trkpt>
      <trkpt lat="44.42499" lon="5.14486">
        <ele>1222.45</ele>
        <time>2023-02-19T11:40:10Z</time>
      </trkpt>
      <trkpt lat="44.425" lon="5.14484">
        <ele>1218.13</ele>
        <time>2023-02-19T11:40:13Z</time>
      </trkpt>
      <trkpt lat="44.425" lon="5.14484">
        <ele>1221.49</ele>
        <time>2023-02-19T11:40:14Z</time>
      </trkpt>
      <trkpt lat="44.425" lon="5.14482">
        <ele>1219.57</ele>
        <time>2023-02-19T11:40:16Z</time>
      </trkpt>
      <trkpt lat="44.425" lon="5.14475">
        <ele>1218.13</ele>
        <time>2023-02-19T11:40:21Z</time>
      </trkpt>
      <trkpt lat="44.42501" lon="5.14472">
        <ele>1220.05</ele>
        <time>2023-02-19T11:40:23Z</time>
      </trkpt>
      <trkpt lat="44.42502" lon="5.1447">
        <ele>1216.69</ele>
        <time>2023-02-19T11:40:25Z</time>
      </trkpt>
      <trkpt lat="44.42503" lon="5.14468">
        <ele>1215.72</ele>
        <time>2023-02-19T11:40:27Z</time>
      </trkpt>
      <trkpt lat="44.42503" lon="5.14459">
        <ele>1214.28</ele>
        <time>2023-02-19T11:40:35Z</time>
      </trkpt>
      <trkpt lat="44.42503" lon="5.14455">
        <ele>1213.32</ele>
        <time>2023-02-19T11:40:39Z</time>
      </trkpt>
      <trkpt lat="44.42503" lon="5.14452">
        <ele>1211.4</ele>
        <time>2023-02-19T11:40:42Z</time>
      </trkpt>
      <trkpt lat="44.42504" lon="5.14447">
        <ele>1210.44</ele>
        <time>2023-02-19T11:40:47Z</time>
      </trkpt>
      <trkpt lat="44.42506" lon="5.14441">
        <ele>1208.03</ele>
        <time>2023-02-19T11:40:52Z</time>
      </trkpt>
      <trkpt lat="44.42505" lon="5.14425">
        <ele>1205.15</ele>
        <time>2023-02-19T11:41:06Z</time>
      </trkpt>
      <trkpt lat="44.42508" lon="5.14411">
        <ele>1200.82</ele>
        <time>2023-02-19T11:41:19Z</time>
      </trkpt>
      <trkpt lat="44.42507" lon="5.14409">
        <ele>1205.63</ele>
        <time>2023-02-19T11:41:20Z</time>
      </trkpt>
      <trkpt lat="44.42507" lon="5.14407">
        <ele>1201.79</ele>
        <time>2023-02-19T11:41:22Z</time>
      </trkpt>
      <trkpt lat="44.42508" lon="5.14405">
        <ele>1200.82</ele>
        <time>2023-02-19T11:41:24Z</time>
      </trkpt>
      <trkpt lat="44.42511" lon="5.14399">
        <ele>1199.86</ele>
        <time>2023-02-19T11:41:28Z</time>
      </trkpt>
      <trkpt lat="44.42511" lon="5.14397">
        <ele>1198.9</ele>
        <time>2023-02-19T11:41:30Z</time>
      </trkpt>
      <trkpt lat="44.42514" lon="5.14393">
        <ele>1197.46</ele>
        <time>2023-02-19T11:41:34Z</time>
      </trkpt>
      <trkpt lat="44.42515" lon="5.1439">
        <ele>1196.98</ele>
        <time>2023-02-19T11:41:36Z</time>
      </trkpt>
      <trkpt lat="44.42519" lon="5.14372">
        <ele>1192.65</ele>
        <time>2023-02-19T11:41:49Z</time>
      </trkpt>
      <trkpt lat="44.42519" lon="5.1437">
        <ele>1192.65</ele>
        <time>2023-02-19T11:41:50Z</time>
      </trkpt>
      <trkpt lat="44.42521" lon="5.1436">
        <ele>1191.69</ele>
        <time>2023-02-19T11:41:58Z</time>
      </trkpt>
      <trkpt lat="44.42522" lon="5.14344">
        <ele>1189.77</ele>
        <time>2023-02-19T11:42:09Z</time>
      </trkpt>
      <trkpt lat="44.42527" lon="5.14323">
        <ele>1185.92</ele>
        <time>2023-02-19T11:42:25Z</time>
      </trkpt>
      <trkpt lat="44.42531" lon="5.14306">
        <ele>1183.52</ele>
        <time>2023-02-19T11:42:37Z</time>
      </trkpt>
      <trkpt lat="44.42533" lon="5.14297">
        <ele>1181.6</ele>
        <time>2023-02-19T11:42:43Z</time>
      </trkpt>
      <trkpt lat="44.42535" lon="5.14275">
        <ele>1178.71</ele>
        <time>2023-02-19T11:42:57Z</time>
      </trkpt>
      <trkpt lat="44.42537" lon="5.14266">
        <ele>1178.23</ele>
        <time>2023-02-19T11:43:02Z</time>
      </trkpt>
      <trkpt lat="44.42545" lon="5.14252">
        <ele>1178.23</ele>
        <time>2023-02-19T11:43:16Z</time>
      </trkpt>
      <trkpt lat="44.42554" lon="5.1424">
        <ele>1179.67</ele>
        <time>2023-02-19T11:43:30Z</time>
      </trkpt>
      <trkpt lat="44.42565" lon="5.14231">
        <ele>1181.6</ele>
        <time>2023-02-19T11:43:45Z</time>
      </trkpt>
      <trkpt lat="44.4257" lon="5.14229">
        <ele>1184</ele>
        <time>2023-02-19T11:43:55Z</time>
      </trkpt>
      <trkpt lat="44.42579" lon="5.14224">
        <ele>1186.4</ele>
        <time>2023-02-19T11:44:13Z</time>
      </trkpt>
      <trkpt lat="44.42587" lon="5.14215">
        <ele>1189.77</ele>
        <time>2023-02-19T11:44:31Z</time>
      </trkpt>
      <trkpt lat="44.42591" lon="5.14212">
        <ele>1192.17</ele>
        <time>2023-02-19T11:44:46Z</time>
      </trkpt>
      <trkpt lat="44.42597" lon="5.14203">
        <ele>1193.13</ele>
        <time>2023-02-19T11:45:00Z</time>
      </trkpt>
      <trkpt lat="44.426" lon="5.14202">
        <ele>1194.58</ele>
        <time>2023-02-19T11:45:07Z</time>
      </trkpt>
      <trkpt lat="44.42607" lon="5.14199">
        <ele>1197.46</ele>
        <time>2023-02-19T11:45:21Z</time>
      </trkpt>
      <trkpt lat="44.42611" lon="5.14196">
        <ele>1198.42</ele>
        <time>2023-02-19T11:45:27Z</time>
      </trkpt>
      <trkpt lat="44.42617" lon="5.14191">
        <ele>1201.3</ele>
        <time>2023-02-19T11:45:34Z</time>
      </trkpt>
      <trkpt lat="44.42628" lon="5.14186">
        <ele>1202.27</ele>
        <time>2023-02-19T11:45:50Z</time>
      </trkpt>
      <trkpt lat="44.42631" lon="5.14182">
        <ele>1203.23</ele>
        <time>2023-02-19T11:45:56Z</time>
      </trkpt>
      <trkpt lat="44.4264" lon="5.14172">
        <ele>1206.11</ele>
        <time>2023-02-19T11:46:11Z</time>
      </trkpt>
      <trkpt lat="44.42649" lon="5.14166">
        <ele>1208.51</ele>
        <time>2023-02-19T11:46:27Z</time>
      </trkpt>
      <trkpt lat="44.42655" lon="5.1416">
        <ele>1210.92</ele>
        <time>2023-02-19T11:46:40Z</time>
      </trkpt>
      <trkpt lat="44.42659" lon="5.14154">
        <ele>1212.84</ele>
        <time>2023-02-19T11:46:50Z</time>
      </trkpt>
      <trkpt lat="44.42665" lon="5.14152">
        <ele>1215.72</ele>
        <time>2023-02-19T11:47:06Z</time>
      </trkpt>
      <trkpt lat="44.42671" lon="5.14144">
        <ele>1218.61</ele>
        <time>2023-02-19T11:47:18Z</time>
      </trkpt>
      <trkpt lat="44.4268" lon="5.14129">
        <ele>1218.61</ele>
        <time>2023-02-19T11:47:34Z</time>
      </trkpt>
      <trkpt lat="44.4268" lon="5.14128">
        <ele>1218.61</ele>
        <time>2023-02-19T11:47:35Z</time>
      </trkpt>
      <trkpt lat="44.42682" lon="5.14116">
        <ele>1217.65</ele>
        <time>2023-02-19T11:47:44Z</time>
      </trkpt>
      <trkpt lat="44.42677" lon="5.14114">
        <ele>1215.72</ele>
        <time>2023-02-19T11:48:00Z</time>
      </trkpt>
      <trkpt lat="44.42676" lon="5.14111">
        <ele>1220.53</ele>
        <time>2023-02-19T12:43:20Z</time>
      </trkpt>
      <trkpt lat="44.42678" lon="5.1411">
        <ele>1220.53</ele>
        <time>2023-02-19T12:43:43Z</time>
      </trkpt>
      <trkpt lat="44.42682" lon="5.14109">
        <ele>1221.49</ele>
        <time>2023-02-19T12:43:59Z</time>
      </trkpt>
      <trkpt lat="44.42684" lon="5.14108">
        <ele>1222.45</ele>
        <time>2023-02-19T12:44:11Z</time>
      </trkpt>
      <trkpt lat="44.42685" lon="5.14102">
        <ele>1222.45</ele>
        <time>2023-02-19T12:44:27Z</time>
      </trkpt>
      <trkpt lat="44.42685" lon="5.14098">
        <ele>1221.49</ele>
        <time>2023-02-19T12:45:03Z</time>
      </trkpt>
      <trkpt lat="44.42685" lon="5.14096">
        <ele>1221.49</ele>
        <time>2023-02-19T12:45:14Z</time>
      </trkpt>
      <trkpt lat="44.42688" lon="5.1409">
        <ele>1221.49</ele>
        <time>2023-02-19T12:45:25Z</time>
      </trkpt>
      <trkpt lat="44.42688" lon="5.14089">
        <ele>1221.49</ele>
        <time>2023-02-19T12:45:42Z</time>
      </trkpt>
      <trkpt lat="44.42689" lon="5.14087">
        <ele>1221.49</ele>
        <time>2023-02-19T12:45:46Z</time>
      </trkpt>
      <trkpt lat="44.4269" lon="5.14065">
        <ele>1218.13</ele>
        <time>2023-02-19T12:46:03Z</time>
      </trkpt>
      <trkpt lat="44.4269" lon="5.14056">
        <ele>1217.65</ele>
        <time>2023-02-19T12:46:09Z</time>
      </trkpt>
      <trkpt lat="44.4269" lon="5.14051">
        <ele>1216.69</ele>
        <time>2023-02-19T12:46:12Z</time>
      </trkpt>
      <trkpt lat="44.42688" lon="5.14044">
        <ele>1216.21</ele>
        <time>2023-02-19T12:46:17Z</time>
      </trkpt>
      <trkpt lat="44.42688" lon="5.1404">
        <ele>1216.21</ele>
        <time>2023-02-19T12:46:19Z</time>
      </trkpt>
      <trkpt lat="44.42688" lon="5.14016">
        <ele>1213.8</ele>
        <time>2023-02-19T12:46:36Z</time>
      </trkpt>
      <trkpt lat="44.42684" lon="5.13999">
        <ele>1211.4</ele>
        <time>2023-02-19T12:46:50Z</time>
      </trkpt>
      <trkpt lat="44.42684" lon="5.13996">
        <ele>1210.92</ele>
        <time>2023-02-19T12:46:54Z</time>
      </trkpt>
      <trkpt lat="44.42685" lon="5.13986">
        <ele>1209.96</ele>
        <time>2023-02-19T12:47:00Z</time>
      </trkpt>
      <trkpt lat="44.42684" lon="5.13981">
        <ele>1210.92</ele>
        <time>2023-02-19T12:47:03Z</time>
      </trkpt>
      <trkpt lat="44.42684" lon="5.1398">
        <ele>1208.51</ele>
        <time>2023-02-19T12:47:04Z</time>
      </trkpt>
      <trkpt lat="44.4268" lon="5.13959">
        <ele>1204.67</ele>
        <time>2023-02-19T12:47:17Z</time>
      </trkpt>
      <trkpt lat="44.42678" lon="5.1395">
        <ele>1203.71</ele>
        <time>2023-02-19T12:47:23Z</time>
      </trkpt>
      <trkpt lat="44.42677" lon="5.1394">
        <ele>1202.75</ele>
        <time>2023-02-19T12:47:29Z</time>
      </trkpt>
      <trkpt lat="44.42678" lon="5.13928">
        <ele>1200.82</ele>
        <time>2023-02-19T12:47:36Z</time>
      </trkpt>
      <trkpt lat="44.42677" lon="5.13912">
        <ele>1198.9</ele>
        <time>2023-02-19T12:47:46Z</time>
      </trkpt>
      <trkpt lat="44.42675" lon="5.13909">
        <ele>1198.42</ele>
        <time>2023-02-19T12:47:48Z</time>
      </trkpt>
      <trkpt lat="44.42675" lon="5.13905">
        <ele>1197.46</ele>
        <time>2023-02-19T12:47:50Z</time>
      </trkpt>
      <trkpt lat="44.42675" lon="5.13893">
        <ele>1195.54</ele>
        <time>2023-02-19T12:47:57Z</time>
      </trkpt>
      <trkpt lat="44.4267" lon="5.13871">
        <ele>1192.17</ele>
        <time>2023-02-19T12:48:10Z</time>
      </trkpt>
      <trkpt lat="44.42669" lon="5.13864">
        <ele>1192.17</ele>
        <time>2023-02-19T12:48:17Z</time>
      </trkpt>
      <trkpt lat="44.42667" lon="5.13858">
        <ele>1190.73</ele>
        <time>2023-02-19T12:48:21Z</time>
      </trkpt>
      <trkpt lat="44.42668" lon="5.13843">
        <ele>1191.21</ele>
        <time>2023-02-19T12:48:30Z</time>
      </trkpt>
      <trkpt lat="44.42669" lon="5.13837">
        <ele>1191.21</ele>
        <time>2023-02-19T12:48:34Z</time>
      </trkpt>
      <trkpt lat="44.42668" lon="5.13816">
        <ele>1191.69</ele>
        <time>2023-02-19T12:48:46Z</time>
      </trkpt>
      <trkpt lat="44.42667" lon="5.13803">
        <ele>1190.25</ele>
        <time>2023-02-19T12:48:53Z</time>
      </trkpt>
      <trkpt lat="44.42664" lon="5.13785">
        <ele>1188.33</ele>
        <time>2023-02-19T12:49:04Z</time>
      </trkpt>
      <trkpt lat="44.42665" lon="5.13775">
        <ele>1189.29</ele>
        <time>2023-02-19T12:49:10Z</time>
      </trkpt>
      <trkpt lat="44.42666" lon="5.13764">
        <ele>1190.73</ele>
        <time>2023-02-19T12:49:16Z</time>
      </trkpt>
      <trkpt lat="44.42666" lon="5.1375">
        <ele>1190.25</ele>
        <time>2023-02-19T12:49:23Z</time>
      </trkpt>
      <trkpt lat="44.42666" lon="5.13727">
        <ele>1188.33</ele>
        <time>2023-02-19T12:49:35Z</time>
      </trkpt>
      <trkpt lat="44.42666" lon="5.13715">
        <ele>1188.81</ele>
        <time>2023-02-19T12:49:41Z</time>
      </trkpt>
      <trkpt lat="44.42671" lon="5.13692">
        <ele>1185.92</ele>
        <time>2023-02-19T12:49:53Z</time>
      </trkpt>
      <trkpt lat="44.42676" lon="5.13663">
        <ele>1184</ele>
        <time>2023-02-19T12:50:09Z</time>
      </trkpt>
      <trkpt lat="44.42678" lon="5.13654">
        <ele>1181.12</ele>
        <time>2023-02-19T12:50:14Z</time>
      </trkpt>
      <trkpt lat="44.4268" lon="5.13652">
        <ele>1180.16</ele>
        <time>2023-02-19T12:50:16Z</time>
      </trkpt>
      <trkpt lat="44.42684" lon="5.13638">
        <ele>1178.71</ele>
        <time>2023-02-19T12:50:24Z</time>
      </trkpt>
      <trkpt lat="44.4269" lon="5.13618">
        <ele>1176.31</ele>
        <time>2023-02-19T12:50:37Z</time>
      </trkpt>
      <trkpt lat="44.42697" lon="5.1361">
        <ele>1174.39</ele>
        <time>2023-02-19T12:50:44Z</time>
      </trkpt>
      <trkpt lat="44.42708" lon="5.13599">
        <ele>1171.5</ele>
        <time>2023-02-19T12:50:54Z</time>
      </trkpt>
      <trkpt lat="44.4272" lon="5.13586">
        <ele>1168.14</ele>
        <time>2023-02-19T12:51:05Z</time>
      </trkpt>
      <trkpt lat="44.42732" lon="5.13571">
        <ele>1164.77</ele>
        <time>2023-02-19T12:51:17Z</time>
      </trkpt>
      <trkpt lat="44.4275" lon="5.13556">
        <ele>1161.41</ele>
        <time>2023-02-19T12:51:32Z</time>
      </trkpt>
      <trkpt lat="44.42766" lon="5.13546">
        <ele>1159.97</ele>
        <time>2023-02-19T12:51:46Z</time>
      </trkpt>
      <trkpt lat="44.42775" lon="5.1354">
        <ele>1158.05</ele>
        <time>2023-02-19T12:51:54Z</time>
      </trkpt>
      <trkpt lat="44.42782" lon="5.13537">
        <ele>1156.12</ele>
        <time>2023-02-19T12:52:00Z</time>
      </trkpt>
      <trkpt lat="44.42789" lon="5.13531">
        <ele>1155.16</ele>
        <time>2023-02-19T12:52:07Z</time>
      </trkpt>
      <trkpt lat="44.42796" lon="5.13523">
        <ele>1153.72</ele>
        <time>2023-02-19T12:52:14Z</time>
      </trkpt>
      <trkpt lat="44.42815" lon="5.1351">
        <ele>1149.87</ele>
        <time>2023-02-19T12:52:32Z</time>
      </trkpt>
      <trkpt lat="44.42821" lon="5.13504">
        <ele>1149.87</ele>
        <time>2023-02-19T12:52:38Z</time>
      </trkpt>
      <trkpt lat="44.42838" lon="5.13496">
        <ele>1147.95</ele>
        <time>2023-02-19T12:52:56Z</time>
      </trkpt>
      <trkpt lat="44.4284" lon="5.13493">
        <ele>1147.47</ele>
        <time>2023-02-19T12:53:06Z</time>
      </trkpt>
      <trkpt lat="44.42854" lon="5.13477">
        <ele>1145.07</ele>
        <time>2023-02-19T12:53:21Z</time>
      </trkpt>
      <trkpt lat="44.42868" lon="5.13463">
        <ele>1141.7</ele>
        <time>2023-02-19T12:53:34Z</time>
      </trkpt>
      <trkpt lat="44.42879" lon="5.13448">
        <ele>1138.82</ele>
        <time>2023-02-19T12:53:46Z</time>
      </trkpt>
      <trkpt lat="44.42881" lon="5.13447">
        <ele>1138.34</ele>
        <time>2023-02-19T12:53:47Z</time>
      </trkpt>
      <trkpt lat="44.42884" lon="5.13444">
        <ele>1137.38</ele>
        <time>2023-02-19T12:53:50Z</time>
      </trkpt>
      <trkpt lat="44.42885" lon="5.13443">
        <ele>1137.38</ele>
        <time>2023-02-19T12:53:51Z</time>
      </trkpt>
      <trkpt lat="44.42888" lon="5.13439">
        <ele>1135.94</ele>
        <time>2023-02-19T12:53:54Z</time>
      </trkpt>
      <trkpt lat="44.4289" lon="5.13438">
        <ele>1134.97</ele>
        <time>2023-02-19T12:53:56Z</time>
      </trkpt>
      <trkpt lat="44.42896" lon="5.13435">
        <ele>1133.53</ele>
        <time>2023-02-19T12:54:00Z</time>
      </trkpt>
      <trkpt lat="44.42907" lon="5.13428">
        <ele>1131.61</ele>
        <time>2023-02-19T12:54:10Z</time>
      </trkpt>
      <trkpt lat="44.42914" lon="5.13417">
        <ele>1128.24</ele>
        <time>2023-02-19T12:54:19Z</time>
      </trkpt>
      <trkpt lat="44.42914" lon="5.13413">
        <ele>1128.24</ele>
        <time>2023-02-19T12:54:22Z</time>
      </trkpt>
      <trkpt lat="44.42923" lon="5.13398">
        <ele>1124.4</ele>
        <time>2023-02-19T12:54:34Z</time>
      </trkpt>
      <trkpt lat="44.42925" lon="5.13395">
        <ele>1123.92</ele>
        <time>2023-02-19T12:54:36Z</time>
      </trkpt>
      <trkpt lat="44.4293" lon="5.13388">
        <ele>1122</ele>
        <time>2023-02-19T12:54:42Z</time>
      </trkpt>
      <trkpt lat="44.42931" lon="5.13387">
        <ele>1123.44</ele>
        <time>2023-02-19T12:54:43Z</time>
      </trkpt>
      <trkpt lat="44.42933" lon="5.13384">
        <ele>1120.55</ele>
        <time>2023-02-19T12:54:45Z</time>
      </trkpt>
      <trkpt lat="44.42933" lon="5.13381">
        <ele>1120.07</ele>
        <time>2023-02-19T12:54:47Z</time>
      </trkpt>
      <trkpt lat="44.4294" lon="5.13365">
        <ele>1119.11</ele>
        <time>2023-02-19T12:55:00Z</time>
      </trkpt>
      <trkpt lat="44.42942" lon="5.13363">
        <ele>1115.75</ele>
        <time>2023-02-19T12:55:02Z</time>
      </trkpt>
      <trkpt lat="44.42943" lon="5.13361">
        <ele>1115.27</ele>
        <time>2023-02-19T12:55:04Z</time>
      </trkpt>
      <trkpt lat="44.42945" lon="5.13357">
        <ele>1113.34</ele>
        <time>2023-02-19T12:55:07Z</time>
      </trkpt>
      <trkpt lat="44.42948" lon="5.1335">
        <ele>1110.94</ele>
        <time>2023-02-19T12:55:12Z</time>
      </trkpt>
      <trkpt lat="44.42949" lon="5.13349">
        <ele>1110.94</ele>
        <time>2023-02-19T12:55:13Z</time>
      </trkpt>
      <trkpt lat="44.42949" lon="5.1334">
        <ele>1108.54</ele>
        <time>2023-02-19T12:55:19Z</time>
      </trkpt>
      <trkpt lat="44.42952" lon="5.13334">
        <ele>1106.61</ele>
        <time>2023-02-19T12:55:24Z</time>
      </trkpt>
      <trkpt lat="44.42954" lon="5.13323">
        <ele>1103.25</ele>
        <time>2023-02-19T12:55:31Z</time>
      </trkpt>
      <trkpt lat="44.42954" lon="5.1332">
        <ele>1102.77</ele>
        <time>2023-02-19T12:55:33Z</time>
      </trkpt>
      <trkpt lat="44.42957" lon="5.1331">
        <ele>1099.89</ele>
        <time>2023-02-19T12:55:40Z</time>
      </trkpt>
      <trkpt lat="44.42959" lon="5.13296">
        <ele>1096.52</ele>
        <time>2023-02-19T12:55:49Z</time>
      </trkpt>
      <trkpt lat="44.42959" lon="5.1329">
        <ele>1096.04</ele>
        <time>2023-02-19T12:55:53Z</time>
      </trkpt>
      <trkpt lat="44.4296" lon="5.13276">
        <ele>1092.68</ele>
        <time>2023-02-19T12:56:02Z</time>
      </trkpt>
      <trkpt lat="44.42961" lon="5.13261">
        <ele>1090.27</ele>
        <time>2023-02-19T12:56:12Z</time>
      </trkpt>
      <trkpt lat="44.42963" lon="5.13248">
        <ele>1087.39</ele>
        <time>2023-02-19T12:56:20Z</time>
      </trkpt>
      <trkpt lat="44.42963" lon="5.13244">
        <ele>1085.47</ele>
        <time>2023-02-19T12:56:23Z</time>
      </trkpt>
      <trkpt lat="44.42965" lon="5.13226">
        <ele>1081.62</ele>
        <time>2023-02-19T12:56:34Z</time>
      </trkpt>
      <trkpt lat="44.42965" lon="5.13215">
        <ele>1080.18</ele>
        <time>2023-02-19T12:56:41Z</time>
      </trkpt>
      <trkpt lat="44.42964" lon="5.13202">
        <ele>1076.33</ele>
        <time>2023-02-19T12:56:50Z</time>
      </trkpt>
      <trkpt lat="44.42964" lon="5.13189">
        <ele>1073.45</ele>
        <time>2023-02-19T12:56:59Z</time>
      </trkpt>
      <trkpt lat="44.4296" lon="5.13181">
        <ele>1074.41</ele>
        <time>2023-02-19T12:57:06Z</time>
      </trkpt>
      <trkpt lat="44.4296" lon="5.1318">
        <ele>1072.49</ele>
        <time>2023-02-19T12:57:07Z</time>
      </trkpt>
      <trkpt lat="44.4296" lon="5.13174">
        <ele>1069.6</ele>
        <time>2023-02-19T12:57:12Z</time>
      </trkpt>
      <trkpt lat="44.42958" lon="5.13162">
        <ele>1066.72</ele>
        <time>2023-02-19T12:57:22Z</time>
      </trkpt>
      <trkpt lat="44.42958" lon="5.13161">
        <ele>1066.72</ele>
        <time>2023-02-19T12:57:23Z</time>
      </trkpt>
      <trkpt lat="44.42956" lon="5.13151">
        <ele>1063.84</ele>
        <time>2023-02-19T12:57:35Z</time>
      </trkpt>
      <trkpt lat="44.42954" lon="5.13142">
        <ele>1060.47</ele>
        <time>2023-02-19T12:57:41Z</time>
      </trkpt>
      <trkpt lat="44.42953" lon="5.13141">
        <ele>1060.47</ele>
        <time>2023-02-19T12:57:42Z</time>
      </trkpt>
      <trkpt lat="44.4295" lon="5.13131">
        <ele>1058.07</ele>
        <time>2023-02-19T12:57:50Z</time>
      </trkpt>
      <trkpt lat="44.42945" lon="5.13117">
        <ele>1053.74</ele>
        <time>2023-02-19T12:58:01Z</time>
      </trkpt>
      <trkpt lat="44.42942" lon="5.13106">
        <ele>1050.86</ele>
        <time>2023-02-19T12:58:10Z</time>
      </trkpt>
      <trkpt lat="44.42942" lon="5.13105">
        <ele>1050.86</ele>
        <time>2023-02-19T12:58:11Z</time>
      </trkpt>
      <trkpt lat="44.42936" lon="5.13089">
        <ele>1047.01</ele>
        <time>2023-02-19T12:58:23Z</time>
      </trkpt>
      <trkpt lat="44.42933" lon="5.13076">
        <ele>1043.65</ele>
        <time>2023-02-19T12:58:32Z</time>
      </trkpt>
      <trkpt lat="44.42932" lon="5.13073">
        <ele>1043.17</ele>
        <time>2023-02-19T12:58:34Z</time>
      </trkpt>
      <trkpt lat="44.42927" lon="5.13058">
        <ele>1038.84</ele>
        <time>2023-02-19T12:58:46Z</time>
      </trkpt>
      <trkpt lat="44.42925" lon="5.13056">
        <ele>1037.88</ele>
        <time>2023-02-19T12:58:48Z</time>
      </trkpt>
      <trkpt lat="44.42918" lon="5.1305">
        <ele>1035.96</ele>
        <time>2023-02-19T12:58:56Z</time>
      </trkpt>
      <trkpt lat="44.42915" lon="5.13044">
        <ele>1035.48</ele>
        <time>2023-02-19T12:59:01Z</time>
      </trkpt>
      <trkpt lat="44.42913" lon="5.13037">
        <ele>1033.55</ele>
        <time>2023-02-19T12:59:06Z</time>
      </trkpt>
      <trkpt lat="44.42904" lon="5.13027">
        <ele>1029.71</ele>
        <time>2023-02-19T12:59:18Z</time>
      </trkpt>
      <trkpt lat="44.42898" lon="5.13013">
        <ele>1027.79</ele>
        <time>2023-02-19T12:59:29Z</time>
      </trkpt>
      <trkpt lat="44.42891" lon="5.12993">
        <ele>1025.86</ele>
        <time>2023-02-19T12:59:43Z</time>
      </trkpt>
      <trkpt lat="44.42883" lon="5.1297">
        <ele>1023.94</ele>
        <time>2023-02-19T12:59:58Z</time>
      </trkpt>
      <trkpt lat="44.42882" lon="5.12965">
        <ele>1023.94</ele>
        <time>2023-02-19T13:00:02Z</time>
      </trkpt>
      <trkpt lat="44.42883" lon="5.12956">
        <ele>1022.02</ele>
        <time>2023-02-19T13:00:13Z</time>
      </trkpt>
      <trkpt lat="44.42884" lon="5.12955">
        <ele>1022.98</ele>
        <time>2023-02-19T13:00:20Z</time>
      </trkpt>
      <trkpt lat="44.42886" lon="5.12957">
        <ele>1022.02</ele>
        <time>2023-02-19T13:04:35Z</time>
      </trkpt>
      <trkpt lat="44.4289" lon="5.12958">
        <ele>1020.58</ele>
        <time>2023-02-19T13:04:39Z</time>
      </trkpt>
      <trkpt lat="44.42891" lon="5.12958">
        <ele>1020.58</ele>
        <time>2023-02-19T13:04:41Z</time>
      </trkpt>
      <trkpt lat="44.42912" lon="5.12953">
        <ele>1019.62</ele>
        <time>2023-02-19T13:04:59Z</time>
      </trkpt>
      <trkpt lat="44.42928" lon="5.1296">
        <ele>1021.06</ele>
        <time>2023-02-19T13:05:13Z</time>
      </trkpt>
      <trkpt lat="44.42935" lon="5.12969">
        <ele>1021.54</ele>
        <time>2023-02-19T13:05:23Z</time>
      </trkpt>
      <trkpt lat="44.42941" lon="5.12975">
        <ele>1020.1</ele>
        <time>2023-02-19T13:05:29Z</time>
      </trkpt>
      <trkpt lat="44.42944" lon="5.12977">
        <ele>1019.13</ele>
        <time>2023-02-19T13:05:33Z</time>
      </trkpt>
      <trkpt lat="44.42971" lon="5.12977">
        <ele>1016.25</ele>
        <time>2023-02-19T13:05:50Z</time>
      </trkpt>
      <trkpt lat="44.42991" lon="5.12981">
        <ele>1017.69</ele>
        <time>2023-02-19T13:06:05Z</time>
      </trkpt>
      <trkpt lat="44.42998" lon="5.12981">
        <ele>1019.13</ele>
        <time>2023-02-19T13:06:10Z</time>
      </trkpt>
      <trkpt lat="44.42999" lon="5.12982">
        <ele>1017.69</ele>
        <time>2023-02-19T13:06:13Z</time>
      </trkpt>
      <trkpt lat="44.43001" lon="5.12981">
        <ele>1016.73</ele>
        <time>2023-02-19T13:06:32Z</time>
      </trkpt>
      <trkpt lat="44.43008" lon="5.12975">
        <ele>1014.81</ele>
        <time>2023-02-19T13:06:47Z</time>
      </trkpt>
      <trkpt lat="44.43021" lon="5.12975">
        <ele>1013.85</ele>
        <time>2023-02-19T13:07:00Z</time>
      </trkpt>
      <trkpt lat="44.4303" lon="5.12974">
        <ele>1011.44</ele>
        <time>2023-02-19T13:07:09Z</time>
      </trkpt>
      <trkpt lat="44.43035" lon="5.12976">
        <ele>1011.44</ele>
        <time>2023-02-19T13:07:14Z</time>
      </trkpt>
      <trkpt lat="44.43042" lon="5.12977">
        <ele>1009.52</ele>
        <time>2023-02-19T13:07:19Z</time>
      </trkpt>
      <trkpt lat="44.43046" lon="5.12978">
        <ele>1009.04</ele>
        <time>2023-02-19T13:07:22Z</time>
      </trkpt>
      <trkpt lat="44.43055" lon="5.12984">
        <ele>1006.64</ele>
        <time>2023-02-19T13:07:35Z</time>
      </trkpt>
      <trkpt lat="44.43063" lon="5.12985">
        <ele>1004.23</ele>
        <time>2023-02-19T13:07:43Z</time>
      </trkpt>
      <trkpt lat="44.43066" lon="5.12986">
        <ele>1003.27</ele>
        <time>2023-02-19T13:07:45Z</time>
      </trkpt>
      <trkpt lat="44.4307" lon="5.12988">
        <ele>1001.35</ele>
        <time>2023-02-19T13:07:51Z</time>
      </trkpt>
      <trkpt lat="44.43071" lon="5.12986">
        <ele>1002.79</ele>
        <time>2023-02-19T13:07:53Z</time>
      </trkpt>
      <trkpt lat="44.43073" lon="5.12987">
        <ele>1000.39</ele>
        <time>2023-02-19T13:07:57Z</time>
      </trkpt>
      <trkpt lat="44.43074" lon="5.12987">
        <ele>1001.83</ele>
        <time>2023-02-19T13:08:02Z</time>
      </trkpt>
      <trkpt lat="44.43076" lon="5.12985">
        <ele>1001.83</ele>
        <time>2023-02-19T13:08:21Z</time>
      </trkpt>
      <trkpt lat="44.4308" lon="5.12987">
        <ele>1003.27</ele>
        <time>2023-02-19T13:08:46Z</time>
      </trkpt>
      <trkpt lat="44.43096" lon="5.12992">
        <ele>1000.39</ele>
        <time>2023-02-19T13:09:00Z</time>
      </trkpt>
      <trkpt lat="44.43111" lon="5.12998">
        <ele>997.02</ele>
        <time>2023-02-19T13:09:13Z</time>
      </trkpt>
      <trkpt lat="44.43119" lon="5.13001">
        <ele>996.54</ele>
        <time>2023-02-19T13:09:20Z</time>
      </trkpt>
      <trkpt lat="44.43142" lon="5.13">
        <ele>994.14</ele>
        <time>2023-02-19T13:09:37Z</time>
      </trkpt>
      <trkpt lat="44.43153" lon="5.12994">
        <ele>992.22</ele>
        <time>2023-02-19T13:09:44Z</time>
      </trkpt>
      <trkpt lat="44.4318" lon="5.12978">
        <ele>990.78</ele>
        <time>2023-02-19T13:10:04Z</time>
      </trkpt>
      <trkpt lat="44.43189" lon="5.12972">
        <ele>992.22</ele>
        <time>2023-02-19T13:10:12Z</time>
      </trkpt>
      <trkpt lat="44.43198" lon="5.12964">
        <ele>993.66</ele>
        <time>2023-02-19T13:10:27Z</time>
      </trkpt>
      <trkpt lat="44.432" lon="5.12964">
        <ele>994.14</ele>
        <time>2023-02-19T13:10:32Z</time>
      </trkpt>
      <trkpt lat="44.43203" lon="5.12965">
        <ele>992.7</ele>
        <time>2023-02-19T13:10:36Z</time>
      </trkpt>
      <trkpt lat="44.43208" lon="5.12967">
        <ele>994.62</ele>
        <time>2023-02-19T13:10:41Z</time>
      </trkpt>
      <trkpt lat="44.43225" lon="5.12972">
        <ele>996.06</ele>
        <time>2023-02-19T13:10:57Z</time>
      </trkpt>
      <trkpt lat="44.43236" lon="5.12974">
        <ele>997.99</ele>
        <time>2023-02-19T13:11:10Z</time>
      </trkpt>
      <trkpt lat="44.43249" lon="5.12975">
        <ele>998.95</ele>
        <time>2023-02-19T13:11:23Z</time>
      </trkpt>
      <trkpt lat="44.4326" lon="5.12974">
        <ele>1000.87</ele>
        <time>2023-02-19T13:11:35Z</time>
      </trkpt>
      <trkpt lat="44.4327" lon="5.12979">
        <ele>1003.75</ele>
        <time>2023-02-19T13:11:48Z</time>
      </trkpt>
      <trkpt lat="44.4327" lon="5.1298">
        <ele>1002.79</ele>
        <time>2023-02-19T13:11:50Z</time>
      </trkpt>
      <trkpt lat="44.43272" lon="5.12983">
        <ele>1001.83</ele>
        <time>2023-02-19T13:12:04Z</time>
      </trkpt>
      <trkpt lat="44.43272" lon="5.12988">
        <ele>1000.39</ele>
        <time>2023-02-19T13:12:18Z</time>
      </trkpt>
      <trkpt lat="44.43273" lon="5.12993">
        <ele>999.91</ele>
        <time>2023-02-19T13:12:50Z</time>
      </trkpt>
      <trkpt lat="44.43275" lon="5.13">
        <ele>997.51</ele>
        <time>2023-02-19T13:12:55Z</time>
      </trkpt>
      <trkpt lat="44.43275" lon="5.13012">
        <ele>994.62</ele>
        <time>2023-02-19T13:13:08Z</time>
      </trkpt>
      <trkpt lat="44.43276" lon="5.13021">
        <ele>992.7</ele>
        <time>2023-02-19T13:13:23Z</time>
      </trkpt>
      <trkpt lat="44.43281" lon="5.13035">
        <ele>990.78</ele>
        <time>2023-02-19T13:13:37Z</time>
      </trkpt>
      <trkpt lat="44.43283" lon="5.13042">
        <ele>989.33</ele>
        <time>2023-02-19T13:13:44Z</time>
      </trkpt>
      <trkpt lat="44.43287" lon="5.13047">
        <ele>988.85</ele>
        <time>2023-02-19T13:13:49Z</time>
      </trkpt>
      <trkpt lat="44.43294" lon="5.13061">
        <ele>984.53</ele>
        <time>2023-02-19T13:14:00Z</time>
      </trkpt>
      <trkpt lat="44.43294" lon="5.13062">
        <ele>984.53</ele>
        <time>2023-02-19T13:14:01Z</time>
      </trkpt>
      <trkpt lat="44.43293" lon="5.13067">
        <ele>982.6</ele>
        <time>2023-02-19T13:14:05Z</time>
      </trkpt>
      <trkpt lat="44.43292" lon="5.13083">
        <ele>979.72</ele>
        <time>2023-02-19T13:14:17Z</time>
      </trkpt>
      <trkpt lat="44.43288" lon="5.13086">
        <ele>979.24</ele>
        <time>2023-02-19T13:14:21Z</time>
      </trkpt>
      <trkpt lat="44.43289" lon="5.13091">
        <ele>978.76</ele>
        <time>2023-02-19T13:14:24Z</time>
      </trkpt>
      <trkpt lat="44.43291" lon="5.13108">
        <ele>977.32</ele>
        <time>2023-02-19T13:14:36Z</time>
      </trkpt>
      <trkpt lat="44.43293" lon="5.13115">
        <ele>975.88</ele>
        <time>2023-02-19T13:14:41Z</time>
      </trkpt>
      <trkpt lat="44.43294" lon="5.13118">
        <ele>975.39</ele>
        <time>2023-02-19T13:14:43Z</time>
      </trkpt>
      <trkpt lat="44.43295" lon="5.13125">
        <ele>975.39</ele>
        <time>2023-02-19T13:14:47Z</time>
      </trkpt>
      <trkpt lat="44.43293" lon="5.13129">
        <ele>972.99</ele>
        <time>2023-02-19T13:14:51Z</time>
      </trkpt>
      <trkpt lat="44.43292" lon="5.13139">
        <ele>972.51</ele>
        <time>2023-02-19T13:14:57Z</time>
      </trkpt>
      <trkpt lat="44.43293" lon="5.13143">
        <ele>972.51</ele>
        <time>2023-02-19T13:14:59Z</time>
      </trkpt>
      <trkpt lat="44.43302" lon="5.13164">
        <ele>972.03</ele>
        <time>2023-02-19T13:15:14Z</time>
      </trkpt>
      <trkpt lat="44.43302" lon="5.13169">
        <ele>971.55</ele>
        <time>2023-02-19T13:15:17Z</time>
      </trkpt>
      <trkpt lat="44.43311" lon="5.13192">
        <ele>969.63</ele>
        <time>2023-02-19T13:15:32Z</time>
      </trkpt>
      <trkpt lat="44.43316" lon="5.13207">
        <ele>968.18</ele>
        <time>2023-02-19T13:15:44Z</time>
      </trkpt>
      <trkpt lat="44.43318" lon="5.13215">
        <ele>968.18</ele>
        <time>2023-02-19T13:15:49Z</time>
      </trkpt>
      <trkpt lat="44.43326" lon="5.13236">
        <ele>966.74</ele>
        <time>2023-02-19T13:16:03Z</time>
      </trkpt>
      <trkpt lat="44.43328" lon="5.13239">
        <ele>966.74</ele>
        <time>2023-02-19T13:16:05Z</time>
      </trkpt>
      <trkpt lat="44.4333" lon="5.13243">
        <ele>966.74</ele>
        <time>2023-02-19T13:16:08Z</time>
      </trkpt>
      <trkpt lat="44.43335" lon="5.13248">
        <ele>966.74</ele>
        <time>2023-02-19T13:16:13Z</time>
      </trkpt>
      <trkpt lat="44.43336" lon="5.13252">
        <ele>966.74</ele>
        <time>2023-02-19T13:16:16Z</time>
      </trkpt>
      <trkpt lat="44.43343" lon="5.13262">
        <ele>966.74</ele>
        <time>2023-02-19T13:16:25Z</time>
      </trkpt>
      <trkpt lat="44.43352" lon="5.13279">
        <ele>965.78</ele>
        <time>2023-02-19T13:16:39Z</time>
      </trkpt>
      <trkpt lat="44.43353" lon="5.13281">
        <ele>965.78</ele>
        <time>2023-02-19T13:16:40Z</time>
      </trkpt>
      <trkpt lat="44.4336" lon="5.13296">
        <ele>964.34</ele>
        <time>2023-02-19T13:16:49Z</time>
      </trkpt>
      <trkpt lat="44.43367" lon="5.13309">
        <ele>963.38</ele>
        <time>2023-02-19T13:16:58Z</time>
      </trkpt>
      <trkpt lat="44.43377" lon="5.13329">
        <ele>962.9</ele>
        <time>2023-02-19T13:17:13Z</time>
      </trkpt>
      <trkpt lat="44.43377" lon="5.13331">
        <ele>962.9</ele>
        <time>2023-02-19T13:17:14Z</time>
      </trkpt>
      <trkpt lat="44.43391" lon="5.13349">
        <ele>961.94</ele>
        <time>2023-02-19T13:17:30Z</time>
      </trkpt>
      <trkpt lat="44.43406" lon="5.13367">
        <ele>961.94</ele>
        <time>2023-02-19T13:17:44Z</time>
      </trkpt>
      <trkpt lat="44.43415" lon="5.13379">
        <ele>961.94</ele>
        <time>2023-02-19T13:17:54Z</time>
      </trkpt>
      <trkpt lat="44.43417" lon="5.13385">
        <ele>963.38</ele>
        <time>2023-02-19T13:17:58Z</time>
      </trkpt>
      <trkpt lat="44.43433" lon="5.13408">
        <ele>962.9</ele>
        <time>2023-02-19T13:18:15Z</time>
      </trkpt>
      <trkpt lat="44.43437" lon="5.13414">
        <ele>961.46</ele>
        <time>2023-02-19T13:18:19Z</time>
      </trkpt>
      <trkpt lat="44.43452" lon="5.13432">
        <ele>960.01</ele>
        <time>2023-02-19T13:18:35Z</time>
      </trkpt>
      <trkpt lat="44.43457" lon="5.13438">
        <ele>959.53</ele>
        <time>2023-02-19T13:18:40Z</time>
      </trkpt>
      <trkpt lat="44.43464" lon="5.13444">
        <ele>957.61</ele>
        <time>2023-02-19T13:18:47Z</time>
      </trkpt>
      <trkpt lat="44.43475" lon="5.13463">
        <ele>955.21</ele>
        <time>2023-02-19T13:19:03Z</time>
      </trkpt>
      <trkpt lat="44.43493" lon="5.13481">
        <ele>954.25</ele>
        <time>2023-02-19T13:19:19Z</time>
      </trkpt>
      <trkpt lat="44.43503" lon="5.13482">
        <ele>952.32</ele>
        <time>2023-02-19T13:19:28Z</time>
      </trkpt>
      <trkpt lat="44.43521" lon="5.13489">
        <ele>949.44</ele>
        <time>2023-02-19T13:19:43Z</time>
      </trkpt>
      <trkpt lat="44.43542" lon="5.13496">
        <ele>947.04</ele>
        <time>2023-02-19T13:19:59Z</time>
      </trkpt>
      <trkpt lat="44.43548" lon="5.135">
        <ele>946.56</ele>
        <time>2023-02-19T13:20:04Z</time>
      </trkpt>
      <trkpt lat="44.43568" lon="5.13509">
        <ele>945.11</ele>
        <time>2023-02-19T13:20:20Z</time>
      </trkpt>
      <trkpt lat="44.43588" lon="5.13509">
        <ele>943.67</ele>
        <time>2023-02-19T13:20:36Z</time>
      </trkpt>
      <trkpt lat="44.43608" lon="5.13516">
        <ele>941.27</ele>
        <time>2023-02-19T13:20:53Z</time>
      </trkpt>
      <trkpt lat="44.43636" lon="5.13515">
        <ele>940.31</ele>
        <time>2023-02-19T13:21:14Z</time>
      </trkpt>
      <trkpt lat="44.43659" lon="5.1352">
        <ele>941.27</ele>
        <time>2023-02-19T13:21:33Z</time>
      </trkpt>
      <trkpt lat="44.43668" lon="5.13521">
        <ele>940.31</ele>
        <time>2023-02-19T13:21:40Z</time>
      </trkpt>
      <trkpt lat="44.43684" lon="5.13527">
        <ele>940.31</ele>
        <time>2023-02-19T13:21:54Z</time>
      </trkpt>
      <trkpt lat="44.43705" lon="5.13536">
        <ele>940.31</ele>
        <time>2023-02-19T13:22:10Z</time>
      </trkpt>
      <trkpt lat="44.43724" lon="5.13543">
        <ele>941.27</ele>
        <time>2023-02-19T13:22:25Z</time>
      </trkpt>
      <trkpt lat="44.4374" lon="5.13553">
        <ele>940.31</ele>
        <time>2023-02-19T13:22:40Z</time>
      </trkpt>
      <trkpt lat="44.4375" lon="5.13566">
        <ele>939.83</ele>
        <time>2023-02-19T13:22:55Z</time>
      </trkpt>
      <trkpt lat="44.43751" lon="5.13569">
        <ele>939.35</ele>
        <time>2023-02-19T13:22:59Z</time>
      </trkpt>
      <trkpt lat="44.43751" lon="5.13573">
        <ele>937.9</ele>
        <time>2023-02-19T13:23:02Z</time>
      </trkpt>
      <trkpt lat="44.43752" lon="5.1358">
        <ele>937.42</ele>
        <time>2023-02-19T13:23:07Z</time>
      </trkpt>
      <trkpt lat="44.43756" lon="5.13587">
        <ele>936.46</ele>
        <time>2023-02-19T13:23:12Z</time>
      </trkpt>
      <trkpt lat="44.43763" lon="5.13591">
        <ele>936.46</ele>
        <time>2023-02-19T13:23:18Z</time>
      </trkpt>
      <trkpt lat="44.43771" lon="5.13591">
        <ele>934.54</ele>
        <time>2023-02-19T13:23:30Z</time>
      </trkpt>
      <trkpt lat="44.43775" lon="5.13591">
        <ele>933.58</ele>
        <time>2023-02-19T13:23:34Z</time>
      </trkpt>
      <trkpt lat="44.43783" lon="5.13585">
        <ele>930.21</ele>
        <time>2023-02-19T13:23:44Z</time>
      </trkpt>
      <trkpt lat="44.43785" lon="5.13583">
        <ele>930.21</ele>
        <time>2023-02-19T13:23:46Z</time>
      </trkpt>
      <trkpt lat="44.43807" lon="5.13573">
        <ele>926.85</ele>
        <time>2023-02-19T13:24:04Z</time>
      </trkpt>
      <trkpt lat="44.43828" lon="5.13567">
        <ele>924.45</ele>
        <time>2023-02-19T13:24:21Z</time>
      </trkpt>
      <trkpt lat="44.43841" lon="5.13558">
        <ele>921.56</ele>
        <time>2023-02-19T13:24:35Z</time>
      </trkpt>
      <trkpt lat="44.43859" lon="5.13557">
        <ele>918.2</ele>
        <time>2023-02-19T13:24:50Z</time>
      </trkpt>
      <trkpt lat="44.43865" lon="5.13555">
        <ele>916.27</ele>
        <time>2023-02-19T13:24:56Z</time>
      </trkpt>
      <trkpt lat="44.43882" lon="5.13552">
        <ele>913.39</ele>
        <time>2023-02-19T13:25:12Z</time>
      </trkpt>
      <trkpt lat="44.43887" lon="5.13552">
        <ele>912.43</ele>
        <time>2023-02-19T13:25:16Z</time>
      </trkpt>
      <trkpt lat="44.43906" lon="5.13547">
        <ele>908.58</ele>
        <time>2023-02-19T13:25:33Z</time>
      </trkpt>
      <trkpt lat="44.43922" lon="5.13544">
        <ele>906.66</ele>
        <time>2023-02-19T13:25:50Z</time>
      </trkpt>
      <trkpt lat="44.43922" lon="5.13548">
        <ele>908.1</ele>
        <time>2023-02-19T13:28:11Z</time>
      </trkpt>
      <trkpt lat="44.43924" lon="5.13555">
        <ele>908.1</ele>
        <time>2023-02-19T13:28:22Z</time>
      </trkpt>
      <trkpt lat="44.43933" lon="5.13566">
        <ele>909.06</ele>
        <time>2023-02-19T13:28:35Z</time>
      </trkpt>
      <trkpt lat="44.43942" lon="5.13572">
        <ele>909.54</ele>
        <time>2023-02-19T13:28:43Z</time>
      </trkpt>
      <trkpt lat="44.43946" lon="5.13578">
        <ele>909.54</ele>
        <time>2023-02-19T13:28:49Z</time>
      </trkpt>
      <trkpt lat="44.4396" lon="5.13589">
        <ele>911.95</ele>
        <time>2023-02-19T13:29:04Z</time>
      </trkpt>
      <trkpt lat="44.43962" lon="5.13593">
        <ele>911.47</ele>
        <time>2023-02-19T13:29:07Z</time>
      </trkpt>
      <trkpt lat="44.43974" lon="5.1361">
        <ele>911.95</ele>
        <time>2023-02-19T13:29:22Z</time>
      </trkpt>
      <trkpt lat="44.43981" lon="5.13619">
        <ele>913.39</ele>
        <time>2023-02-19T13:29:30Z</time>
      </trkpt>
      <trkpt lat="44.43985" lon="5.13619">
        <ele>912.91</ele>
        <time>2023-02-19T13:29:33Z</time>
      </trkpt>
      <trkpt lat="44.44002" lon="5.13634">
        <ele>914.35</ele>
        <time>2023-02-19T13:29:50Z</time>
      </trkpt>
      <trkpt lat="44.44015" lon="5.13648">
        <ele>914.35</ele>
        <time>2023-02-19T13:30:04Z</time>
      </trkpt>
      <trkpt lat="44.44035" lon="5.13663">
        <ele>914.35</ele>
        <time>2023-02-19T13:30:22Z</time>
      </trkpt>
      <trkpt lat="44.44037" lon="5.13665">
        <ele>914.35</ele>
        <time>2023-02-19T13:30:24Z</time>
      </trkpt>
      <trkpt lat="44.44042" lon="5.13666">
        <ele>914.35</ele>
        <time>2023-02-19T13:30:28Z</time>
      </trkpt>
      <trkpt lat="44.44061" lon="5.13679">
        <ele>912.91</ele>
        <time>2023-02-19T13:30:45Z</time>
      </trkpt>
      <trkpt lat="44.4407" lon="5.13684">
        <ele>911.47</ele>
        <time>2023-02-19T13:30:54Z</time>
      </trkpt>
      <trkpt lat="44.44089" lon="5.13688">
        <ele>910.03</ele>
        <time>2023-02-19T13:31:09Z</time>
      </trkpt>
      <trkpt lat="44.44094" lon="5.13687">
        <ele>909.54</ele>
        <time>2023-02-19T13:31:13Z</time>
      </trkpt>
      <trkpt lat="44.44117" lon="5.13691">
        <ele>906.18</ele>
        <time>2023-02-19T13:31:31Z</time>
      </trkpt>
      <trkpt lat="44.44122" lon="5.13695">
        <ele>905.7</ele>
        <time>2023-02-19T13:31:35Z</time>
      </trkpt>
      <trkpt lat="44.44139" lon="5.13697">
        <ele>903.3</ele>
        <time>2023-02-19T13:31:49Z</time>
      </trkpt>
      <trkpt lat="44.44155" lon="5.1371">
        <ele>902.33</ele>
        <time>2023-02-19T13:32:05Z</time>
      </trkpt>
      <trkpt lat="44.44158" lon="5.13712">
        <ele>901.85</ele>
        <time>2023-02-19T13:32:09Z</time>
      </trkpt>
      <trkpt lat="44.4416" lon="5.13712">
        <ele>901.85</ele>
        <time>2023-02-19T13:32:11Z</time>
      </trkpt>
      <trkpt lat="44.44171" lon="5.13721">
        <ele>898.97</ele>
        <time>2023-02-19T13:32:23Z</time>
      </trkpt>
      <trkpt lat="44.44177" lon="5.13727">
        <ele>897.05</ele>
        <time>2023-02-19T13:32:30Z</time>
      </trkpt>
      <trkpt lat="44.44188" lon="5.13732">
        <ele>893.68</ele>
        <time>2023-02-19T13:32:43Z</time>
      </trkpt>
      <trkpt lat="44.44195" lon="5.13738">
        <ele>889.84</ele>
        <time>2023-02-19T13:32:56Z</time>
      </trkpt>
      <trkpt lat="44.44199" lon="5.13741">
        <ele>888.4</ele>
        <time>2023-02-19T13:33:00Z</time>
      </trkpt>
      <trkpt lat="44.44205" lon="5.13747">
        <ele>886.95</ele>
        <time>2023-02-19T13:33:06Z</time>
      </trkpt>
      <trkpt lat="44.44218" lon="5.13759">
        <ele>884.55</ele>
        <time>2023-02-19T13:33:20Z</time>
      </trkpt>
      <trkpt lat="44.4422" lon="5.13759">
        <ele>884.07</ele>
        <time>2023-02-19T13:33:21Z</time>
      </trkpt>
      <trkpt lat="44.44241" lon="5.13766">
        <ele>882.15</ele>
        <time>2023-02-19T13:33:36Z</time>
      </trkpt>
      <trkpt lat="44.44252" lon="5.13772">
        <ele>882.15</ele>
        <time>2023-02-19T13:33:50Z</time>
      </trkpt>
      <trkpt lat="44.44264" lon="5.13781">
        <ele>882.15</ele>
        <time>2023-02-19T13:34:03Z</time>
      </trkpt>
      <trkpt lat="44.44281" lon="5.13786">
        <ele>883.59</ele>
        <time>2023-02-19T13:34:16Z</time>
      </trkpt>
      <trkpt lat="44.44293" lon="5.13794">
        <ele>884.07</ele>
        <time>2023-02-19T13:34:27Z</time>
      </trkpt>
      <trkpt lat="44.44307" lon="5.13799">
        <ele>882.63</ele>
        <time>2023-02-19T13:34:37Z</time>
      </trkpt>
      <trkpt lat="44.44325" lon="5.13805">
        <ele>880.71</ele>
        <time>2023-02-19T13:34:51Z</time>
      </trkpt>
      <trkpt lat="44.44349" lon="5.13811">
        <ele>878.3</ele>
        <time>2023-02-19T13:35:08Z</time>
      </trkpt>
      <trkpt lat="44.44367" lon="5.13818">
        <ele>874.94</ele>
        <time>2023-02-19T13:35:23Z</time>
      </trkpt>
      <trkpt lat="44.44377" lon="5.13821">
        <ele>872.05</ele>
        <time>2023-02-19T13:35:35Z</time>
      </trkpt>
      <trkpt lat="44.444" lon="5.13827">
        <ele>869.65</ele>
        <time>2023-02-19T13:35:52Z</time>
      </trkpt>
      <trkpt lat="44.44421" lon="5.13832">
        <ele>867.73</ele>
        <time>2023-02-19T13:36:09Z</time>
      </trkpt>
      <trkpt lat="44.44433" lon="5.13831">
        <ele>864.36</ele>
        <time>2023-02-19T13:36:20Z</time>
      </trkpt>
      <trkpt lat="44.44439" lon="5.13831">
        <ele>862.92</ele>
        <time>2023-02-19T13:36:26Z</time>
      </trkpt>
      <trkpt lat="44.44446" lon="5.13834">
        <ele>859.56</ele>
        <time>2023-02-19T13:36:35Z</time>
      </trkpt>
      <trkpt lat="44.44446" lon="5.13835">
        <ele>859.56</ele>
        <time>2023-02-19T13:36:36Z</time>
      </trkpt>
      <trkpt lat="44.44454" lon="5.13846">
        <ele>856.67</ele>
        <time>2023-02-19T13:36:50Z</time>
      </trkpt>
      <trkpt lat="44.44461" lon="5.13856">
        <ele>853.31</ele>
        <time>2023-02-19T13:37:02Z</time>
      </trkpt>
      <trkpt lat="44.44465" lon="5.1386">
        <ele>851.38</ele>
        <time>2023-02-19T13:37:08Z</time>
      </trkpt>
      <trkpt lat="44.44466" lon="5.13863">
        <ele>849.94</ele>
        <time>2023-02-19T13:37:11Z</time>
      </trkpt>
      <trkpt lat="44.44477" lon="5.13873">
        <ele>848.02</ele>
        <time>2023-02-19T13:37:25Z</time>
      </trkpt>
      <trkpt lat="44.44486" lon="5.13877">
        <ele>844.66</ele>
        <time>2023-02-19T13:37:35Z</time>
      </trkpt>
      <trkpt lat="44.4449" lon="5.13879">
        <ele>843.69</ele>
        <time>2023-02-19T13:37:38Z</time>
      </trkpt>
      <trkpt lat="44.44509" lon="5.13885">
        <ele>841.29</ele>
        <time>2023-02-19T13:37:54Z</time>
      </trkpt>
      <trkpt lat="44.44527" lon="5.13885">
        <ele>841.29</ele>
        <time>2023-02-19T13:38:09Z</time>
      </trkpt>
      <trkpt lat="44.44537" lon="5.13888">
        <ele>842.73</ele>
        <time>2023-02-19T13:38:19Z</time>
      </trkpt>
      <trkpt lat="44.44549" lon="5.13891">
        <ele>845.14</ele>
        <time>2023-02-19T13:38:33Z</time>
      </trkpt>
      <trkpt lat="44.44565" lon="5.13888">
        <ele>847.54</ele>
        <time>2023-02-19T13:38:50Z</time>
      </trkpt>
      <trkpt lat="44.4458" lon="5.13895">
        <ele>848.02</ele>
        <time>2023-02-19T13:39:04Z</time>
      </trkpt>
      <trkpt lat="44.44582" lon="5.13897">
        <ele>848.02</ele>
        <time>2023-02-19T13:39:07Z</time>
      </trkpt>
      <trkpt lat="44.44591" lon="5.13898">
        <ele>848.02</ele>
        <time>2023-02-19T13:39:16Z</time>
      </trkpt>
      <trkpt lat="44.44606" lon="5.13911">
        <ele>845.14</ele>
        <time>2023-02-19T13:39:32Z</time>
      </trkpt>
      <trkpt lat="44.44618" lon="5.13924">
        <ele>841.77</ele>
        <time>2023-02-19T13:39:47Z</time>
      </trkpt>
      <trkpt lat="44.44627" lon="5.13941">
        <ele>838.41</ele>
        <time>2023-02-19T13:40:02Z</time>
      </trkpt>
      <trkpt lat="44.44632" lon="5.13959">
        <ele>835.04</ele>
        <time>2023-02-19T13:40:16Z</time>
      </trkpt>
      <trkpt lat="44.44634" lon="5.13963">
        <ele>835.04</ele>
        <time>2023-02-19T13:40:19Z</time>
      </trkpt>
      <trkpt lat="44.44638" lon="5.13974">
        <ele>833.12</ele>
        <time>2023-02-19T13:40:26Z</time>
      </trkpt>
      <trkpt lat="44.4464" lon="5.1398">
        <ele>833.12</ele>
        <time>2023-02-19T13:40:30Z</time>
      </trkpt>
      <trkpt lat="44.44641" lon="5.13984">
        <ele>832.64</ele>
        <time>2023-02-19T13:40:33Z</time>
      </trkpt>
      <trkpt lat="44.44646" lon="5.13997">
        <ele>829.76</ele>
        <time>2023-02-19T13:40:43Z</time>
      </trkpt>
      <trkpt lat="44.44646" lon="5.13997">
        <ele>829.76</ele>
        <time>2023-02-19T13:40:44Z</time>
      </trkpt>
      <trkpt lat="44.44647" lon="5.13999">
        <ele>828.31</ele>
        <time>2023-02-19T13:40:46Z</time>
      </trkpt>
      <trkpt lat="44.44655" lon="5.1402">
        <ele>824.95</ele>
        <time>2023-02-19T13:41:02Z</time>
      </trkpt>
      <trkpt lat="44.44661" lon="5.14038">
        <ele>821.58</ele>
        <time>2023-02-19T13:41:15Z</time>
      </trkpt>
      <trkpt lat="44.44663" lon="5.14046">
        <ele>820.14</ele>
        <time>2023-02-19T13:41:22Z</time>
      </trkpt>
      <trkpt lat="44.4467" lon="5.14059">
        <ele>816.3</ele>
        <time>2023-02-19T13:41:34Z</time>
      </trkpt>
      <trkpt lat="44.44678" lon="5.1407">
        <ele>812.93</ele>
        <time>2023-02-19T13:41:47Z</time>
      </trkpt>
      <trkpt lat="44.4468" lon="5.1407">
        <ele>811.49</ele>
        <time>2023-02-19T13:41:50Z</time>
      </trkpt>
      <trkpt lat="44.44686" lon="5.14065">
        <ele>807.64</ele>
        <time>2023-02-19T13:41:58Z</time>
      </trkpt>
      <trkpt lat="44.44692" lon="5.14062">
        <ele>806.2</ele>
        <time>2023-02-19T13:42:04Z</time>
      </trkpt>
      <trkpt lat="44.44704" lon="5.14056">
        <ele>805.72</ele>
        <time>2023-02-19T13:42:13Z</time>
      </trkpt>
      <trkpt lat="44.44717" lon="5.14053">
        <ele>803.8</ele>
        <time>2023-02-19T13:42:24Z</time>
      </trkpt>
      <trkpt lat="44.44731" lon="5.14053">
        <ele>801.4</ele>
        <time>2023-02-19T13:42:38Z</time>
      </trkpt>
      <trkpt lat="44.44738" lon="5.14052">
        <ele>799.47</ele>
        <time>2023-02-19T13:42:43Z</time>
      </trkpt>
      <trkpt lat="44.44752" lon="5.14059">
        <ele>796.11</ele>
        <time>2023-02-19T13:42:57Z</time>
      </trkpt>
      <trkpt lat="44.44763" lon="5.14068">
        <ele>794.67</ele>
        <time>2023-02-19T13:43:09Z</time>
      </trkpt>
      <trkpt lat="44.44775" lon="5.14069">
        <ele>792.74</ele>
        <time>2023-02-19T13:43:18Z</time>
      </trkpt>
      <trkpt lat="44.44788" lon="5.14069">
        <ele>791.3</ele>
        <time>2023-02-19T13:43:28Z</time>
      </trkpt>
      <trkpt lat="44.44806" lon="5.14069">
        <ele>788.9</ele>
        <time>2023-02-19T13:43:44Z</time>
      </trkpt>
      <trkpt lat="44.44811" lon="5.1407">
        <ele>785.05</ele>
        <time>2023-02-19T13:43:50Z</time>
      </trkpt>
      <trkpt lat="44.44811" lon="5.1407">
        <ele>785.05</ele>
        <time>2023-02-19T13:43:51Z</time>
      </trkpt>
      <trkpt lat="44.44816" lon="5.14069">
        <ele>782.65</ele>
        <time>2023-02-19T13:44:03Z</time>
      </trkpt>
      <trkpt lat="44.44821" lon="5.14065">
        <ele>779.29</ele>
        <time>2023-02-19T13:44:13Z</time>
      </trkpt>
      <trkpt lat="44.44828" lon="5.14062">
        <ele>775.92</ele>
        <time>2023-02-19T13:44:26Z</time>
      </trkpt>
      <trkpt lat="44.44842" lon="5.14058">
        <ele>774.48</ele>
        <time>2023-02-19T13:44:39Z</time>
      </trkpt>
      <trkpt lat="44.44848" lon="5.14057">
        <ele>774.48</ele>
        <time>2023-02-19T13:44:55Z</time>
      </trkpt>
      <trkpt lat="44.44852" lon="5.1406">
        <ele>773.52</ele>
        <time>2023-02-19T13:48:45Z</time>
      </trkpt>
      <trkpt lat="44.44857" lon="5.1406">
        <ele>772.56</ele>
        <time>2023-02-19T13:49:01Z</time>
      </trkpt>
      <trkpt lat="44.44866" lon="5.14058">
        <ele>769.19</ele>
        <time>2023-02-19T13:49:13Z</time>
      </trkpt>
      <trkpt lat="44.44872" lon="5.14056">
        <ele>766.79</ele>
        <time>2023-02-19T13:49:18Z</time>
      </trkpt>
      <trkpt lat="44.44878" lon="5.14051">
        <ele>764.87</ele>
        <time>2023-02-19T13:49:25Z</time>
      </trkpt>
      <trkpt lat="44.44878" lon="5.14045">
        <ele>763.9</ele>
        <time>2023-02-19T13:49:29Z</time>
      </trkpt>
      <trkpt lat="44.44876" lon="5.14025">
        <ele>760.54</ele>
        <time>2023-02-19T13:49:43Z</time>
      </trkpt>
      <trkpt lat="44.44873" lon="5.14014">
        <ele>757.18</ele>
        <time>2023-02-19T13:49:52Z</time>
      </trkpt>
      <trkpt lat="44.44875" lon="5.14002">
        <ele>754.77</ele>
        <time>2023-02-19T13:50:05Z</time>
      </trkpt>
      <trkpt lat="44.44872" lon="5.13985">
        <ele>750.93</ele>
        <time>2023-02-19T13:50:20Z</time>
      </trkpt>
      <trkpt lat="44.44874" lon="5.13971">
        <ele>747.56</ele>
        <time>2023-02-19T13:50:30Z</time>
      </trkpt>
      <trkpt lat="44.44877" lon="5.13951">
        <ele>744.2</ele>
        <time>2023-02-19T13:50:42Z</time>
      </trkpt>
      <trkpt lat="44.44882" lon="5.13947">
        <ele>743.24</ele>
        <time>2023-02-19T13:50:55Z</time>
      </trkpt>
      <trkpt lat="44.44889" lon="5.13948">
        <ele>741.79</ele>
        <time>2023-02-19T13:51:07Z</time>
      </trkpt>
      <trkpt lat="44.44898" lon="5.13939">
        <ele>740.83</ele>
        <time>2023-02-19T13:51:20Z</time>
      </trkpt>
      <trkpt lat="44.44899" lon="5.1393">
        <ele>739.87</ele>
        <time>2023-02-19T13:51:29Z</time>
      </trkpt>
      <trkpt lat="44.44902" lon="5.13899">
        <ele>738.43</ele>
        <time>2023-02-19T13:51:46Z</time>
      </trkpt>
      <trkpt lat="44.44906" lon="5.1387">
        <ele>737.47</ele>
        <time>2023-02-19T13:52:02Z</time>
      </trkpt>
      <trkpt lat="44.44907" lon="5.13866">
        <ele>737.47</ele>
        <time>2023-02-19T13:52:04Z</time>
      </trkpt>
      <trkpt lat="44.44911" lon="5.13841">
        <ele>735.07</ele>
        <time>2023-02-19T13:52:19Z</time>
      </trkpt>
      <trkpt lat="44.44916" lon="5.13818">
        <ele>733.62</ele>
        <time>2023-02-19T13:52:31Z</time>
      </trkpt>
      <trkpt lat="44.44917" lon="5.13813">
        <ele>733.62</ele>
        <time>2023-02-19T13:52:34Z</time>
      </trkpt>
      <trkpt lat="44.44919" lon="5.13791">
        <ele>732.18</ele>
        <time>2023-02-19T13:52:46Z</time>
      </trkpt>
      <trkpt lat="44.44916" lon="5.13776">
        <ele>730.26</ele>
        <time>2023-02-19T13:52:55Z</time>
      </trkpt>
      <trkpt lat="44.44907" lon="5.13763">
        <ele>726.89</ele>
        <time>2023-02-19T13:53:08Z</time>
      </trkpt>
      <trkpt lat="44.44906" lon="5.13759">
        <ele>725.93</ele>
        <time>2023-02-19T13:53:12Z</time>
      </trkpt>
      <trkpt lat="44.44911" lon="5.13732">
        <ele>722.57</ele>
        <time>2023-02-19T13:53:28Z</time>
      </trkpt>
      <trkpt lat="44.44911" lon="5.1373">
        <ele>722.09</ele>
        <time>2023-02-19T13:53:29Z</time>
      </trkpt>
      <trkpt lat="44.44914" lon="5.13697">
        <ele>719.68</ele>
        <time>2023-02-19T13:53:47Z</time>
      </trkpt>
      <trkpt lat="44.44919" lon="5.13669">
        <ele>716.8</ele>
        <time>2023-02-19T13:54:02Z</time>
      </trkpt>
      <trkpt lat="44.44923" lon="5.13666">
        <ele>716.32</ele>
        <time>2023-02-19T13:54:06Z</time>
      </trkpt>
      <trkpt lat="44.44925" lon="5.13672">
        <ele>715.84</ele>
        <time>2023-02-19T13:54:09Z</time>
      </trkpt>
      <trkpt lat="44.44927" lon="5.13697">
        <ele>714.4</ele>
        <time>2023-02-19T13:54:24Z</time>
      </trkpt>
      <trkpt lat="44.44931" lon="5.13697">
        <ele>713.44</ele>
        <time>2023-02-19T13:54:29Z</time>
      </trkpt>
      <trkpt lat="44.44932" lon="5.13681">
        <ele>711.51</ele>
        <time>2023-02-19T13:54:40Z</time>
      </trkpt>
      <trkpt lat="44.44937" lon="5.13667">
        <ele>711.03</ele>
        <time>2023-02-19T13:54:47Z</time>
      </trkpt>
      <trkpt lat="44.4494" lon="5.13645">
        <ele>709.59</ele>
        <time>2023-02-19T13:55:00Z</time>
      </trkpt>
      <trkpt lat="44.44945" lon="5.13627">
        <ele>708.63</ele>
        <time>2023-02-19T13:55:18Z</time>
      </trkpt>
      <trkpt lat="44.44945" lon="5.13623">
        <ele>708.15</ele>
        <time>2023-02-19T13:55:32Z</time>
      </trkpt>
      <trkpt lat="44.44943" lon="5.13612">
        <ele>707.19</ele>
        <time>2023-02-19T13:55:45Z</time>
      </trkpt>
      <trkpt lat="44.4494" lon="5.13598">
        <ele>705.26</ele>
        <time>2023-02-19T13:55:59Z</time>
      </trkpt>
      <trkpt lat="44.44938" lon="5.13585">
        <ele>702.86</ele>
        <time>2023-02-19T13:56:15Z</time>
      </trkpt>
      <trkpt lat="44.44945" lon="5.13588">
        <ele>702.86</ele>
        <time>2023-02-19T13:56:27Z</time>
      </trkpt>
      <trkpt lat="44.44957" lon="5.13607">
        <ele>701.9</ele>
        <time>2023-02-19T13:56:42Z</time>
      </trkpt>
      <trkpt lat="44.44963" lon="5.13631">
        <ele>699.98</ele>
        <time>2023-02-19T13:56:58Z</time>
      </trkpt>
      <trkpt lat="44.44967" lon="5.13643">
        <ele>699.02</ele>
        <time>2023-02-19T13:57:13Z</time>
      </trkpt>
      <trkpt lat="44.44971" lon="5.13656">
        <ele>697.09</ele>
        <time>2023-02-19T13:57:26Z</time>
      </trkpt>
      <trkpt lat="44.44971" lon="5.13658">
        <ele>697.09</ele>
        <time>2023-02-19T13:57:48Z</time>
      </trkpt>
      <trkpt lat="44.44972" lon="5.13659">
        <ele>697.09</ele>
        <time>2023-02-19T13:57:57Z</time>
      </trkpt>
      <trkpt lat="44.44989" lon="5.13684">
        <ele>695.65</ele>
        <time>2023-02-19T13:58:15Z</time>
      </trkpt>
      <trkpt lat="44.45011" lon="5.13706">
        <ele>692.77</ele>
        <time>2023-02-19T13:58:33Z</time>
      </trkpt>
      <trkpt lat="44.4503" lon="5.13716">
        <ele>690.36</ele>
        <time>2023-02-19T13:58:47Z</time>
      </trkpt>
      <trkpt lat="44.45054" lon="5.13722">
        <ele>687.48</ele>
        <time>2023-02-19T13:59:03Z</time>
      </trkpt>
      <trkpt lat="44.4507" lon="5.13746">
        <ele>684.12</ele>
        <time>2023-02-19T13:59:19Z</time>
      </trkpt>
      <trkpt lat="44.45073" lon="5.13758">
        <ele>682.19</ele>
        <time>2023-02-19T13:59:26Z</time>
      </trkpt>
      <trkpt lat="44.45078" lon="5.13761">
        <ele>681.23</ele>
        <time>2023-02-19T13:59:31Z</time>
      </trkpt>
      <trkpt lat="44.45081" lon="5.13756">
        <ele>679.79</ele>
        <time>2023-02-19T13:59:35Z</time>
      </trkpt>
      <trkpt lat="44.45081" lon="5.13752">
        <ele>679.31</ele>
        <time>2023-02-19T13:59:37Z</time>
      </trkpt>
      <trkpt lat="44.45072" lon="5.13725">
        <ele>676.91</ele>
        <time>2023-02-19T13:59:54Z</time>
      </trkpt>
      <trkpt lat="44.4507" lon="5.13717">
        <ele>675.94</ele>
        <time>2023-02-19T13:59:59Z</time>
      </trkpt>
      <trkpt lat="44.45065" lon="5.13707">
        <ele>674.5</ele>
        <time>2023-02-19T14:00:05Z</time>
      </trkpt>
      <trkpt lat="44.45061" lon="5.137">
        <ele>673.06</ele>
        <time>2023-02-19T14:00:10Z</time>
      </trkpt>
      <trkpt lat="44.45052" lon="5.13673">
        <ele>671.62</ele>
        <time>2023-02-19T14:00:25Z</time>
      </trkpt>
      <trkpt lat="44.45052" lon="5.13667">
        <ele>671.14</ele>
        <time>2023-02-19T14:00:28Z</time>
      </trkpt>
      <trkpt lat="44.45061" lon="5.13667">
        <ele>669.7</ele>
        <time>2023-02-19T14:00:37Z</time>
      </trkpt>
      <trkpt lat="44.45073" lon="5.1368">
        <ele>666.81</ele>
        <time>2023-02-19T14:00:49Z</time>
      </trkpt>
      <trkpt lat="44.45089" lon="5.13703">
        <ele>662.97</ele>
        <time>2023-02-19T14:01:06Z</time>
      </trkpt>
      <trkpt lat="44.4509" lon="5.13705">
        <ele>662.97</ele>
        <time>2023-02-19T14:01:07Z</time>
      </trkpt>
      <trkpt lat="44.45093" lon="5.13708">
        <ele>662.01</ele>
        <time>2023-02-19T14:01:10Z</time>
      </trkpt>
      <trkpt lat="44.45109" lon="5.13731">
        <ele>659.12</ele>
        <time>2023-02-19T14:01:27Z</time>
      </trkpt>
      <trkpt lat="44.45111" lon="5.13731">
        <ele>659.12</ele>
        <time>2023-02-19T14:01:29Z</time>
      </trkpt>
      <trkpt lat="44.45115" lon="5.13726">
        <ele>659.12</ele>
        <time>2023-02-19T14:01:34Z</time>
      </trkpt>
      <trkpt lat="44.4511" lon="5.13713">
        <ele>657.2</ele>
        <time>2023-02-19T14:01:44Z</time>
      </trkpt>
      <trkpt lat="44.45106" lon="5.13699">
        <ele>655.76</ele>
        <time>2023-02-19T14:01:51Z</time>
      </trkpt>
      <trkpt lat="44.45103" lon="5.13669">
        <ele>653.83</ele>
        <time>2023-02-19T14:02:07Z</time>
      </trkpt>
      <trkpt lat="44.45102" lon="5.13657">
        <ele>652.39</ele>
        <time>2023-02-19T14:02:13Z</time>
      </trkpt>
      <trkpt lat="44.45104" lon="5.13645">
        <ele>650.95</ele>
        <time>2023-02-19T14:02:20Z</time>
      </trkpt>
      <trkpt lat="44.4511" lon="5.13639">
        <ele>650.47</ele>
        <time>2023-02-19T14:02:26Z</time>
      </trkpt>
      <trkpt lat="44.45114" lon="5.13632">
        <ele>649.51</ele>
        <time>2023-02-19T14:02:31Z</time>
      </trkpt>
      <trkpt lat="44.45116" lon="5.13607">
        <ele>647.59</ele>
        <time>2023-02-19T14:02:47Z</time>
      </trkpt>
      <trkpt lat="44.45111" lon="5.13594">
        <ele>646.62</ele>
        <time>2023-02-19T14:03:00Z</time>
      </trkpt>
      <trkpt lat="44.45111" lon="5.13593">
        <ele>646.62</ele>
        <time>2023-02-19T14:03:01Z</time>
      </trkpt>
      <trkpt lat="44.45107" lon="5.13588">
        <ele>645.66</ele>
        <time>2023-02-19T14:03:07Z</time>
      </trkpt>
      <trkpt lat="44.45106" lon="5.1358">
        <ele>645.66</ele>
        <time>2023-02-19T14:03:14Z</time>
      </trkpt>
      <trkpt lat="44.45107" lon="5.13575">
        <ele>647.1</ele>
        <time>2023-02-19T14:03:18Z</time>
      </trkpt>
      <trkpt lat="44.45109" lon="5.1357">
        <ele>647.59</ele>
        <time>2023-02-19T14:03:22Z</time>
      </trkpt>
      <trkpt lat="44.4511" lon="5.13568">
        <ele>647.59</ele>
        <time>2023-02-19T14:03:24Z</time>
      </trkpt>
      <trkpt lat="44.4511" lon="5.13563">
        <ele>648.07</ele>
        <time>2023-02-19T14:03:27Z</time>
      </trkpt>
      <trkpt lat="44.45108" lon="5.13525">
        <ele>648.55</ele>
        <time>2023-02-19T14:03:46Z</time>
      </trkpt>
      <trkpt lat="44.45109" lon="5.13499">
        <ele>648.55</ele>
        <time>2023-02-19T14:04:01Z</time>
      </trkpt>
      <trkpt lat="44.45109" lon="5.13474">
        <ele>649.99</ele>
        <time>2023-02-19T14:04:16Z</time>
      </trkpt>
      <trkpt lat="44.45108" lon="5.13465">
        <ele>650.47</ele>
        <time>2023-02-19T14:04:22Z</time>
      </trkpt>
      <trkpt lat="44.45109" lon="5.13458">
        <ele>651.43</ele>
        <time>2023-02-19T14:04:27Z</time>
      </trkpt>
      <trkpt lat="44.45107" lon="5.13432">
        <ele>653.35</ele>
        <time>2023-02-19T14:04:43Z</time>
      </trkpt>
      <trkpt lat="44.45104" lon="5.13411">
        <ele>653.83</ele>
        <time>2023-02-19T14:04:57Z</time>
      </trkpt>
      <trkpt lat="44.45104" lon="5.1341">
        <ele>653.83</ele>
        <time>2023-02-19T14:04:58Z</time>
      </trkpt>
      <trkpt lat="44.45105" lon="5.13401">
        <ele>653.83</ele>
        <time>2023-02-19T14:05:05Z</time>
      </trkpt>
      <trkpt lat="44.45105" lon="5.13392">
        <ele>653.83</ele>
        <time>2023-02-19T14:05:11Z</time>
      </trkpt>
      <trkpt lat="44.45103" lon="5.13371">
        <ele>652.39</ele>
        <time>2023-02-19T14:05:24Z</time>
      </trkpt>
      <trkpt lat="44.45105" lon="5.13352">
        <ele>651.91</ele>
        <time>2023-02-19T14:05:37Z</time>
      </trkpt>
      <trkpt lat="44.45102" lon="5.13333">
        <ele>651.91</ele>
        <time>2023-02-19T14:05:46Z</time>
      </trkpt>
      <trkpt lat="44.45105" lon="5.13305">
        <ele>650.95</ele>
        <time>2023-02-19T14:06:01Z</time>
      </trkpt>
      <trkpt lat="44.45106" lon="5.13302">
        <ele>650.95</ele>
        <time>2023-02-19T14:06:03Z</time>
      </trkpt>
      <trkpt lat="44.45105" lon="5.13286">
        <ele>650.47</ele>
        <time>2023-02-19T14:06:11Z</time>
      </trkpt>
      <trkpt lat="44.45095" lon="5.13258">
        <ele>649.99</ele>
        <time>2023-02-19T14:06:29Z</time>
      </trkpt>
      <trkpt lat="44.45093" lon="5.13253">
        <ele>649.99</ele>
        <time>2023-02-19T14:06:33Z</time>
      </trkpt>
      <trkpt lat="44.45088" lon="5.13245">
        <ele>649.99</ele>
        <time>2023-02-19T14:06:40Z</time>
      </trkpt>
      <trkpt lat="44.45087" lon="5.13239">
        <ele>649.99</ele>
        <time>2023-02-19T14:06:44Z</time>
      </trkpt>
      <trkpt lat="44.45081" lon="5.13219">
        <ele>649.99</ele>
        <time>2023-02-19T14:06:58Z</time>
      </trkpt>
      <trkpt lat="44.45078" lon="5.13206">
        <ele>649.99</ele>
        <time>2023-02-19T14:07:06Z</time>
      </trkpt>
      <trkpt lat="44.45078" lon="5.13198">
        <ele>649.99</ele>
        <time>2023-02-19T14:07:11Z</time>
      </trkpt>
      <trkpt lat="44.45076" lon="5.1319">
        <ele>650.95</ele>
        <time>2023-02-19T14:07:15Z</time>
      </trkpt>
      <trkpt lat="44.45075" lon="5.13184">
        <ele>651.43</ele>
        <time>2023-02-19T14:07:19Z</time>
      </trkpt>
      <trkpt lat="44.45059" lon="5.13171">
        <ele>652.87</ele>
        <time>2023-02-19T14:07:33Z</time>
      </trkpt>
      <trkpt lat="44.45052" lon="5.1317">
        <ele>653.83</ele>
        <time>2023-02-19T14:07:39Z</time>
      </trkpt>
      <trkpt lat="44.4505" lon="5.1317">
        <ele>653.83</ele>
        <time>2023-02-19T14:07:41Z</time>
      </trkpt>
      <trkpt lat="44.45043" lon="5.13173">
        <ele>654.31</ele>
        <time>2023-02-19T14:07:47Z</time>
      </trkpt>
      <trkpt lat="44.45041" lon="5.13174">
        <ele>654.31</ele>
        <time>2023-02-19T14:07:49Z</time>
      </trkpt>
      <trkpt lat="44.45038" lon="5.13176">
        <ele>654.31</ele>
        <time>2023-02-19T14:07:52Z</time>
      </trkpt>
      <trkpt lat="44.45025" lon="5.1318">
        <ele>655.76</ele>
        <time>2023-02-19T14:08:03Z</time>
      </trkpt>
      <trkpt lat="44.45006" lon="5.1318">
        <ele>656.72</ele>
        <time>2023-02-19T14:08:20Z</time>
      </trkpt>
      <trkpt lat="44.45004" lon="5.1318">
        <ele>656.72</ele>
        <time>2023-02-19T14:08:31Z</time>
      </trkpt>
    </trkseg>
  </trk>
</gpx>